PWSweather.com
Personal Weather Stations
Station Observations
CAPEBRETON
Mira Road, Sydney, NS

Mira RoadSydney, NS

Lat: 46.1207292, Lon: -60.1594642

Elevation: 175

Station Type: AcuRite Professional Weather Center

http://pwscapebreton.wix.com/weather-watcher

Latest ConditionsUpdated 12:54:43 PM GMT-04:56 Monday, Jan 23, 2017
Currently Today's Max Today's Min Today's Average
Temperature 29.8°F-1.2°C 30.0°F-1.1°C 17.8°F-7.9°C 24.5°F-4.2°C
Dew Point 16.0°F-8.9°C 24.5°F-4.2°C 12.9°F-10.6°C 17.0°F-8.3°C
Winds 3.2 mph NNE5.1 kmh NNE 9.9 mph NW15.9 kmh NW - 3.0 mph 4.8 kmh
Wind Gusts 6.8 mph10.9 kmh 9.9 mph15.9 kmh - -
Humidity 56% 82% 55% 73%
Pressure 30.05 in1017.6 mb 30.09 in1019.0 mb 29.92 in1013.2 mb -
Hour Temp Dew Point Humidity Winds Wind Gusts Pressure Precip Precip Rate Daily Precip Total
12:54 PM 29.8°F-1.2°C 16.0°F-8.9°C 56% 5.3 mph WNW8.5 kmh WNW 6.8 mph10.9 kmh 30.05 in1017.6 mb 0.00 in0.0 mm 0.00 in0.0 mm 0.00 in0.0 mm
12:53 PM 30.0°F-1.1°C 16.2°F-8.8°C 56% 6.3 mph NNW10.1 kmh NNW 6.8 mph10.9 kmh 30.05 in1017.6 mb 0.00 in0.0 mm 0.00 in0.0 mm 0.00 in0.0 mm
12:52 PM 30.0°F-1.1°C 16.2°F-8.8°C 56% 2.7 mph NNW4.3 kmh NNW 6.8 mph10.9 kmh 30.05 in1017.6 mb 0.00 in0.0 mm 0.00 in0.0 mm 0.00 in0.0 mm
12:51 PM 29.8°F-1.2°C 15.6°F-9.1°C 55% 2.7 mph SE4.3 kmh SE 6.8 mph10.9 kmh 30.05 in1017.6 mb 0.00 in0.0 mm 0.00 in0.0 mm 0.00 in0.0 mm
12:50 PM 29.8°F-1.2°C 15.6°F-9.1°C 55% 3.7 mph NNW6.0 kmh NNW 6.8 mph10.9 kmh 30.05 in1017.6 mb 0.00 in0.0 mm 0.00 in0.0 mm 0.00 in0.0 mm
12:49 PM 29.7°F-1.3°C 15.5°F-9.2°C 55% 2.7 mph NNE4.3 kmh NNE 6.8 mph10.9 kmh 30.05 in1017.6 mb 0.00 in0.0 mm 0.00 in0.0 mm 0.00 in0.0 mm
12:48 PM 29.7°F-1.3°C 15.9°F-8.9°C 56% 4.7 mph NNW7.6 kmh NNW 6.8 mph10.9 kmh 30.05 in1017.6 mb 0.00 in0.0 mm 0.00 in0.0 mm 0.00 in0.0 mm
12:47 PM 29.7°F-1.3°C 15.9°F-8.9°C 56% 5.8 mph NNW9.3 kmh NNW 7.8 mph12.6 kmh 30.05 in1017.6 mb 0.00 in0.0 mm 0.00 in0.0 mm 0.00 in0.0 mm
12:46 PM 29.7°F-1.3°C 15.5°F-9.2°C 55% 4.2 mph N6.8 kmh N 7.8 mph12.6 kmh 30.05 in1017.6 mb 0.00 in0.0 mm 0.00 in0.0 mm 0.00 in0.0 mm
12:45 PM 29.7°F-1.3°C 15.5°F-9.2°C 55% 4.2 mph NNE6.8 kmh NNE 7.8 mph12.6 kmh 30.05 in1017.6 mb 0.00 in0.0 mm 0.00 in0.0 mm 0.00 in0.0 mm
12:44 PM 29.7°F-1.3°C 15.9°F-8.9°C 56% 4.2 mph NW6.8 kmh NW 7.8 mph12.6 kmh 30.05 in1017.6 mb 0.00 in0.0 mm 0.00 in0.0 mm 0.00 in0.0 mm
12:43 PM 29.7°F-1.3°C 15.9°F-8.9°C 56% 4.7 mph NNW7.6 kmh NNW 7.8 mph12.6 kmh 30.05 in1017.6 mb 0.00 in0.0 mm 0.00 in0.0 mm 0.00 in0.0 mm
12:42 PM 29.7°F-1.3°C 15.9°F-8.9°C 56% 3.2 mph NW5.1 kmh NW 7.8 mph12.6 kmh 30.05 in1017.6 mb 0.00 in0.0 mm 0.00 in0.0 mm 0.00 in0.0 mm
12:41 PM 29.7°F-1.3°C 15.9°F-8.9°C 56% 5.8 mph NNE9.3 kmh NNE 7.8 mph12.6 kmh 30.05 in1017.6 mb 0.00 in0.0 mm 0.00 in0.0 mm 0.00 in0.0 mm
12:40 PM 29.7°F-1.3°C 15.9°F-8.9°C 56% 3.7 mph NE6.0 kmh NE 7.8 mph12.6 kmh 30.05 in1017.6 mb 0.00 in0.0 mm 0.00 in0.0 mm 0.00 in0.0 mm
12:39 PM 29.7°F-1.3°C 16.4°F-8.7°C 57% 4.7 mph NE7.6 kmh NE 7.8 mph12.6 kmh 30.05 in1017.6 mb 0.00 in0.0 mm 0.00 in0.0 mm 0.00 in0.0 mm
12:38 PM 29.7°F-1.3°C 16.8°F-8.4°C 58% 5.3 mph NW8.5 kmh NW 7.8 mph12.6 kmh 30.05 in1017.6 mb 0.00 in0.0 mm 0.00 in0.0 mm 0.00 in0.0 mm
12:37 PM 29.7°F-1.3°C 16.4°F-8.7°C 57% 4.2 mph NW6.8 kmh NW 6.8 mph10.9 kmh 30.05 in1017.6 mb 0.00 in0.0 mm 0.00 in0.0 mm 0.00 in0.0 mm
12:36 PM 29.7°F-1.3°C 16.4°F-8.7°C 57% 4.2 mph WNW6.8 kmh WNW 6.8 mph10.9 kmh 30.05 in1017.6 mb 0.00 in0.0 mm 0.00 in0.0 mm 0.00 in0.0 mm
12:35 PM 29.7°F-1.3°C 16.8°F-8.4°C 58% 3.2 mph NNW5.1 kmh NNW 6.8 mph10.9 kmh 30.05 in1017.6 mb 0.00 in0.0 mm 0.00 in0.0 mm 0.00 in0.0 mm
12:34 PM 29.5°F-1.4°C 16.2°F-8.8°C 57% 4.2 mph ENE6.8 kmh ENE 6.8 mph10.9 kmh 30.05 in1017.6 mb 0.00 in0.0 mm 0.00 in0.0 mm 0.00 in0.0 mm
12:33 PM 29.5°F-1.4°C 16.2°F-8.8°C 57% 3.2 mph NNE5.1 kmh NNE 6.8 mph10.9 kmh 30.05 in1017.6 mb 0.00 in0.0 mm 0.00 in0.0 mm 0.00 in0.0 mm
12:32 PM 29.3°F-1.5°C 16.0°F-8.9°C 57% 3.7 mph N6.0 kmh N 6.8 mph10.9 kmh 30.05 in1017.6 mb 0.00 in0.0 mm 0.00 in0.0 mm 0.00 in0.0 mm
12:31 PM 29.3°F-1.5°C 16.0°F-8.9°C 57% 4.7 mph NW7.6 kmh NW 7.8 mph12.6 kmh 30.05 in1017.6 mb 0.00 in0.0 mm 0.00 in0.0 mm 0.00 in0.0 mm
12:30 PM 29.1°F-1.6°C 15.8°F-9.0°C 57% 3.2 mph NNE5.1 kmh NNE 7.8 mph12.6 kmh 30.05 in1017.6 mb 0.00 in0.0 mm 0.00 in0.0 mm 0.00 in0.0 mm
12:29 PM 29.1°F-1.6°C 15.4°F-9.2°C 56% 6.8 mph W10.9 kmh W 7.8 mph12.6 kmh 30.05 in1017.6 mb 0.00 in0.0 mm 0.00 in0.0 mm 0.00 in0.0 mm
12:28 PM 29.1°F-1.6°C 15.4°F-9.2°C 56% 3.2 mph NE5.1 kmh NE 7.8 mph12.6 kmh 30.05 in1017.6 mb 0.00 in0.0 mm 0.00 in0.0 mm 0.00 in0.0 mm
12:27 PM 29.1°F-1.6°C 15.4°F-9.2°C 56% 4.7 mph NNW7.6 kmh NNW 7.8 mph12.6 kmh 30.05 in1017.6 mb 0.00 in0.0 mm 0.00 in0.0 mm 0.00 in0.0 mm
12:26 PM 29.1°F-1.6°C 15.4°F-9.2°C 56% 3.2 mph N5.1 kmh N 7.8 mph12.6 kmh 30.05 in1017.6 mb 0.00 in0.0 mm 0.00 in0.0 mm 0.00 in0.0 mm
12:25 PM 29.1°F-1.6°C 15.8°F-9.0°C 57% 6.3 mph NNW10.1 kmh NNW 7.8 mph12.6 kmh 30.05 in1017.6 mb 0.00 in0.0 mm 0.00 in0.0 mm 0.00 in0.0 mm
12:24 PM 29.1°F-1.6°C 15.4°F-9.2°C 56% 4.7 mph NNE7.6 kmh NNE 7.8 mph12.6 kmh 30.05 in1017.6 mb 0.00 in0.0 mm 0.00 in0.0 mm 0.00 in0.0 mm
12:23 PM 29.1°F-1.6°C 15.4°F-9.2°C 56% 3.7 mph NNW6.0 kmh NNW 7.8 mph12.6 kmh 30.05 in1017.6 mb 0.00 in0.0 mm 0.00 in0.0 mm 0.00 in0.0 mm
12:22 PM 29.1°F-1.6°C 15.0°F-9.4°C 55% 4.2 mph N6.8 kmh N 7.8 mph12.6 kmh 30.05 in1017.6 mb 0.00 in0.0 mm 0.00 in0.0 mm 0.00 in0.0 mm
12:21 PM 29.3°F-1.5°C 15.2°F-9.3°C 55% 4.2 mph WSW6.8 kmh WSW 7.3 mph11.7 kmh 30.05 in1017.6 mb 0.00 in0.0 mm 0.00 in0.0 mm 0.00 in0.0 mm
12:20 PM 29.3°F-1.5°C 15.6°F-9.1°C 56% 5.8 mph NW9.3 kmh NW 6.8 mph10.9 kmh 30.05 in1017.6 mb 0.00 in0.0 mm 0.00 in0.0 mm 0.00 in0.0 mm
12:19 PM 29.3°F-1.5°C 15.6°F-9.1°C 56% 4.2 mph NNE6.8 kmh NNE 6.8 mph10.9 kmh 30.05 in1017.6 mb 0.00 in0.0 mm 0.00 in0.0 mm 0.00 in0.0 mm
12:18 PM 29.3°F-1.5°C 15.6°F-9.1°C 56% 5.3 mph NNE8.5 kmh NNE 6.8 mph10.9 kmh 30.05 in1017.6 mb 0.00 in0.0 mm 0.00 in0.0 mm 0.00 in0.0 mm
12:17 PM 29.3°F-1.5°C 16.0°F-8.9°C 57% 3.7 mph NNE6.0 kmh NNE 6.8 mph10.9 kmh 30.05 in1017.6 mb 0.00 in0.0 mm 0.00 in0.0 mm 0.00 in0.0 mm
12:16 PM 29.3°F-1.5°C 16.0°F-8.9°C 57% 3.7 mph NNE6.0 kmh NNE 6.8 mph10.9 kmh 30.05 in1017.6 mb 0.00 in0.0 mm 0.00 in0.0 mm 0.00 in0.0 mm
12:15 PM 29.3°F-1.5°C 16.0°F-8.9°C 57% 5.8 mph N9.3 kmh N 5.8 mph9.3 kmh 30.05 in1017.6 mb 0.00 in0.0 mm 0.00 in0.0 mm 0.00 in0.0 mm
12:14 PM 29.3°F-1.5°C 16.0°F-8.9°C 57% 3.2 mph N5.1 kmh N 5.8 mph9.3 kmh 30.05 in1017.6 mb 0.00 in0.0 mm 0.00 in0.0 mm 0.00 in0.0 mm
12:13 PM 29.3°F-1.5°C 16.4°F-8.7°C 58% 4.7 mph NNE7.6 kmh NNE 5.8 mph9.3 kmh 30.05 in1017.6 mb 0.00 in0.0 mm 0.00 in0.0 mm 0.00 in0.0 mm
12:12 PM 29.1°F-1.6°C 16.2°F-8.8°C 58% 2.2 mph NNW3.5 kmh NNW 5.8 mph9.3 kmh 30.05 in1017.6 mb 0.00 in0.0 mm 0.00 in0.0 mm 0.00 in0.0 mm
12:11 PM 29.1°F-1.6°C 15.8°F-9.0°C 57% 2.7 mph NE4.3 kmh NE 8.3 mph13.4 kmh 30.05 in1017.6 mb 0.00 in0.0 mm 0.00 in0.0 mm 0.00 in0.0 mm
12:10 PM 28.9°F-1.7°C 15.6°F-9.1°C 57% 4.2 mph NW6.8 kmh NW 8.3 mph13.4 kmh 30.05 in1017.6 mb 0.00 in0.0 mm 0.00 in0.0 mm 0.00 in0.0 mm
12:09 PM 28.9°F-1.7°C 16.0°F-8.9°C 58% 5.3 mph NW8.5 kmh NW 8.3 mph13.4 kmh 30.05 in1017.6 mb 0.00 in0.0 mm 0.00 in0.0 mm 0.00 in0.0 mm
12:08 PM 28.9°F-1.7°C 15.6°F-9.1°C 57% 4.7 mph NW7.6 kmh NW 8.3 mph13.4 kmh 30.05 in1017.6 mb 0.00 in0.0 mm 0.00 in0.0 mm 0.00 in0.0 mm
12:07 PM 28.9°F-1.7°C 16.0°F-8.9°C 58% 4.2 mph N6.8 kmh N 8.3 mph13.4 kmh 30.05 in1017.6 mb 0.00 in0.0 mm 0.00 in0.0 mm 0.00 in0.0 mm
12:06 PM 28.9°F-1.7°C 16.0°F-8.9°C 58% 2.2 mph NNE3.5 kmh NNE 8.3 mph13.4 kmh 30.05 in1017.6 mb 0.00 in0.0 mm 0.00 in0.0 mm 0.00 in0.0 mm
12:05 PM 28.9°F-1.7°C 16.0°F-8.9°C 58% 5.8 mph NW9.3 kmh NW 8.3 mph13.4 kmh 30.05 in1017.6 mb 0.00 in0.0 mm 0.00 in0.0 mm 0.00 in0.0 mm
12:04 PM 28.9°F-1.7°C 16.0°F-8.9°C 58% 4.2 mph NNE6.8 kmh NNE 8.3 mph13.4 kmh 30.05 in1017.6 mb 0.00 in0.0 mm 0.00 in0.0 mm 0.00 in0.0 mm
12:03 PM 28.9°F-1.7°C 16.0°F-8.9°C 58% 4.7 mph NNW7.6 kmh NNW 8.3 mph13.4 kmh 30.05 in1017.6 mb 0.00 in0.0 mm 0.00 in0.0 mm 0.00 in0.0 mm
12:02 PM 28.9°F-1.7°C 16.0°F-8.9°C 58% 5.8 mph N9.3 kmh N 8.3 mph13.4 kmh 30.06 in1017.9 mb 0.00 in0.0 mm 0.00 in0.0 mm 0.00 in0.0 mm
12:01 PM 28.9°F-1.7°C 16.4°F-8.7°C 59% 3.7 mph NNE6.0 kmh NNE 7.8 mph12.6 kmh 30.06 in1017.9 mb 0.00 in0.0 mm 0.00 in0.0 mm 0.00 in0.0 mm
12:00 PM 28.9°F-1.7°C 16.8°F-8.4°C 60% 4.2 mph NNE6.8 kmh NNE 7.8 mph12.6 kmh 30.06 in1017.9 mb 0.00 in0.0 mm 0.00 in0.0 mm 0.00 in0.0 mm
11:59 AM 28.8°F-1.8°C 17.1°F-8.3°C 61% 2.7 mph NNE4.3 kmh NNE 7.8 mph12.6 kmh 30.06 in1017.9 mb 0.00 in0.0 mm 0.00 in0.0 mm 0.00 in0.0 mm
11:58 AM 28.8°F-1.8°C 16.7°F-8.5°C 60% 2.7 mph NNE4.3 kmh NNE 7.8 mph12.6 kmh 30.06 in1017.9 mb 0.00 in0.0 mm 0.00 in0.0 mm 0.00 in0.0 mm
11:57 AM 28.6°F-1.9°C 16.5°F-8.6°C 60% 3.2 mph NW5.1 kmh NW 7.8 mph12.6 kmh 30.06 in1017.9 mb 0.00 in0.0 mm 0.00 in0.0 mm 0.00 in0.0 mm
11:56 AM 28.6°F-1.9°C 16.5°F-8.6°C 60% 3.7 mph NW6.0 kmh NW 7.8 mph12.6 kmh 30.06 in1017.9 mb 0.00 in0.0 mm 0.00 in0.0 mm 0.00 in0.0 mm
11:55 AM 28.4°F-2.0°C 15.9°F-8.9°C 59% 3.7 mph NW6.0 kmh NW 7.8 mph12.6 kmh 30.06 in1017.9 mb 0.00 in0.0 mm 0.00 in0.0 mm 0.00 in0.0 mm
11:54 AM 28.6°F-1.9°C 16.1°F-8.8°C 59% 6.8 mph NW10.9 kmh NW 7.8 mph12.6 kmh 30.06 in1017.9 mb 0.00 in0.0 mm 0.00 in0.0 mm 0.00 in0.0 mm
11:53 AM 28.6°F-1.9°C 15.7°F-9.1°C 58% 7.8 mph NW12.6 kmh NW 7.8 mph12.6 kmh 30.06 in1017.9 mb 0.00 in0.0 mm 0.00 in0.0 mm 0.00 in0.0 mm
11:52 AM 28.8°F-1.8°C 15.9°F-8.9°C 58% 5.3 mph NW8.5 kmh NW 6.3 mph10.1 kmh 30.06 in1017.9 mb 0.00 in0.0 mm 0.00 in0.0 mm 0.00 in0.0 mm
11:51 AM 28.8°F-1.8°C 16.3°F-8.7°C 59% 5.8 mph NNW9.3 kmh NNW 6.3 mph10.1 kmh 30.07 in1018.3 mb 0.00 in0.0 mm 0.00 in0.0 mm 0.00 in0.0 mm
11:50 AM 28.8°F-1.8°C 17.1°F-8.3°C 61% 4.2 mph NW6.8 kmh NW 6.3 mph10.1 kmh 30.07 in1018.3 mb 0.00 in0.0 mm 0.00 in0.0 mm 0.00 in0.0 mm
11:49 AM 28.8°F-1.8°C 17.1°F-8.3°C 61% 2.2 mph NE3.5 kmh NE 6.3 mph10.1 kmh 30.07 in1018.3 mb 0.00 in0.0 mm 0.00 in0.0 mm 0.00 in0.0 mm
11:48 AM 28.6°F-1.9°C 16.5°F-8.6°C 60% 1.7 mph NNW2.7 kmh NNW 6.3 mph10.1 kmh 30.07 in1018.3 mb 0.00 in0.0 mm 0.00 in0.0 mm 0.00 in0.0 mm
11:47 AM 28.6°F-1.9°C 16.9°F-8.4°C 61% 6.3 mph NW10.1 kmh NW 6.3 mph10.1 kmh 30.07 in1018.3 mb 0.00 in0.0 mm 0.00 in0.0 mm 0.00 in0.0 mm
11:46 AM 28.6°F-1.9°C 16.5°F-8.6°C 60% 4.7 mph WNW7.6 kmh WNW 5.3 mph8.5 kmh 30.07 in1018.3 mb 0.00 in0.0 mm 0.00 in0.0 mm 0.00 in0.0 mm
11:45 AM 28.6°F-1.9°C 16.5°F-8.6°C 60% 4.2 mph NNE6.8 kmh NNE 5.3 mph8.5 kmh 30.07 in1018.3 mb 0.00 in0.0 mm 0.00 in0.0 mm 0.00 in0.0 mm
11:44 AM 28.6°F-1.9°C 16.9°F-8.4°C 61% 4.2 mph ESE6.8 kmh ESE 5.3 mph8.5 kmh 30.07 in1018.3 mb 0.00 in0.0 mm 0.00 in0.0 mm 0.00 in0.0 mm
11:43 AM 28.6°F-1.9°C 17.3°F-8.2°C 62% 4.2 mph NE6.8 kmh NE 5.3 mph8.5 kmh 30.07 in1018.3 mb 0.00 in0.0 mm 0.00 in0.0 mm 0.00 in0.0 mm
11:42 AM 28.6°F-1.9°C 17.3°F-8.2°C 62% 4.2 mph NE6.8 kmh NE 5.3 mph8.5 kmh 30.07 in1018.3 mb 0.00 in0.0 mm 0.00 in0.0 mm 0.00 in0.0 mm
11:41 AM 28.4°F-2.0°C 16.7°F-8.5°C 61% 2.7 mph NNE4.3 kmh NNE 5.3 mph8.5 kmh 30.07 in1018.3 mb 0.00 in0.0 mm 0.00 in0.0 mm 0.00 in0.0 mm
11:40 AM 28.2°F-2.1°C 16.1°F-8.8°C 60% 4.7 mph N7.6 kmh N 5.3 mph8.5 kmh 30.07 in1018.3 mb 0.00 in0.0 mm 0.00 in0.0 mm 0.00 in0.0 mm
11:39 AM 28.2°F-2.1°C 16.1°F-8.8°C 60% 3.2 mph NNE5.1 kmh NNE 5.3 mph8.5 kmh 30.07 in1018.3 mb 0.00 in0.0 mm 0.00 in0.0 mm 0.00 in0.0 mm
11:38 AM 28.2°F-2.1°C 16.1°F-8.8°C 60% 4.2 mph NNW6.8 kmh NNW 5.3 mph8.5 kmh 30.06 in1017.9 mb 0.00 in0.0 mm 0.00 in0.0 mm 0.00 in0.0 mm
11:37 AM 28.2°F-2.1°C 16.5°F-8.6°C 61% 5.3 mph WNW8.5 kmh WNW 5.3 mph8.5 kmh 30.06 in1017.9 mb 0.00 in0.0 mm 0.00 in0.0 mm 0.00 in0.0 mm
11:36 AM 28.2°F-2.1°C 16.5°F-8.6°C 61% 3.2 mph NNE5.1 kmh NNE 5.3 mph8.5 kmh 30.06 in1017.9 mb 0.00 in0.0 mm 0.00 in0.0 mm 0.00 in0.0 mm
11:35 AM 28.2°F-2.1°C 16.5°F-8.6°C 61% 3.7 mph WNW6.0 kmh WNW 5.8 mph9.3 kmh 30.06 in1017.9 mb 0.00 in0.0 mm 0.00 in0.0 mm 0.00 in0.0 mm
11:34 AM 28.2°F-2.1°C 16.5°F-8.6°C 61% 2.7 mph NNW4.3 kmh NNW 5.8 mph9.3 kmh 30.06 in1017.9 mb 0.00 in0.0 mm 0.00 in0.0 mm 0.00 in0.0 mm
11:33 AM 28.2°F-2.1°C 16.9°F-8.4°C 62% 4.2 mph N6.8 kmh N 5.8 mph9.3 kmh 30.06 in1017.9 mb 0.00 in0.0 mm 0.00 in0.0 mm 0.00 in0.0 mm
11:32 AM 28.2°F-2.1°C 16.9°F-8.4°C 62% 4.2 mph WNW6.8 kmh WNW 5.8 mph9.3 kmh 30.06 in1017.9 mb 0.00 in0.0 mm 0.00 in0.0 mm 0.00 in0.0 mm
11:31 AM 28.2°F-2.1°C 16.9°F-8.4°C 62% 3.7 mph N6.0 kmh N 5.8 mph9.3 kmh 30.06 in1017.9 mb 0.00 in0.0 mm 0.00 in0.0 mm 0.00 in0.0 mm
11:30 AM 28.0°F-2.2°C 17.1°F-8.3°C 63% 2.7 mph NE4.3 kmh NE 5.8 mph9.3 kmh 30.06 in1017.9 mb 0.00 in0.0 mm 0.00 in0.0 mm 0.00 in0.0 mm
11:29 AM 28.0°F-2.2°C 17.1°F-8.3°C 63% 4.7 mph NW7.6 kmh NW 5.8 mph9.3 kmh 30.06 in1017.9 mb 0.00 in0.0 mm 0.00 in0.0 mm 0.00 in0.0 mm
11:28 AM 28.0°F-2.2°C 16.7°F-8.5°C 62% 2.7 mph E4.3 kmh E 5.8 mph9.3 kmh 30.06 in1017.9 mb 0.00 in0.0 mm 0.00 in0.0 mm 0.00 in0.0 mm
11:27 AM 28.0°F-2.2°C 16.7°F-8.5°C 62% 3.7 mph NNW6.0 kmh NNW 5.8 mph9.3 kmh 30.06 in1017.9 mb 0.00 in0.0 mm 0.00 in0.0 mm 0.00 in0.0 mm
11:26 AM 28.0°F-2.2°C 16.7°F-8.5°C 62% 5.3 mph WNW8.5 kmh WNW 5.8 mph9.3 kmh 30.07 in1018.3 mb 0.00 in0.0 mm 0.00 in0.0 mm 0.00 in0.0 mm
11:25 AM 27.9°F-2.3°C 16.6°F-8.6°C 62% 3.7 mph NNW6.0 kmh NNW 5.3 mph8.5 kmh 30.07 in1018.3 mb 0.00 in0.0 mm 0.00 in0.0 mm 0.00 in0.0 mm
11:24 AM 27.9°F-2.3°C 16.6°F-8.6°C 62% 4.7 mph NW7.6 kmh NW 5.3 mph8.5 kmh 30.07 in1018.3 mb 0.00 in0.0 mm 0.00 in0.0 mm 0.00 in0.0 mm
11:23 AM 27.9°F-2.3°C 16.6°F-8.6°C 62% 3.2 mph N5.1 kmh N 5.3 mph8.5 kmh 30.07 in1018.3 mb 0.00 in0.0 mm 0.00 in0.0 mm 0.00 in0.0 mm
11:22 AM 27.9°F-2.3°C 16.6°F-8.6°C 62% 3.2 mph N5.1 kmh N 5.3 mph8.5 kmh 30.07 in1018.3 mb 0.00 in0.0 mm 0.00 in0.0 mm 0.00 in0.0 mm
11:21 AM 28.0°F-2.2°C 16.7°F-8.5°C 62% 4.7 mph W7.6 kmh W 5.3 mph8.5 kmh 30.07 in1018.3 mb 0.00 in0.0 mm 0.00 in0.0 mm 0.00 in0.0 mm
11:20 AM 28.0°F-2.2°C 16.7°F-8.5°C 62% 4.2 mph NNW6.8 kmh NNW 5.3 mph8.5 kmh 30.07 in1018.3 mb 0.00 in0.0 mm 0.00 in0.0 mm 0.00 in0.0 mm
11:19 AM 28.0°F-2.2°C 16.7°F-8.5°C 62% 5.3 mph NNW8.5 kmh NNW 5.3 mph8.5 kmh 30.07 in1018.3 mb 0.00 in0.0 mm 0.00 in0.0 mm 0.00 in0.0 mm
11:18 AM 28.0°F-2.2°C 17.1°F-8.3°C 63% 4.7 mph NNW7.6 kmh NNW 4.7 mph7.6 kmh 30.07 in1018.3 mb 0.00 in0.0 mm 0.00 in0.0 mm 0.00 in0.0 mm
11:17 AM 27.9°F-2.3°C 17.0°F-8.3°C 63% 2.2 mph NNE3.5 kmh NNE 4.2 mph6.8 kmh 30.07 in1018.3 mb 0.00 in0.0 mm 0.00 in0.0 mm 0.00 in0.0 mm
11:16 AM 27.7°F-2.4°C 16.8°F-8.4°C 63% 3.7 mph N6.0 kmh N 4.2 mph6.8 kmh 30.07 in1018.3 mb 0.00 in0.0 mm 0.00 in0.0 mm 0.00 in0.0 mm
11:15 AM 27.7°F-2.4°C 16.8°F-8.4°C 63% 3.2 mph NNW5.1 kmh NNW 3.7 mph6.0 kmh 30.08 in1018.6 mb 0.00 in0.0 mm 0.00 in0.0 mm 0.00 in0.0 mm
11:14 AM 27.7°F-2.4°C 16.8°F-8.4°C 63% 3.7 mph NE6.0 kmh NE 3.7 mph6.0 kmh 30.08 in1018.6 mb 0.00 in0.0 mm 0.00 in0.0 mm 0.00 in0.0 mm
11:13 AM 27.7°F-2.4°C 16.8°F-8.4°C 63% 3.2 mph NNW5.1 kmh NNW 4.7 mph7.6 kmh 30.08 in1018.6 mb 0.00 in0.0 mm 0.00 in0.0 mm 0.00 in0.0 mm
11:12 AM 27.5°F-2.5°C 16.6°F-8.6°C 63% 3.2 mph N5.1 kmh N 4.7 mph7.6 kmh 30.08 in1018.6 mb 0.00 in0.0 mm 0.00 in0.0 mm 0.00 in0.0 mm
11:11 AM 27.5°F-2.5°C 16.6°F-8.6°C 63% 3.2 mph NW5.1 kmh NW 4.7 mph7.6 kmh 30.08 in1018.6 mb 0.00 in0.0 mm 0.00 in0.0 mm 0.00 in0.0 mm
11:10 AM 27.5°F-2.5°C 16.6°F-8.6°C 63% 2.7 mph NNW4.3 kmh NNW 4.7 mph7.6 kmh 30.08 in1018.6 mb 0.00 in0.0 mm 0.00 in0.0 mm 0.00 in0.0 mm
11:09 AM 27.5°F-2.5°C 16.6°F-8.6°C 63% 3.2 mph NW5.1 kmh NW 4.7 mph7.6 kmh 30.08 in1018.6 mb 0.00 in0.0 mm 0.00 in0.0 mm 0.00 in0.0 mm
11:08 AM 27.5°F-2.5°C 16.6°F-8.6°C 63% 3.7 mph NNW6.0 kmh NNW 4.7 mph7.6 kmh 30.08 in1018.6 mb 0.00 in0.0 mm 0.00 in0.0 mm 0.00 in0.0 mm
11:07 AM 27.3°F-2.6°C 16.4°F-8.7°C 63% 3.2 mph NNE5.1 kmh NNE 4.7 mph7.6 kmh 30.08 in1018.6 mb 0.00 in0.0 mm 0.00 in0.0 mm 0.00 in0.0 mm
11:06 AM 27.5°F-2.5°C 16.6°F-8.6°C 63% 2.7 mph WNW4.3 kmh WNW 4.7 mph7.6 kmh 30.08 in1018.6 mb 0.00 in0.0 mm 0.00 in0.0 mm 0.00 in0.0 mm
11:05 AM 27.5°F-2.5°C 16.6°F-8.6°C 63% 3.2 mph N5.1 kmh N 4.7 mph7.6 kmh 30.08 in1018.6 mb 0.00 in0.0 mm 0.00 in0.0 mm 0.00 in0.0 mm
11:04 AM 27.3°F-2.6°C 16.8°F-8.4°C 64% 3.7 mph NNW6.0 kmh NNW 4.7 mph7.6 kmh 30.08 in1018.6 mb 0.00 in0.0 mm 0.00 in0.0 mm 0.00 in0.0 mm
11:03 AM 27.3°F-2.6°C 17.1°F-8.3°C 65% 3.7 mph NNE6.0 kmh NNE 4.7 mph7.6 kmh 30.08 in1018.6 mb 0.00 in0.0 mm 0.00 in0.0 mm 0.00 in0.0 mm
11:02 AM 27.1°F-2.7°C 16.6°F-8.6°C 64% 2.2 mph NNE3.5 kmh NNE 5.3 mph8.5 kmh 30.09 in1019.0 mb 0.00 in0.0 mm 0.00 in0.0 mm 0.00 in0.0 mm
11:01 AM 27.1°F-2.7°C 16.6°F-8.6°C 64% 1.7 mph NW2.7 kmh NW 5.3 mph8.5 kmh 30.09 in1019.0 mb 0.00 in0.0 mm 0.00 in0.0 mm 0.00 in0.0 mm
11:00 AM 27.1°F-2.7°C 16.6°F-8.6°C 64% 2.7 mph NW4.3 kmh NW 6.3 mph10.1 kmh 30.09 in1019.0 mb 0.00 in0.0 mm 0.00 in0.0 mm 0.00 in0.0 mm
10:59 AM 27.1°F-2.7°C 16.6°F-8.6°C 64% 4.2 mph WNW6.8 kmh WNW 6.3 mph10.1 kmh 30.09 in1019.0 mb 0.00 in0.0 mm 0.00 in0.0 mm 0.00 in0.0 mm
10:58 AM 27.1°F-2.7°C 16.6°F-8.6°C 64% 3.7 mph N6.0 kmh N 6.3 mph10.1 kmh 30.09 in1019.0 mb 0.00 in0.0 mm 0.00 in0.0 mm 0.00 in0.0 mm
10:57 AM 27.0°F-2.8°C 16.5°F-8.6°C 64% 3.2 mph NNW5.1 kmh NNW 6.3 mph10.1 kmh 30.09 in1019.0 mb 0.00 in0.0 mm 0.00 in0.0 mm 0.00 in0.0 mm
10:56 AM 27.0°F-2.8°C 16.5°F-8.6°C 64% 3.7 mph NNE6.0 kmh NNE 6.3 mph10.1 kmh 30.09 in1019.0 mb 0.00 in0.0 mm 0.00 in0.0 mm 0.00 in0.0 mm
10:55 AM 26.8°F-2.9°C 16.3°F-8.7°C 64% 4.2 mph NE6.8 kmh NE 6.3 mph10.1 kmh 30.09 in1019.0 mb 0.00 in0.0 mm 0.00 in0.0 mm 0.00 in0.0 mm
10:54 AM 26.8°F-2.9°C 16.3°F-8.7°C 64% 2.2 mph NW3.5 kmh NW 6.3 mph10.1 kmh 30.09 in1019.0 mb 0.00 in0.0 mm 0.00 in0.0 mm 0.00 in0.0 mm
10:53 AM 26.8°F-2.9°C 16.3°F-8.7°C 64% 4.7 mph NNW7.6 kmh NNW 6.3 mph10.1 kmh 30.09 in1019.0 mb 0.00 in0.0 mm 0.00 in0.0 mm 0.00 in0.0 mm
10:52 AM 26.6°F-3.0°C 16.1°F-8.8°C 64% 2.2 mph NNW3.5 kmh NNW 6.3 mph10.1 kmh 30.09 in1019.0 mb 0.00 in0.0 mm 0.00 in0.0 mm 0.00 in0.0 mm
10:51 AM 26.6°F-3.0°C 16.1°F-8.8°C 64% 3.7 mph N6.0 kmh N 6.3 mph10.1 kmh 30.09 in1019.0 mb 0.00 in0.0 mm 0.00 in0.0 mm 0.00 in0.0 mm
10:50 AM 26.6°F-3.0°C 16.1°F-8.8°C 64% 4.2 mph NNE6.8 kmh NNE 5.8 mph9.3 kmh 30.08 in1018.6 mb 0.00 in0.0 mm 0.00 in0.0 mm 0.00 in0.0 mm
10:49 AM 26.4°F-3.1°C 15.9°F-8.9°C 64% 2.7 mph NW4.3 kmh NW 5.3 mph8.5 kmh 30.08 in1018.6 mb 0.00 in0.0 mm 0.00 in0.0 mm 0.00 in0.0 mm
10:48 AM 26.4°F-3.1°C 15.9°F-8.9°C 64% 3.2 mph NW5.1 kmh NW 5.3 mph8.5 kmh 30.08 in1018.6 mb 0.00 in0.0 mm 0.00 in0.0 mm 0.00 in0.0 mm
10:47 AM 26.4°F-3.1°C 15.9°F-8.9°C 64% 3.2 mph NNW5.1 kmh NNW 5.3 mph8.5 kmh 30.08 in1018.6 mb 0.00 in0.0 mm 0.00 in0.0 mm 0.00 in0.0 mm
10:46 AM 26.4°F-3.1°C 15.9°F-8.9°C 64% 2.7 mph WNW4.3 kmh WNW 5.3 mph8.5 kmh 30.08 in1018.6 mb 0.00 in0.0 mm 0.00 in0.0 mm 0.00 in0.0 mm
10:45 AM 26.4°F-3.1°C 15.9°F-8.9°C 64% 3.7 mph NNW6.0 kmh NNW 5.3 mph8.5 kmh 30.08 in1018.6 mb 0.00 in0.0 mm 0.00 in0.0 mm 0.00 in0.0 mm
10:44 AM 26.4°F-3.1°C 16.3°F-8.7°C 65% 4.7 mph NW7.6 kmh NW 5.3 mph8.5 kmh 30.08 in1018.6 mb 0.00 in0.0 mm 0.00 in0.0 mm 0.00 in0.0 mm
10:43 AM 26.4°F-3.1°C 16.3°F-8.7°C 65% 3.7 mph NNE6.0 kmh NNE 5.3 mph8.5 kmh 30.08 in1018.6 mb 0.00 in0.0 mm 0.00 in0.0 mm 0.00 in0.0 mm
10:42 AM 26.4°F-3.1°C 16.3°F-8.7°C 65% 2.7 mph NW4.3 kmh NW 5.3 mph8.5 kmh 30.08 in1018.6 mb 0.00 in0.0 mm 0.00 in0.0 mm 0.00 in0.0 mm
10:41 AM 26.4°F-3.1°C 16.3°F-8.7°C 65% 4.7 mph NE7.6 kmh NE 5.3 mph8.5 kmh 30.08 in1018.6 mb 0.00 in0.0 mm 0.00 in0.0 mm 0.00 in0.0 mm
10:40 AM 26.6°F-3.0°C 16.4°F-8.7°C 65% 3.7 mph WNW6.0 kmh WNW 5.3 mph8.5 kmh 30.08 in1018.6 mb 0.00 in0.0 mm 0.00 in0.0 mm 0.00 in0.0 mm
10:39 AM 26.6°F-3.0°C 16.4°F-8.7°C 65% 4.2 mph N6.8 kmh N 5.3 mph8.5 kmh 30.08 in1018.6 mb 0.00 in0.0 mm 0.00 in0.0 mm 0.00 in0.0 mm
10:38 AM 26.6°F-3.0°C 16.8°F-8.4°C 66% 2.7 mph N4.3 kmh N 5.3 mph8.5 kmh 30.08 in1018.6 mb 0.00 in0.0 mm 0.00 in0.0 mm 0.00 in0.0 mm
10:37 AM 26.4°F-3.1°C 16.6°F-8.6°C 66% 3.7 mph NNE6.0 kmh NNE 5.3 mph8.5 kmh 30.08 in1018.6 mb 0.00 in0.0 mm 0.00 in0.0 mm 0.00 in0.0 mm
10:36 AM 26.4°F-3.1°C 16.6°F-8.6°C 66% 2.7 mph NNE4.3 kmh NNE 5.3 mph8.5 kmh 30.08 in1018.6 mb 0.00 in0.0 mm 0.00 in0.0 mm 0.00 in0.0 mm
10:35 AM 26.2°F-3.2°C 16.4°F-8.7°C 66% 2.7 mph NNE4.3 kmh NNE 5.3 mph8.5 kmh 30.08 in1018.6 mb 0.00 in0.0 mm 0.00 in0.0 mm 0.00 in0.0 mm
10:34 AM 26.1°F-3.3°C 16.3°F-8.7°C 66% 2.7 mph NNE4.3 kmh NNE 5.3 mph8.5 kmh 30.08 in1018.6 mb 0.00 in0.0 mm 0.00 in0.0 mm 0.00 in0.0 mm
10:33 AM 26.1°F-3.3°C 16.3°F-8.7°C 66% 2.2 mph N3.5 kmh N 4.7 mph7.6 kmh 30.08 in1018.6 mb 0.00 in0.0 mm 0.00 in0.0 mm 0.00 in0.0 mm
10:32 AM 26.1°F-3.3°C 16.3°F-8.7°C 66% 2.7 mph N4.3 kmh N 4.7 mph7.6 kmh 30.08 in1018.6 mb 0.00 in0.0 mm 0.00 in0.0 mm 0.00 in0.0 mm
10:31 AM 26.1°F-3.3°C 16.7°F-8.5°C 67% 4.2 mph NNW6.8 kmh NNW 4.7 mph7.6 kmh 30.08 in1018.6 mb 0.00 in0.0 mm 0.00 in0.0 mm 0.00 in0.0 mm
10:30 AM 26.1°F-3.3°C 16.7°F-8.5°C 67% 3.2 mph N5.1 kmh N 4.7 mph7.6 kmh 30.08 in1018.6 mb 0.00 in0.0 mm 0.00 in0.0 mm 0.00 in0.0 mm
10:29 AM 25.9°F-3.4°C 16.5°F-8.6°C 67% 3.2 mph N5.1 kmh N 4.7 mph7.6 kmh 30.08 in1018.6 mb 0.00 in0.0 mm 0.00 in0.0 mm 0.00 in0.0 mm
10:28 AM 25.9°F-3.4°C 16.5°F-8.6°C 67% 2.7 mph NW4.3 kmh NW 4.7 mph7.6 kmh 30.08 in1018.6 mb 0.00 in0.0 mm 0.00 in0.0 mm 0.00 in0.0 mm
10:27 AM 25.9°F-3.4°C 16.5°F-8.6°C 67% 3.2 mph WNW5.1 kmh WNW 4.7 mph7.6 kmh 30.08 in1018.6 mb 0.00 in0.0 mm 0.00 in0.0 mm 0.00 in0.0 mm
10:26 AM 25.9°F-3.4°C 16.5°F-8.6°C 67% 1.7 mph W2.7 kmh W 4.7 mph7.6 kmh 30.08 in1018.6 mb 0.00 in0.0 mm 0.00 in0.0 mm 0.00 in0.0 mm
10:25 AM 25.9°F-3.4°C 16.5°F-8.6°C 67% 2.2 mph NW3.5 kmh NW 4.7 mph7.6 kmh 30.08 in1018.6 mb 0.00 in0.0 mm 0.00 in0.0 mm 0.00 in0.0 mm
10:24 AM 25.7°F-3.5°C 16.3°F-8.7°C 67% 2.7 mph NNW4.3 kmh NNW 4.7 mph7.6 kmh 30.08 in1018.6 mb 0.00 in0.0 mm 0.00 in0.0 mm 0.00 in0.0 mm
10:23 AM 25.7°F-3.5°C 16.3°F-8.7°C 67% 3.7 mph NNW6.0 kmh NNW 4.7 mph7.6 kmh 30.08 in1018.6 mb 0.00 in0.0 mm 0.00 in0.0 mm 0.00 in0.0 mm
10:22 AM 25.7°F-3.5°C 16.3°F-8.7°C 67% 3.7 mph WNW6.0 kmh WNW 4.7 mph7.6 kmh 30.08 in1018.6 mb 0.00 in0.0 mm 0.00 in0.0 mm 0.00 in0.0 mm
10:21 AM 25.7°F-3.5°C 16.3°F-8.7°C 67% 2.7 mph NNE4.3 kmh NNE 4.7 mph7.6 kmh 30.08 in1018.6 mb 0.00 in0.0 mm 0.00 in0.0 mm 0.00 in0.0 mm
10:20 AM 25.5°F-3.6°C 16.4°F-8.7°C 68% 4.7 mph NNE7.6 kmh NNE 4.7 mph7.6 kmh 30.08 in1018.6 mb 0.00 in0.0 mm 0.00 in0.0 mm 0.00 in0.0 mm
10:19 AM 25.5°F-3.6°C 16.4°F-8.7°C 68% 3.7 mph NNW6.0 kmh NNW 4.7 mph7.6 kmh 30.08 in1018.6 mb 0.00 in0.0 mm 0.00 in0.0 mm 0.00 in0.0 mm
10:18 AM 25.5°F-3.6°C 16.4°F-8.7°C 68% 3.2 mph NW5.1 kmh NW 4.7 mph7.6 kmh 30.08 in1018.6 mb 0.00 in0.0 mm 0.00 in0.0 mm 0.00 in0.0 mm
10:17 AM 25.5°F-3.6°C 16.4°F-8.7°C 68% 2.7 mph W4.3 kmh W 4.7 mph7.6 kmh 30.08 in1018.6 mb 0.00 in0.0 mm 0.00 in0.0 mm 0.00 in0.0 mm
10:16 AM 25.5°F-3.6°C 16.4°F-8.7°C 68% 3.7 mph WNW6.0 kmh WNW 4.7 mph7.6 kmh 30.08 in1018.6 mb 0.00 in0.0 mm 0.00 in0.0 mm 0.00 in0.0 mm
10:15 AM 25.5°F-3.6°C 16.8°F-8.4°C 69% 2.2 mph NW3.5 kmh NW 4.7 mph7.6 kmh 30.07 in1018.3 mb 0.00 in0.0 mm 0.00 in0.0 mm 0.00 in0.0 mm
10:14 AM 25.3°F-3.7°C 16.2°F-8.8°C 68% 2.2 mph NW3.5 kmh NW 4.7 mph7.6 kmh 30.07 in1018.3 mb 0.00 in0.0 mm 0.00 in0.0 mm 0.00 in0.0 mm
10:13 AM 25.3°F-3.7°C 16.2°F-8.8°C 68% 2.2 mph NW3.5 kmh NW 4.7 mph7.6 kmh 30.07 in1018.3 mb 0.00 in0.0 mm 0.00 in0.0 mm 0.00 in0.0 mm
10:12 AM 25.3°F-3.7°C 16.2°F-8.8°C 68% 2.2 mph W3.5 kmh W 4.7 mph7.6 kmh 30.07 in1018.3 mb 0.00 in0.0 mm 0.00 in0.0 mm 0.00 in0.0 mm
10:11 AM 25.3°F-3.7°C 16.2°F-8.8°C 68% 3.2 mph N5.1 kmh N 4.7 mph7.6 kmh 30.07 in1018.3 mb 0.00 in0.0 mm 0.00 in0.0 mm 0.00 in0.0 mm
10:10 AM 25.3°F-3.7°C 16.2°F-8.8°C 68% 2.7 mph WNW4.3 kmh WNW 4.7 mph7.6 kmh 30.07 in1018.3 mb 0.00 in0.0 mm 0.00 in0.0 mm 0.00 in0.0 mm
10:09 AM 25.3°F-3.7°C 16.6°F-8.6°C 69% 3.2 mph NW5.1 kmh NW 4.7 mph7.6 kmh 30.07 in1018.3 mb 0.00 in0.0 mm 0.00 in0.0 mm 0.00 in0.0 mm
10:08 AM 25.3°F-3.7°C 16.6°F-8.6°C 69% 2.7 mph NW4.3 kmh NW 4.7 mph7.6 kmh 30.07 in1018.3 mb 0.00 in0.0 mm 0.00 in0.0 mm 0.00 in0.0 mm
10:07 AM 25.2°F-3.8°C 16.5°F-8.6°C 69% 2.7 mph NW4.3 kmh NW 4.7 mph7.6 kmh 30.07 in1018.3 mb 0.00 in0.0 mm 0.00 in0.0 mm 0.00 in0.0 mm
10:06 AM 25.2°F-3.8°C 16.5°F-8.6°C 69% 3.2 mph N5.1 kmh N 4.7 mph7.6 kmh 30.07 in1018.3 mb 0.00 in0.0 mm 0.00 in0.0 mm 0.00 in0.0 mm
10:05 AM 25.0°F-3.9°C 16.3°F-8.7°C 69% 2.7 mph N4.3 kmh N 4.7 mph7.6 kmh 30.07 in1018.3 mb 0.00 in0.0 mm 0.00 in0.0 mm 0.00 in0.0 mm
10:04 AM 25.0°F-3.9°C 16.3°F-8.7°C 69% 3.7 mph NNE6.0 kmh NNE 4.7 mph7.6 kmh 30.07 in1018.3 mb 0.00 in0.0 mm 0.00 in0.0 mm 0.00 in0.0 mm
10:03 AM 25.0°F-3.9°C 16.3°F-8.7°C 69% 3.2 mph NW5.1 kmh NW 4.2 mph6.8 kmh 30.07 in1018.3 mb 0.00 in0.0 mm 0.00 in0.0 mm 0.00 in0.0 mm
10:02 AM 25.0°F-3.9°C 16.3°F-8.7°C 69% 2.7 mph N4.3 kmh N 4.2 mph6.8 kmh 30.07 in1018.3 mb 0.00 in0.0 mm 0.00 in0.0 mm 0.00 in0.0 mm
10:01 AM 25.0°F-3.9°C 16.3°F-8.7°C 69% 2.7 mph NW4.3 kmh NW 4.2 mph6.8 kmh 30.07 in1018.3 mb 0.00 in0.0 mm 0.00 in0.0 mm 0.00 in0.0 mm
10:00 AM 25.0°F-3.9°C 16.3°F-8.7°C 69% 4.2 mph NNW6.8 kmh NNW 4.2 mph6.8 kmh 30.07 in1018.3 mb 0.00 in0.0 mm 0.00 in0.0 mm 0.00 in0.0 mm
09:59 AM 24.8°F-4.0°C 16.1°F-8.8°C 69% 2.2 mph N3.5 kmh N 4.2 mph6.8 kmh 30.07 in1018.3 mb 0.00 in0.0 mm 0.00 in0.0 mm 0.00 in0.0 mm
09:58 AM 24.8°F-4.0°C 16.1°F-8.8°C 69% 2.7 mph WNW4.3 kmh WNW 5.3 mph8.5 kmh 30.07 in1018.3 mb 0.00 in0.0 mm 0.00 in0.0 mm 0.00 in0.0 mm
09:57 AM 24.8°F-4.0°C 16.1°F-8.8°C 69% 4.2 mph NNW6.8 kmh NNW 8.3 mph13.4 kmh 30.07 in1018.3 mb 0.00 in0.0 mm 0.00 in0.0 mm 0.00 in0.0 mm
09:56 AM 24.8°F-4.0°C 16.1°F-8.8°C 69% 3.2 mph NW5.1 kmh NW 8.3 mph13.4 kmh 30.07 in1018.3 mb 0.00 in0.0 mm 0.00 in0.0 mm 0.00 in0.0 mm
09:55 AM 24.8°F-4.0°C 16.1°F-8.8°C 69% 2.7 mph NNE4.3 kmh NNE 8.3 mph13.4 kmh 30.07 in1018.3 mb 0.00 in0.0 mm 0.00 in0.0 mm 0.00 in0.0 mm
09:54 AM 24.6°F-4.1°C 15.9°F-8.9°C 69% 3.7 mph N6.0 kmh N 8.3 mph13.4 kmh 30.07 in1018.3 mb 0.00 in0.0 mm 0.00 in0.0 mm 0.00 in0.0 mm
09:53 AM 24.6°F-4.1°C 15.9°F-8.9°C 69% 3.7 mph NNW6.0 kmh NNW 8.3 mph13.4 kmh 30.07 in1018.3 mb 0.00 in0.0 mm 0.00 in0.0 mm 0.00 in0.0 mm
09:52 AM 24.6°F-4.1°C 15.9°F-8.9°C 69% 3.2 mph N5.1 kmh N 8.3 mph13.4 kmh 30.07 in1018.3 mb 0.00 in0.0 mm 0.00 in0.0 mm 0.00 in0.0 mm
09:51 AM 24.6°F-4.1°C 15.9°F-8.9°C 69% 2.2 mph N3.5 kmh N 8.3 mph13.4 kmh 30.07 in1018.3 mb 0.00 in0.0 mm 0.00 in0.0 mm 0.00 in0.0 mm
09:50 AM 24.6°F-4.1°C 15.9°F-8.9°C 69% 3.2 mph NNE5.1 kmh NNE 8.3 mph13.4 kmh 30.07 in1018.3 mb 0.00 in0.0 mm 0.00 in0.0 mm 0.00 in0.0 mm
09:49 AM 24.6°F-4.1°C 15.9°F-8.9°C 69% 2.7 mph NNW4.3 kmh NNW 8.3 mph13.4 kmh 30.07 in1018.3 mb 0.00 in0.0 mm 0.00 in0.0 mm 0.00 in0.0 mm
09:48 AM 24.6°F-4.1°C 15.9°F-8.9°C 69% 3.7 mph NNW6.0 kmh NNW 8.3 mph13.4 kmh 30.07 in1018.3 mb 0.00 in0.0 mm 0.00 in0.0 mm 0.00 in0.0 mm
09:47 AM 24.6°F-4.1°C 15.9°F-8.9°C 69% 8.3 mph NNW13.4 kmh NNW 8.3 mph13.4 kmh 30.07 in1018.3 mb 0.00 in0.0 mm 0.00 in0.0 mm 0.00 in0.0 mm
09:46 AM 24.6°F-4.1°C 16.2°F-8.8°C 70% 3.2 mph N5.1 kmh N 4.2 mph6.8 kmh 30.07 in1018.3 mb 0.00 in0.0 mm 0.00 in0.0 mm 0.00 in0.0 mm
09:45 AM 24.6°F-4.1°C 16.2°F-8.8°C 70% 3.2 mph N5.1 kmh N 4.7 mph7.6 kmh 30.07 in1018.3 mb 0.00 in0.0 mm 0.00 in0.0 mm 0.00 in0.0 mm
09:44 AM 24.4°F-4.2°C 16.0°F-8.9°C 70% 1.7 mph NNE2.7 kmh NNE 4.7 mph7.6 kmh 30.07 in1018.3 mb 0.00 in0.0 mm 0.00 in0.0 mm 0.00 in0.0 mm
09:43 AM 24.3°F-4.3°C 15.9°F-8.9°C 70% 2.7 mph NNW4.3 kmh NNW 4.7 mph7.6 kmh 30.07 in1018.3 mb 0.00 in0.0 mm 0.00 in0.0 mm 0.00 in0.0 mm
09:42 AM 24.3°F-4.3°C 15.9°F-8.9°C 70% 3.2 mph NNW5.1 kmh NNW 4.7 mph7.6 kmh 30.07 in1018.3 mb 0.00 in0.0 mm 0.00 in0.0 mm 0.00 in0.0 mm
09:41 AM 24.3°F-4.3°C 15.9°F-8.9°C 70% 3.2 mph NW5.1 kmh NW 4.7 mph7.6 kmh 30.07 in1018.3 mb 0.00 in0.0 mm 0.00 in0.0 mm 0.00 in0.0 mm
09:40 AM 24.1°F-4.4°C 15.8°F-9.0°C 70% 2.7 mph NNW4.3 kmh NNW 4.7 mph7.6 kmh 30.07 in1018.3 mb 0.00 in0.0 mm 0.00 in0.0 mm 0.00 in0.0 mm
09:39 AM 23.9°F-4.5°C 15.6°F-9.1°C 70% 3.2 mph NNE5.1 kmh NNE 4.7 mph7.6 kmh 30.07 in1018.3 mb 0.00 in0.0 mm 0.00 in0.0 mm 0.00 in0.0 mm
09:38 AM 23.9°F-4.5°C 15.6°F-9.1°C 70% 3.2 mph NW5.1 kmh NW 4.7 mph7.6 kmh 30.07 in1018.3 mb 0.00 in0.0 mm 0.00 in0.0 mm 0.00 in0.0 mm
09:37 AM 23.9°F-4.5°C 15.6°F-9.1°C 70% 2.7 mph NW4.3 kmh NW 4.7 mph7.6 kmh 30.07 in1018.3 mb 0.00 in0.0 mm 0.00 in0.0 mm 0.00 in0.0 mm
09:36 AM 23.9°F-4.5°C 15.6°F-9.1°C 70% 3.7 mph WNW6.0 kmh WNW 4.7 mph7.6 kmh 30.07 in1018.3 mb 0.00 in0.0 mm 0.00 in0.0 mm 0.00 in0.0 mm
09:35 AM 23.9°F-4.5°C 15.6°F-9.1°C 70% 3.2 mph NW5.1 kmh NW 4.2 mph6.8 kmh 30.07 in1018.3 mb 0.00 in0.0 mm 0.00 in0.0 mm 0.00 in0.0 mm
09:34 AM 23.9°F-4.5°C 15.9°F-8.9°C 71% 3.7 mph WNW6.0 kmh WNW 4.2 mph6.8 kmh 30.07 in1018.3 mb 0.00 in0.0 mm 0.00 in0.0 mm 0.00 in0.0 mm
09:33 AM 23.9°F-4.5°C 15.9°F-8.9°C 71% 3.2 mph NNE5.1 kmh NNE 5.3 mph8.5 kmh 30.07 in1018.3 mb 0.00 in0.0 mm 0.00 in0.0 mm 0.00 in0.0 mm
09:32 AM 23.9°F-4.5°C 15.9°F-8.9°C 71% 3.7 mph NW6.0 kmh NW 5.3 mph8.5 kmh 30.07 in1018.3 mb 0.00 in0.0 mm 0.00 in0.0 mm 0.00 in0.0 mm
09:31 AM 23.9°F-4.5°C 15.9°F-8.9°C 71% 1.7 mph NNE2.7 kmh NNE 5.3 mph8.5 kmh 30.07 in1018.3 mb 0.00 in0.0 mm 0.00 in0.0 mm 0.00 in0.0 mm
09:30 AM 23.7°F-4.6°C 15.7°F-9.1°C 71% 4.2 mph NNE6.8 kmh NNE 5.3 mph8.5 kmh 30.07 in1018.3 mb 0.00 in0.0 mm 0.00 in0.0 mm 0.00 in0.0 mm
09:29 AM 23.7°F-4.6°C 15.7°F-9.1°C 71% 1.7 mph WNW2.7 kmh WNW 5.3 mph8.5 kmh 30.07 in1018.3 mb 0.00 in0.0 mm 0.00 in0.0 mm 0.00 in0.0 mm
09:28 AM 23.7°F-4.6°C 15.7°F-9.1°C 71% 2.2 mph NNE3.5 kmh NNE 5.3 mph8.5 kmh 30.07 in1018.3 mb 0.00 in0.0 mm 0.00 in0.0 mm 0.00 in0.0 mm
09:27 AM 23.7°F-4.6°C 15.7°F-9.1°C 71% 2.2 mph W3.5 kmh W 5.3 mph8.5 kmh 30.07 in1018.3 mb 0.00 in0.0 mm 0.00 in0.0 mm 0.00 in0.0 mm
09:26 AM 23.7°F-4.6°C 15.7°F-9.1°C 71% 2.7 mph NNW4.3 kmh NNW 5.3 mph8.5 kmh 30.07 in1018.3 mb 0.00 in0.0 mm 0.00 in0.0 mm 0.00 in0.0 mm
09:25 AM 23.7°F-4.6°C 15.7°F-9.1°C 71% 2.7 mph NNW4.3 kmh NNW 5.3 mph8.5 kmh 30.07 in1018.3 mb 0.00 in0.0 mm 0.00 in0.0 mm 0.00 in0.0 mm
09:24 AM 23.7°F-4.6°C 15.7°F-9.1°C 71% 2.7 mph NW4.3 kmh NW 5.3 mph8.5 kmh 30.07 in1018.3 mb 0.00 in0.0 mm 0.00 in0.0 mm 0.00 in0.0 mm
09:23 AM 23.7°F-4.6°C 15.7°F-9.1°C 71% 2.7 mph NNW4.3 kmh NNW 3.7 mph6.0 kmh 30.07 in1018.3 mb 0.00 in0.0 mm 0.00 in0.0 mm 0.00 in0.0 mm
09:22 AM 23.7°F-4.6°C 15.7°F-9.1°C 71% 3.2 mph NNW5.1 kmh NNW 3.7 mph6.0 kmh 30.07 in1018.3 mb 0.00 in0.0 mm 0.00 in0.0 mm 0.00 in0.0 mm
09:21 AM 23.7°F-4.6°C 15.7°F-9.1°C 71% 2.2 mph N3.5 kmh N 3.7 mph6.0 kmh 30.07 in1018.3 mb 0.00 in0.0 mm 0.00 in0.0 mm 0.00 in0.0 mm
09:20 AM 23.5°F-4.7°C 15.5°F-9.2°C 71% 2.2 mph NNE3.5 kmh NNE 3.7 mph6.0 kmh 30.07 in1018.3 mb 0.00 in0.0 mm 0.00 in0.0 mm 0.00 in0.0 mm
09:19 AM 23.5°F-4.7°C 15.8°F-9.0°C 72% 3.2 mph WNW5.1 kmh WNW 3.7 mph6.0 kmh 30.07 in1018.3 mb 0.00 in0.0 mm 0.00 in0.0 mm 0.00 in0.0 mm
09:18 AM 23.5°F-4.7°C 15.8°F-9.0°C 72% 3.2 mph N5.1 kmh N 3.2 mph5.1 kmh 30.07 in1018.3 mb 0.00 in0.0 mm 0.00 in0.0 mm 0.00 in0.0 mm
09:17 AM 23.4°F-4.8°C 15.7°F-9.1°C 72% 3.2 mph NNW5.1 kmh NNW 3.2 mph5.1 kmh 30.07 in1018.3 mb 0.00 in0.0 mm 0.00 in0.0 mm 0.00 in0.0 mm
09:16 AM 23.4°F-4.8°C 15.7°F-9.1°C 72% 1.7 mph NNW2.7 kmh NNW 3.2 mph5.1 kmh 30.07 in1018.3 mb 0.00 in0.0 mm 0.00 in0.0 mm 0.00 in0.0 mm
09:15 AM 23.2°F-4.9°C 15.5°F-9.2°C 72% 1.7 mph N2.7 kmh N 3.2 mph5.1 kmh 30.06 in1017.9 mb 0.00 in0.0 mm 0.00 in0.0 mm 0.00 in0.0 mm
09:14 AM 23.2°F-4.9°C 15.5°F-9.2°C 72% 3.2 mph NW5.1 kmh NW 3.2 mph5.1 kmh 30.06 in1017.9 mb 0.00 in0.0 mm 0.00 in0.0 mm 0.00 in0.0 mm
09:13 AM 23.2°F-4.9°C 15.5°F-9.2°C 72% 3.2 mph N5.1 kmh N 3.2 mph5.1 kmh 30.06 in1017.9 mb 0.00 in0.0 mm 0.00 in0.0 mm 0.00 in0.0 mm
09:12 AM 23.0°F-5.0°C 15.3°F-9.3°C 72% 2.7 mph N4.3 kmh N 3.2 mph5.1 kmh 30.06 in1017.9 mb 0.00 in0.0 mm 0.00 in0.0 mm 0.00 in0.0 mm
09:11 AM 23.0°F-5.0°C 15.7°F-9.1°C 73% 2.2 mph N3.5 kmh N 3.7 mph6.0 kmh 30.06 in1017.9 mb 0.00 in0.0 mm 0.00 in0.0 mm 0.00 in0.0 mm
09:10 AM 22.8°F-5.1°C 15.5°F-9.2°C 73% 1.7 mph W2.7 kmh W 5.3 mph8.5 kmh 30.06 in1017.9 mb 0.00 in0.0 mm 0.00 in0.0 mm 0.00 in0.0 mm
09:09 AM 22.8°F-5.1°C 15.5°F-9.2°C 73% 2.2 mph NW3.5 kmh NW 5.3 mph8.5 kmh 30.06 in1017.9 mb 0.00 in0.0 mm 0.00 in0.0 mm 0.00 in0.0 mm
09:08 AM 22.8°F-5.1°C 15.5°F-9.2°C 73% 1.7 mph NNW2.7 kmh NNW 5.3 mph8.5 kmh 30.06 in1017.9 mb 0.00 in0.0 mm 0.00 in0.0 mm 0.00 in0.0 mm
09:07 AM 22.8°F-5.1°C 15.5°F-9.2°C 73% 2.2 mph N3.5 kmh N 5.3 mph8.5 kmh 30.06 in1017.9 mb 0.00 in0.0 mm 0.00 in0.0 mm 0.00 in0.0 mm
09:06 AM 22.6°F-5.2°C 15.3°F-9.3°C 73% 1.7 mph NNW2.7 kmh NNW 5.3 mph8.5 kmh 30.06 in1017.9 mb 0.00 in0.0 mm 0.00 in0.0 mm 0.00 in0.0 mm
09:05 AM 22.5°F-5.3°C 15.2°F-9.3°C 73% 2.7 mph NW4.3 kmh NW 5.3 mph8.5 kmh 30.06 in1017.9 mb 0.00 in0.0 mm 0.00 in0.0 mm 0.00 in0.0 mm
09:04 AM 22.5°F-5.3°C 15.2°F-9.3°C 73% 1.7 mph NNE2.7 kmh NNE 5.3 mph8.5 kmh 30.06 in1017.9 mb 0.00 in0.0 mm 0.00 in0.0 mm 0.00 in0.0 mm
09:03 AM 22.5°F-5.3°C 15.2°F-9.3°C 73% 1.7 mph NW2.7 kmh NW 5.3 mph8.5 kmh 30.06 in1017.9 mb 0.00 in0.0 mm 0.00 in0.0 mm 0.00 in0.0 mm
09:02 AM 22.3°F-5.4°C 15.0°F-9.4°C 73% 1.7 mph NNW2.7 kmh NNW 5.3 mph8.5 kmh 30.06 in1017.9 mb 0.00 in0.0 mm 0.00 in0.0 mm 0.00 in0.0 mm
09:01 AM 22.1°F-5.5°C 15.1°F-9.4°C 74% 3.2 mph NNE5.1 kmh NNE 5.3 mph8.5 kmh 30.06 in1017.9 mb 0.00 in0.0 mm 0.00 in0.0 mm 0.00 in0.0 mm
09:00 AM 22.1°F-5.5°C 15.1°F-9.4°C 74% 5.3 mph NNW8.5 kmh NNW 5.3 mph8.5 kmh 30.06 in1017.9 mb 0.00 in0.0 mm 0.00 in0.0 mm 0.00 in0.0 mm
08:59 AM 21.9°F-5.6°C 15.2°F-9.3°C 75% 2.2 mph N3.5 kmh N 4.7 mph7.6 kmh 30.06 in1017.9 mb 0.00 in0.0 mm 0.00 in0.0 mm 0.00 in0.0 mm
08:58 AM 21.7°F-5.7°C 15.0°F-9.4°C 75% 2.2 mph NW3.5 kmh NW 4.7 mph7.6 kmh 30.06 in1017.9 mb 0.00 in0.0 mm 0.00 in0.0 mm 0.00 in0.0 mm
08:57 AM 21.7°F-5.7°C 15.0°F-9.4°C 75% 3.2 mph N5.1 kmh N 4.7 mph7.6 kmh 30.06 in1017.9 mb 0.00 in0.0 mm 0.00 in0.0 mm 0.00 in0.0 mm
08:56 AM 21.6°F-5.8°C 15.2°F-9.3°C 76% 2.2 mph NNW3.5 kmh NNW 4.7 mph7.6 kmh 30.06 in1017.9 mb 0.00 in0.0 mm 0.00 in0.0 mm 0.00 in0.0 mm
08:55 AM 21.4°F-5.9°C 15.0°F-9.4°C 76% 2.2 mph NW3.5 kmh NW 4.7 mph7.6 kmh 30.06 in1017.9 mb 0.00 in0.0 mm 0.00 in0.0 mm 0.00 in0.0 mm
08:54 AM 21.2°F-6.0°C 14.8°F-9.6°C 76% 2.2 mph NW3.5 kmh NW 4.7 mph7.6 kmh 30.06 in1017.9 mb 0.00 in0.0 mm 0.00 in0.0 mm 0.00 in0.0 mm
08:53 AM 21.0°F-6.1°C 14.9°F-9.5°C 77% 2.2 mph N3.5 kmh N 4.7 mph7.6 kmh 30.06 in1017.9 mb 0.00 in0.0 mm 0.00 in0.0 mm 0.00 in0.0 mm
08:52 AM 21.0°F-6.1°C 14.9°F-9.5°C 77% 3.2 mph NNW5.1 kmh NNW 4.7 mph7.6 kmh 30.06 in1017.9 mb 0.00 in0.0 mm 0.00 in0.0 mm 0.00 in0.0 mm
08:51 AM 20.7°F-6.3°C 14.9°F-9.5°C 78% 4.7 mph N7.6 kmh N 4.7 mph7.6 kmh 30.06 in1017.9 mb 0.00 in0.0 mm 0.00 in0.0 mm 0.00 in0.0 mm
08:50 AM 20.7°F-6.3°C 14.9°F-9.5°C 78% 2.7 mph NNW4.3 kmh NNW 3.7 mph6.0 kmh 30.06 in1017.9 mb 0.00 in0.0 mm 0.00 in0.0 mm 0.00 in0.0 mm
08:49 AM 20.5°F-6.4°C 14.8°F-9.6°C 78% 2.2 mph NNW3.5 kmh NNW 3.7 mph6.0 kmh 30.06 in1017.9 mb 0.00 in0.0 mm 0.00 in0.0 mm 0.00 in0.0 mm
08:48 AM 20.1°F-6.6°C 14.7°F-9.6°C 79% 1.7 mph N2.7 kmh N 3.7 mph6.0 kmh 30.06 in1017.9 mb 0.00 in0.0 mm 0.00 in0.0 mm 0.00 in0.0 mm
08:47 AM 19.9°F-6.7°C 14.7°F-9.6°C 80% 1.7 mph NNE2.7 kmh NNE 3.7 mph6.0 kmh 30.06 in1017.9 mb 0.00 in0.0 mm 0.00 in0.0 mm 0.00 in0.0 mm
08:46 AM 19.8°F-6.8°C 14.6°F-9.7°C 80% 2.2 mph NNW3.5 kmh NNW 3.7 mph6.0 kmh 30.06 in1017.9 mb 0.00 in0.0 mm 0.00 in0.0 mm 0.00 in0.0 mm
08:45 AM 19.6°F-6.9°C 14.7°F-9.6°C 81% 1.7 mph NNW2.7 kmh NNW 2.2 mph3.5 kmh 30.06 in1017.9 mb 0.00 in0.0 mm 0.00 in0.0 mm 0.00 in0.0 mm
08:44 AM 19.4°F-7.0°C 14.5°F-9.7°C 81% 1.7 mph NNW2.7 kmh NNW 1.7 mph2.7 kmh 30.06 in1017.9 mb 0.00 in0.0 mm 0.00 in0.0 mm 0.00 in0.0 mm
08:43 AM 19.2°F-7.1°C 14.3°F-9.8°C 81% 1.1 mph NNW1.8 kmh NNW 1.7 mph2.7 kmh 30.06 in1017.9 mb 0.00 in0.0 mm 0.00 in0.0 mm 0.00 in0.0 mm
08:42 AM 19.2°F-7.1°C 14.6°F-9.7°C 82% 1.1 mph NNW1.8 kmh NNW 1.7 mph2.7 kmh 30.06 in1017.9 mb 0.00 in0.0 mm 0.00 in0.0 mm 0.00 in0.0 mm
08:41 AM 19.0°F-7.2°C 14.4°F-9.8°C 82% 1.7 mph NNW2.7 kmh NNW 1.7 mph2.7 kmh 30.06 in1017.9 mb 0.00 in0.0 mm 0.00 in0.0 mm 0.00 in0.0 mm
08:40 AM 18.9°F-7.3°C 14.3°F-9.8°C 82% 1.7 mph NNW2.7 kmh NNW 1.7 mph2.7 kmh 30.06 in1017.9 mb 0.00 in0.0 mm 0.00 in0.0 mm 0.00 in0.0 mm
08:39 AM 18.7°F-7.4°C 14.1°F-9.9°C 82% 1.7 mph NW2.7 kmh NW 1.7 mph2.7 kmh 30.06 in1017.9 mb 0.00 in0.0 mm 0.00 in0.0 mm 0.00 in0.0 mm
08:38 AM 18.7°F-7.4°C 14.1°F-9.9°C 82% 1.7 mph WNW2.7 kmh WNW 1.7 mph2.7 kmh 30.06 in1017.9 mb 0.00 in0.0 mm 0.00 in0.0 mm 0.00 in0.0 mm
08:37 AM 18.5°F-7.5°C 13.9°F-10.1°C 82% 1.1 mph WNW1.8 kmh WNW 1.7 mph2.7 kmh 30.06 in1017.9 mb 0.00 in0.0 mm 0.00 in0.0 mm 0.00 in0.0 mm
08:36 AM 18.5°F-7.5°C 13.9°F-10.1°C 82% Calm Calm 1.7 mph2.7 kmh 30.06 in1017.9 mb 0.00 in0.0 mm 0.00 in0.0 mm 0.00 in0.0 mm
08:35 AM 18.3°F-7.6°C 13.7°F-10.2°C 82% Calm Calm 1.7 mph2.7 kmh 30.06 in1017.9 mb 0.00 in0.0 mm 0.00 in0.0 mm 0.00 in0.0 mm
08:34 AM 18.3°F-7.6°C 13.7°F-10.2°C 82% Calm Calm 2.2 mph3.5 kmh 30.06 in1017.9 mb 0.00 in0.0 mm 0.00 in0.0 mm 0.00 in0.0 mm
08:33 AM 18.3°F-7.6°C 13.7°F-10.2°C 82% Calm Calm 2.2 mph3.5 kmh 30.06 in1017.9 mb 0.00 in0.0 mm 0.00 in0.0 mm 0.00 in0.0 mm
08:32 AM 18.1°F-7.7°C 13.5°F-10.3°C 82% Calm Calm 2.2 mph3.5 kmh 30.06 in1017.9 mb 0.00 in0.0 mm 0.00 in0.0 mm 0.00 in0.0 mm
08:31 AM 18.1°F-7.7°C 13.5°F-10.3°C 82% Calm Calm 2.2 mph3.5 kmh 30.06 in1017.9 mb 0.00 in0.0 mm 0.00 in0.0 mm 0.00 in0.0 mm
08:30 AM 18.1°F-7.7°C 13.5°F-10.3°C 82% 1.7 mph NW2.7 kmh NW 2.2 mph3.5 kmh 30.06 in1017.9 mb 0.00 in0.0 mm 0.00 in0.0 mm 0.00 in0.0 mm
08:29 AM 18.1°F-7.7°C 13.5°F-10.3°C 82% Calm Calm 2.2 mph3.5 kmh 30.06 in1017.9 mb 0.00 in0.0 mm 0.00 in0.0 mm 0.00 in0.0 mm
08:28 AM 18.0°F-7.8°C 13.5°F-10.3°C 82% 1.1 mph WNW1.8 kmh WNW 2.2 mph3.5 kmh 30.06 in1017.9 mb 0.00 in0.0 mm 0.00 in0.0 mm 0.00 in0.0 mm
08:27 AM 18.0°F-7.8°C 13.5°F-10.3°C 82% 1.7 mph NW2.7 kmh NW 2.2 mph3.5 kmh 30.06 in1017.9 mb 0.00 in0.0 mm 0.00 in0.0 mm 0.00 in0.0 mm
08:26 AM 18.0°F-7.8°C 13.5°F-10.3°C 82% Calm Calm 2.2 mph3.5 kmh 30.06 in1017.9 mb 0.00 in0.0 mm 0.00 in0.0 mm 0.00 in0.0 mm
08:25 AM 18.0°F-7.8°C 13.5°F-10.3°C 82% Calm Calm 2.2 mph3.5 kmh 30.06 in1017.9 mb 0.00 in0.0 mm 0.00 in0.0 mm 0.00 in0.0 mm
08:24 AM 17.8°F-7.9°C 13.3°F-10.4°C 82% 2.2 mph NW3.5 kmh NW 2.2 mph3.5 kmh 30.06 in1017.9 mb 0.00 in0.0 mm 0.00 in0.0 mm 0.00 in0.0 mm
08:23 AM 17.8°F-7.9°C 13.3°F-10.4°C 82% Calm Calm 1.1 mph1.8 kmh 30.06 in1017.9 mb 0.00 in0.0 mm 0.00 in0.0 mm 0.00 in0.0 mm
08:22 AM 17.8°F-7.9°C 13.0°F-10.6°C 81% Calm Calm 1.1 mph1.8 kmh 30.06 in1017.9 mb 0.00 in0.0 mm 0.00 in0.0 mm 0.00 in0.0 mm
08:21 AM 17.8°F-7.9°C 13.0°F-10.6°C 81% Calm Calm 1.1 mph1.8 kmh 30.06 in1017.9 mb 0.00 in0.0 mm 0.00 in0.0 mm 0.00 in0.0 mm
08:20 AM 17.8°F-7.9°C 13.0°F-10.6°C 81% Calm Calm 1.1 mph1.8 kmh 30.06 in1017.9 mb 0.00 in0.0 mm 0.00 in0.0 mm 0.00 in0.0 mm
08:19 AM 17.8°F-7.9°C 13.0°F-10.6°C 81% Calm Calm 1.1 mph1.8 kmh 30.06 in1017.9 mb 0.00 in0.0 mm 0.00 in0.0 mm 0.00 in0.0 mm
08:18 AM 17.8°F-7.9°C 13.0°F-10.6°C 81% Calm Calm 1.1 mph1.8 kmh 30.06 in1017.9 mb 0.00 in0.0 mm 0.00 in0.0 mm 0.00 in0.0 mm
08:17 AM 17.8°F-7.9°C 13.0°F-10.6°C 81% Calm Calm 1.1 mph1.8 kmh 30.06 in1017.9 mb 0.00 in0.0 mm 0.00 in0.0 mm 0.00 in0.0 mm
08:16 AM 17.8°F-7.9°C 13.0°F-10.6°C 81% Calm Calm 1.1 mph1.8 kmh 30.06 in1017.9 mb 0.00 in0.0 mm 0.00 in0.0 mm 0.00 in0.0 mm
08:15 AM 17.8°F-7.9°C 13.0°F-10.6°C 81% 1.1 mph NW1.8 kmh NW 1.1 mph1.8 kmh 30.06 in1017.9 mb 0.00 in0.0 mm 0.00 in0.0 mm 0.00 in0.0 mm
08:14 AM 17.8°F-7.9°C 13.0°F-10.6°C 81% Calm Calm -- 30.05 in1017.6 mb 0.00 in0.0 mm 0.00 in0.0 mm 0.00 in0.0 mm
08:13 AM 17.8°F-7.9°C 13.0°F-10.6°C 81% Calm Calm -- 30.05 in1017.6 mb 0.00 in0.0 mm 0.00 in0.0 mm 0.00 in0.0 mm
08:12 AM 17.8°F-7.9°C 13.0°F-10.6°C 81% Calm Calm -- 30.05 in1017.6 mb 0.00 in0.0 mm 0.00 in0.0 mm 0.00 in0.0 mm
08:11 AM 17.8°F-7.9°C 13.0°F-10.6°C 81% Calm Calm -- 30.05 in1017.6 mb 0.00 in0.0 mm 0.00 in0.0 mm 0.00 in0.0 mm
08:10 AM 17.8°F-7.9°C 13.0°F-10.6°C 81% Calm Calm -- 30.05 in1017.6 mb 0.00 in0.0 mm 0.00 in0.0 mm 0.00 in0.0 mm
08:09 AM 17.8°F-7.9°C 13.0°F-10.6°C 81% Calm Calm 1.1 mph1.8 kmh 30.05 in1017.6 mb 0.00 in0.0 mm 0.00 in0.0 mm 0.00 in0.0 mm
08:08 AM 17.8°F-7.9°C 13.0°F-10.6°C 81% Calm Calm 1.1 mph1.8 kmh 30.05 in1017.6 mb 0.00 in0.0 mm 0.00 in0.0 mm 0.00 in0.0 mm
08:07 AM 17.8°F-7.9°C 13.0°F-10.6°C 81% Calm Calm 1.7 mph2.7 kmh 30.05 in1017.6 mb 0.00 in0.0 mm 0.00 in0.0 mm 0.00 in0.0 mm
08:06 AM 17.8°F-7.9°C 13.0°F-10.6°C 81% Calm Calm 1.7 mph2.7 kmh 30.05 in1017.6 mb 0.00 in0.0 mm 0.00 in0.0 mm 0.00 in0.0 mm
08:05 AM 17.8°F-7.9°C 13.0°F-10.6°C 81% Calm Calm 1.7 mph2.7 kmh 30.05 in1017.6 mb 0.00 in0.0 mm 0.00 in0.0 mm 0.00 in0.0 mm
08:04 AM 17.8°F-7.9°C 13.0°F-10.6°C 81% Calm Calm 1.7 mph2.7 kmh 30.05 in1017.6 mb 0.00 in0.0 mm 0.00 in0.0 mm 0.00 in0.0 mm
08:03 AM 17.8°F-7.9°C 13.0°F-10.6°C 81% Calm Calm 1.7 mph2.7 kmh 30.05 in1017.6 mb 0.00 in0.0 mm 0.00 in0.0 mm 0.00 in0.0 mm
08:02 AM 17.8°F-7.9°C 13.0°F-10.6°C 81% Calm Calm 1.7 mph2.7 kmh 30.05 in1017.6 mb 0.00 in0.0 mm 0.00 in0.0 mm 0.00 in0.0 mm
08:01 AM 17.8°F-7.9°C 13.0°F-10.6°C 81% Calm Calm 1.7 mph2.7 kmh 30.05 in1017.6 mb 0.00 in0.0 mm 0.00 in0.0 mm 0.00 in0.0 mm
08:00 AM 17.8°F-7.9°C 13.0°F-10.6°C 81% Calm Calm 1.7 mph2.7 kmh 30.05 in1017.6 mb 0.00 in0.0 mm 0.00 in0.0 mm 0.00 in0.0 mm
07:59 AM 17.8°F-7.9°C 13.0°F-10.6°C 81% 1.1 mph NW1.8 kmh NW 1.7 mph2.7 kmh 30.05 in1017.6 mb 0.00 in0.0 mm 0.00 in0.0 mm 0.00 in0.0 mm
07:58 AM 17.8°F-7.9°C 13.0°F-10.6°C 81% Calm Calm 1.7 mph2.7 kmh 30.05 in1017.6 mb 0.00 in0.0 mm 0.00 in0.0 mm 0.00 in0.0 mm
07:57 AM 17.8°F-7.9°C 13.0°F-10.6°C 81% 1.7 mph NW2.7 kmh NW 1.7 mph2.7 kmh 30.05 in1017.6 mb 0.00 in0.0 mm 0.00 in0.0 mm 0.00 in0.0 mm
07:56 AM 17.8°F-7.9°C 13.0°F-10.6°C 81% Calm Calm -- 30.05 in1017.6 mb 0.00 in0.0 mm 0.00 in0.0 mm 0.00 in0.0 mm
07:55 AM 17.8°F-7.9°C 13.0°F-10.6°C 81% Calm Calm -- 30.05 in1017.6 mb 0.00 in0.0 mm 0.00 in0.0 mm 0.00 in0.0 mm
07:54 AM 17.8°F-7.9°C 13.0°F-10.6°C 81% Calm Calm -- 30.05 in1017.6 mb 0.00 in0.0 mm 0.00 in0.0 mm 0.00 in0.0 mm
07:53 AM 18.0°F-7.8°C 13.2°F-10.4°C 81% Calm Calm -- 30.05 in1017.6 mb 0.00 in0.0 mm 0.00 in0.0 mm 0.00 in0.0 mm
07:52 AM 18.0°F-7.8°C 13.2°F-10.4°C 81% Calm Calm -- 30.05 in1017.6 mb 0.00 in0.0 mm 0.00 in0.0 mm 0.00 in0.0 mm
07:51 AM 18.0°F-7.8°C 13.2°F-10.4°C 81% Calm Calm -- 30.05 in1017.6 mb 0.00 in0.0 mm 0.00 in0.0 mm 0.00 in0.0 mm
07:50 AM 18.0°F-7.8°C 13.2°F-10.4°C 81% Calm Calm -- 30.05 in1017.6 mb 0.00 in0.0 mm 0.00 in0.0 mm 0.00 in0.0 mm
07:49 AM 18.0°F-7.8°C 13.2°F-10.4°C 81% Calm Calm -- 30.05 in1017.6 mb 0.00 in0.0 mm 0.00 in0.0 mm 0.00 in0.0 mm
07:48 AM 18.0°F-7.8°C 13.2°F-10.4°C 81% Calm Calm -- 30.05 in1017.6 mb 0.00 in0.0 mm 0.00 in0.0 mm 0.00 in0.0 mm
07:47 AM 18.0°F-7.8°C 13.2°F-10.4°C 81% Calm Calm -- 30.05 in1017.6 mb 0.00 in0.0 mm 0.00 in0.0 mm 0.00 in0.0 mm
07:46 AM 18.0°F-7.8°C 12.9°F-10.6°C 80% Calm Calm -- 30.05 in1017.6 mb 0.00 in0.0 mm 0.00 in0.0 mm 0.00 in0.0 mm
07:45 AM 18.0°F-7.8°C 12.9°F-10.6°C 80% Calm Calm -- 30.05 in1017.6 mb 0.00 in0.0 mm 0.00 in0.0 mm 0.00 in0.0 mm
07:44 AM 18.1°F-7.7°C 13.0°F-10.6°C 80% Calm Calm 1.7 mph2.7 kmh 30.05 in1017.6 mb 0.00 in0.0 mm 0.00 in0.0 mm 0.00 in0.0 mm
07:43 AM 18.1°F-7.7°C 13.0°F-10.6°C 80% Calm Calm 1.7 mph2.7 kmh 30.05 in1017.6 mb 0.00 in0.0 mm 0.00 in0.0 mm 0.00 in0.0 mm
07:42 AM 18.1°F-7.7°C 13.0°F-10.6°C 80% Calm Calm 1.7 mph2.7 kmh 30.05 in1017.6 mb 0.00 in0.0 mm 0.00 in0.0 mm 0.00 in0.0 mm
07:41 AM 18.1°F-7.7°C 13.0°F-10.6°C 80% Calm Calm 1.7 mph2.7 kmh 30.05 in1017.6 mb 0.00 in0.0 mm 0.00 in0.0 mm 0.00 in0.0 mm
07:40 AM 18.1°F-7.7°C 13.0°F-10.6°C 80% Calm Calm 1.7 mph2.7 kmh 30.05 in1017.6 mb 0.00 in0.0 mm 0.00 in0.0 mm 0.00 in0.0 mm
07:39 AM 18.3°F-7.6°C 13.2°F-10.4°C 80% Calm Calm 1.7 mph2.7 kmh 30.05 in1017.6 mb 0.00 in0.0 mm 0.00 in0.0 mm 0.00 in0.0 mm
07:38 AM 18.3°F-7.6°C 13.2°F-10.4°C 80% Calm Calm 1.7 mph2.7 kmh 30.04 in1017.3 mb 0.00 in0.0 mm 0.00 in0.0 mm 0.00 in0.0 mm
07:37 AM 18.3°F-7.6°C 13.2°F-10.4°C 80% Calm Calm 1.7 mph2.7 kmh 30.04 in1017.3 mb 0.00 in0.0 mm 0.00 in0.0 mm 0.00 in0.0 mm
07:36 AM 18.3°F-7.6°C 13.2°F-10.4°C 80% Calm Calm 1.7 mph2.7 kmh 30.04 in1017.3 mb 0.00 in0.0 mm 0.00 in0.0 mm 0.00 in0.0 mm
07:35 AM 18.3°F-7.6°C 13.2°F-10.4°C 80% Calm Calm 2.7 mph4.3 kmh 30.04 in1017.3 mb 0.00 in0.0 mm 0.00 in0.0 mm 0.00 in0.0 mm
07:34 AM 18.3°F-7.6°C 13.2°F-10.4°C 80% 1.7 mph NW2.7 kmh NW 2.7 mph4.3 kmh 30.04 in1017.3 mb 0.00 in0.0 mm 0.00 in0.0 mm 0.00 in0.0 mm
07:33 AM 18.3°F-7.6°C 13.2°F-10.4°C 80% Calm Calm 2.7 mph4.3 kmh 30.04 in1017.3 mb 0.00 in0.0 mm 0.00 in0.0 mm 0.00 in0.0 mm
07:32 AM 18.3°F-7.6°C 13.2°F-10.4°C 80% Calm Calm 2.7 mph4.3 kmh 30.04 in1017.3 mb 0.00 in0.0 mm 0.00 in0.0 mm 0.00 in0.0 mm
07:31 AM 18.3°F-7.6°C 13.2°F-10.4°C 80% Calm Calm 2.7 mph4.3 kmh 30.04 in1017.3 mb 0.00 in0.0 mm 0.00 in0.0 mm 0.00 in0.0 mm
07:30 AM 18.5°F-7.5°C 13.4°F-10.3°C 80% Calm Calm 2.7 mph4.3 kmh 30.04 in1017.3 mb 0.00 in0.0 mm 0.00 in0.0 mm 0.00 in0.0 mm
07:29 AM 18.5°F-7.5°C 13.4°F-10.3°C 80% Calm Calm 2.7 mph4.3 kmh 30.04 in1017.3 mb 0.00 in0.0 mm 0.00 in0.0 mm 0.00 in0.0 mm
07:28 AM 18.5°F-7.5°C 13.4°F-10.3°C 80% Calm Calm 2.7 mph4.3 kmh 30.04 in1017.3 mb 0.00 in0.0 mm 0.00 in0.0 mm 0.00 in0.0 mm
07:27 AM 18.5°F-7.5°C 13.4°F-10.3°C 80% 1.7 mph NW2.7 kmh NW 2.7 mph4.3 kmh 30.04 in1017.3 mb 0.00 in0.0 mm 0.00 in0.0 mm 0.00 in0.0 mm
07:26 AM 18.5°F-7.5°C 13.4°F-10.3°C 80% 1.7 mph NNW2.7 kmh NNW 2.7 mph4.3 kmh 30.04 in1017.3 mb 0.00 in0.0 mm 0.00 in0.0 mm 0.00 in0.0 mm
07:25 AM 18.5°F-7.5°C 13.1°F-10.5°C 79% Calm Calm 2.2 mph3.5 kmh 30.04 in1017.3 mb 0.00 in0.0 mm 0.00 in0.0 mm 0.00 in0.0 mm
07:24 AM 18.7°F-7.4°C 13.3°F-10.4°C 79% 1.7 mph WNW2.7 kmh WNW 3.2 mph5.1 kmh 30.04 in1017.3 mb 0.00 in0.0 mm 0.00 in0.0 mm 0.00 in0.0 mm
07:23 AM 18.7°F-7.4°C 13.3°F-10.4°C 79% 1.7 mph NNW2.7 kmh NNW 3.2 mph5.1 kmh 30.04 in1017.3 mb 0.00 in0.0 mm 0.00 in0.0 mm 0.00 in0.0 mm
07:22 AM 18.7°F-7.4°C 13.3°F-10.4°C 79% 2.2 mph NW3.5 kmh NW 3.2 mph5.1 kmh 30.04 in1017.3 mb 0.00 in0.0 mm 0.00 in0.0 mm 0.00 in0.0 mm
07:21 AM 18.7°F-7.4°C 13.3°F-10.4°C 79% 1.1 mph NNW1.8 kmh NNW 3.2 mph5.1 kmh 30.04 in1017.3 mb 0.00 in0.0 mm 0.00 in0.0 mm 0.00 in0.0 mm
07:20 AM 18.7°F-7.4°C 13.3°F-10.4°C 79% 1.7 mph NW2.7 kmh NW 3.2 mph5.1 kmh 30.04 in1017.3 mb 0.00 in0.0 mm 0.00 in0.0 mm 0.00 in0.0 mm
07:19 AM 18.7°F-7.4°C 13.3°F-10.4°C 79% 1.7 mph NNW2.7 kmh NNW 3.2 mph5.1 kmh 30.04 in1017.3 mb 0.00 in0.0 mm 0.00 in0.0 mm 0.00 in0.0 mm
07:18 AM 18.7°F-7.4°C 13.3°F-10.4°C 79% 1.7 mph NW2.7 kmh NW 3.2 mph5.1 kmh 30.04 in1017.3 mb 0.00 in0.0 mm 0.00 in0.0 mm 0.00 in0.0 mm
07:17 AM 18.7°F-7.4°C 13.3°F-10.4°C 79% 1.1 mph NNW1.8 kmh NNW 3.2 mph5.1 kmh 30.04 in1017.3 mb 0.00 in0.0 mm 0.00 in0.0 mm 0.00 in0.0 mm
07:16 AM 18.9°F-7.3°C 13.5°F-10.3°C 79% Calm Calm 3.2 mph5.1 kmh 30.04 in1017.3 mb 0.00 in0.0 mm 0.00 in0.0 mm 0.00 in0.0 mm
07:15 AM 18.9°F-7.3°C 13.5°F-10.3°C 79% 2.2 mph NNW3.5 kmh NNW 3.2 mph5.1 kmh 30.04 in1017.3 mb 0.00 in0.0 mm 0.00 in0.0 mm 0.00 in0.0 mm
07:14 AM 18.9°F-7.3°C 13.5°F-10.3°C 79% Calm Calm 2.7 mph4.3 kmh 30.04 in1017.3 mb 0.00 in0.0 mm 0.00 in0.0 mm 0.00 in0.0 mm
07:13 AM 18.9°F-7.3°C 13.5°F-10.3°C 79% 1.7 mph NW2.7 kmh NW 2.7 mph4.3 kmh 30.04 in1017.3 mb 0.00 in0.0 mm 0.00 in0.0 mm 0.00 in0.0 mm
07:12 AM 18.9°F-7.3°C 13.5°F-10.3°C 79% 1.7 mph NNW2.7 kmh NNW 2.7 mph4.3 kmh 30.04 in1017.3 mb 0.00 in0.0 mm 0.00 in0.0 mm 0.00 in0.0 mm
07:11 AM 18.9°F-7.3°C 13.5°F-10.3°C 79% 2.2 mph NNW3.5 kmh NNW 2.7 mph4.3 kmh 30.04 in1017.3 mb 0.00 in0.0 mm 0.00 in0.0 mm 0.00 in0.0 mm
07:10 AM 18.9°F-7.3°C 13.5°F-10.3°C 79% 1.7 mph NW2.7 kmh NW 2.7 mph4.3 kmh 30.04 in1017.3 mb 0.00 in0.0 mm 0.00 in0.0 mm 0.00 in0.0 mm
07:09 AM 18.9°F-7.3°C 13.2°F-10.4°C 78% 2.7 mph NNW4.3 kmh NNW 2.7 mph4.3 kmh 30.04 in1017.3 mb 0.00 in0.0 mm 0.00 in0.0 mm 0.00 in0.0 mm
07:08 AM 18.9°F-7.3°C 13.2°F-10.4°C 78% 2.2 mph NW3.5 kmh NW 2.2 mph3.5 kmh 30.04 in1017.3 mb 0.00 in0.0 mm 0.00 in0.0 mm 0.00 in0.0 mm
07:07 AM 18.9°F-7.3°C 13.2°F-10.4°C 78% 1.7 mph NNW2.7 kmh NNW 2.2 mph3.5 kmh 30.04 in1017.3 mb 0.00 in0.0 mm 0.00 in0.0 mm 0.00 in0.0 mm
07:06 AM 19.0°F-7.2°C 13.3°F-10.4°C 78% 1.7 mph NW2.7 kmh NW 2.2 mph3.5 kmh 30.04 in1017.3 mb 0.00 in0.0 mm 0.00 in0.0 mm 0.00 in0.0 mm
07:05 AM 19.0°F-7.2°C 13.3°F-10.4°C 78% 1.7 mph NNW2.7 kmh NNW 2.2 mph3.5 kmh 30.04 in1017.3 mb 0.00 in0.0 mm 0.00 in0.0 mm 0.00 in0.0 mm
07:04 AM 19.0°F-7.2°C 13.3°F-10.4°C 78% 1.7 mph NW2.7 kmh NW 2.2 mph3.5 kmh 30.04 in1017.3 mb 0.00 in0.0 mm 0.00 in0.0 mm 0.00 in0.0 mm
07:03 AM 19.0°F-7.2°C 13.0°F-10.6°C 77% Calm Calm 2.7 mph4.3 kmh 30.03 in1016.9 mb 0.00 in0.0 mm 0.00 in0.0 mm 0.00 in0.0 mm
07:02 AM 19.2°F-7.1°C 13.2°F-10.4°C 77% 1.1 mph NW1.8 kmh NW 2.7 mph4.3 kmh 30.03 in1016.9 mb 0.00 in0.0 mm 0.00 in0.0 mm 0.00 in0.0 mm
07:01 AM 19.2°F-7.1°C 13.2°F-10.4°C 77% 1.1 mph NNW1.8 kmh NNW 2.7 mph4.3 kmh 30.03 in1016.9 mb 0.00 in0.0 mm 0.00 in0.0 mm 0.00 in0.0 mm
07:00 AM 19.2°F-7.1°C 13.2°F-10.4°C 77% 2.2 mph WNW3.5 kmh WNW 2.7 mph4.3 kmh 30.03 in1016.9 mb 0.00 in0.0 mm 0.00 in0.0 mm 0.00 in0.0 mm
06:59 AM 19.2°F-7.1°C 13.2°F-10.4°C 77% 2.2 mph NNW3.5 kmh NNW 2.7 mph4.3 kmh 30.03 in1016.9 mb 0.00 in0.0 mm 0.00 in0.0 mm 0.00 in0.0 mm
06:58 AM 19.4°F-7.0°C 13.4°F-10.3°C 77% 1.7 mph NW2.7 kmh NW 2.7 mph4.3 kmh 30.03 in1016.9 mb 0.00 in0.0 mm 0.00 in0.0 mm 0.00 in0.0 mm
06:57 AM 19.4°F-7.0°C 13.4°F-10.3°C 77% 1.7 mph NNW2.7 kmh NNW 2.7 mph4.3 kmh 30.03 in1016.9 mb 0.00 in0.0 mm 0.00 in0.0 mm 0.00 in0.0 mm
06:56 AM 19.4°F-7.0°C 13.4°F-10.3°C 77% 1.7 mph NW2.7 kmh NW 2.7 mph4.3 kmh 30.03 in1016.9 mb 0.00 in0.0 mm 0.00 in0.0 mm 0.00 in0.0 mm
06:55 AM 19.4°F-7.0°C 13.4°F-10.3°C 77% 1.7 mph NNW2.7 kmh NNW 2.7 mph4.3 kmh 30.03 in1016.9 mb 0.00 in0.0 mm 0.00 in0.0 mm 0.00 in0.0 mm
06:54 AM 19.6°F-6.9°C 13.6°F-10.2°C 77% 2.2 mph NNW3.5 kmh NNW 2.7 mph4.3 kmh 30.03 in1016.9 mb 0.00 in0.0 mm 0.00 in0.0 mm 0.00 in0.0 mm
06:53 AM 19.6°F-6.9°C 13.6°F-10.2°C 77% 2.7 mph NNW4.3 kmh NNW 3.2 mph5.1 kmh 30.03 in1016.9 mb 0.00 in0.0 mm 0.00 in0.0 mm 0.00 in0.0 mm
06:52 AM 19.6°F-6.9°C 13.6°F-10.2°C 77% 1.7 mph N2.7 kmh N 3.2 mph5.1 kmh 30.03 in1016.9 mb 0.00 in0.0 mm 0.00 in0.0 mm 0.00 in0.0 mm
06:51 AM 19.6°F-6.9°C 13.6°F-10.2°C 77% 2.2 mph N3.5 kmh N 3.2 mph5.1 kmh 30.03 in1016.9 mb 0.00 in0.0 mm 0.00 in0.0 mm 0.00 in0.0 mm
06:50 AM 19.8°F-6.8°C 13.8°F-10.1°C 77% 1.7 mph NNW2.7 kmh NNW 4.2 mph6.8 kmh 30.03 in1016.9 mb 0.00 in0.0 mm 0.00 in0.0 mm 0.00 in0.0 mm
06:49 AM 19.8°F-6.8°C 13.8°F-10.1°C 77% 2.2 mph NW3.5 kmh NW 4.2 mph6.8 kmh 30.03 in1016.9 mb 0.00 in0.0 mm 0.00 in0.0 mm 0.00 in0.0 mm
06:48 AM 19.8°F-6.8°C 13.5°F-10.3°C 76% 1.7 mph NNW2.7 kmh NNW 4.2 mph6.8 kmh 30.03 in1016.9 mb 0.00 in0.0 mm 0.00 in0.0 mm 0.00 in0.0 mm
06:47 AM 19.8°F-6.8°C 13.5°F-10.3°C 76% 1.7 mph NW2.7 kmh NW 4.2 mph6.8 kmh 30.03 in1016.9 mb 0.00 in0.0 mm 0.00 in0.0 mm 0.00 in0.0 mm
06:46 AM 19.9°F-6.7°C 13.6°F-10.2°C 76% 1.1 mph NNW1.8 kmh NNW 4.2 mph6.8 kmh 30.03 in1016.9 mb 0.00 in0.0 mm 0.00 in0.0 mm 0.00 in0.0 mm
06:45 AM 19.9°F-6.7°C 13.6°F-10.2°C 76% 2.7 mph NW4.3 kmh NW 4.2 mph6.8 kmh 30.03 in1016.9 mb 0.00 in0.0 mm 0.00 in0.0 mm 0.00 in0.0 mm
06:44 AM 19.9°F-6.7°C 13.6°F-10.2°C 76% 1.7 mph NNW2.7 kmh NNW 4.2 mph6.8 kmh 30.03 in1016.9 mb 0.00 in0.0 mm 0.00 in0.0 mm 0.00 in0.0 mm
06:43 AM 19.9°F-6.7°C 13.6°F-10.2°C 76% 2.2 mph NW3.5 kmh NW 4.2 mph6.8 kmh 30.03 in1016.9 mb 0.00 in0.0 mm 0.00 in0.0 mm 0.00 in0.0 mm
06:42 AM 19.9°F-6.7°C 13.6°F-10.2°C 76% 1.1 mph NNW1.8 kmh NNW 4.2 mph6.8 kmh 30.03 in1016.9 mb 0.00 in0.0 mm 0.00 in0.0 mm 0.00 in0.0 mm
06:41 AM 20.1°F-6.6°C 13.8°F-10.1°C 76% 2.2 mph N3.5 kmh N 4.2 mph6.8 kmh 30.03 in1016.9 mb 0.00 in0.0 mm 0.00 in0.0 mm 0.00 in0.0 mm
06:40 AM 20.1°F-6.6°C 13.8°F-10.1°C 76% 4.2 mph NNW6.8 kmh NNW 4.2 mph6.8 kmh 30.03 in1016.9 mb 0.00 in0.0 mm 0.00 in0.0 mm 0.00 in0.0 mm
06:39 AM 20.1°F-6.6°C 13.8°F-10.1°C 76% 2.7 mph N4.3 kmh N 3.7 mph6.0 kmh 30.03 in1016.9 mb 0.00 in0.0 mm 0.00 in0.0 mm 0.00 in0.0 mm
06:38 AM 20.1°F-6.6°C 13.8°F-10.1°C 76% 1.7 mph NNW2.7 kmh NNW 5.3 mph8.5 kmh 30.04 in1017.3 mb 0.00 in0.0 mm 0.00 in0.0 mm 0.00 in0.0 mm
06:37 AM 20.3°F-6.5°C 14.0°F-10.0°C 76% 2.7 mph NNW4.3 kmh NNW 5.3 mph8.5 kmh 30.04 in1017.3 mb 0.00 in0.0 mm 0.00 in0.0 mm 0.00 in0.0 mm
06:36 AM 20.3°F-6.5°C 14.0°F-10.0°C 76% 3.7 mph NNW6.0 kmh NNW 5.3 mph8.5 kmh 30.04 in1017.3 mb 0.00 in0.0 mm 0.00 in0.0 mm 0.00 in0.0 mm
06:35 AM 20.3°F-6.5°C 13.7°F-10.2°C 75% 2.2 mph N3.5 kmh N 5.3 mph8.5 kmh 30.04 in1017.3 mb 0.00 in0.0 mm 0.00 in0.0 mm 0.00 in0.0 mm
06:34 AM 20.3°F-6.5°C 13.7°F-10.2°C 75% 2.2 mph NNW3.5 kmh NNW 5.3 mph8.5 kmh 30.04 in1017.3 mb 0.00 in0.0 mm 0.00 in0.0 mm 0.00 in0.0 mm
06:33 AM 20.3°F-6.5°C 13.7°F-10.2°C 75% 2.2 mph NNW3.5 kmh NNW 5.3 mph8.5 kmh 30.04 in1017.3 mb 0.00 in0.0 mm 0.00 in0.0 mm 0.00 in0.0 mm
06:32 AM 20.5°F-6.4°C 13.9°F-10.1°C 75% 2.7 mph NNW4.3 kmh NNW 5.3 mph8.5 kmh 30.04 in1017.3 mb 0.00 in0.0 mm 0.00 in0.0 mm 0.00 in0.0 mm
06:31 AM 20.5°F-6.4°C 13.9°F-10.1°C 75% 2.7 mph NW4.3 kmh NW 5.3 mph8.5 kmh 30.04 in1017.3 mb 0.00 in0.0 mm 0.00 in0.0 mm 0.00 in0.0 mm
06:30 AM 20.5°F-6.4°C 13.9°F-10.1°C 75% 2.7 mph WNW4.3 kmh WNW 5.3 mph8.5 kmh 30.04 in1017.3 mb 0.00 in0.0 mm 0.00 in0.0 mm 0.00 in0.0 mm
06:29 AM 20.5°F-6.4°C 13.9°F-10.1°C 75% 2.2 mph NNW3.5 kmh NNW 5.3 mph8.5 kmh 30.04 in1017.3 mb 0.00 in0.0 mm 0.00 in0.0 mm 0.00 in0.0 mm
06:28 AM 20.5°F-6.4°C 13.9°F-10.1°C 75% 5.3 mph NW8.5 kmh NW 5.3 mph8.5 kmh 30.04 in1017.3 mb 0.00 in0.0 mm 0.00 in0.0 mm 0.00 in0.0 mm
06:27 AM 20.5°F-6.4°C 13.9°F-10.1°C 75% 2.7 mph NW4.3 kmh NW 4.7 mph7.6 kmh 30.04 in1017.3 mb 0.00 in0.0 mm 0.00 in0.0 mm 0.00 in0.0 mm
06:26 AM 20.5°F-6.4°C 13.6°F-10.2°C 74% 2.2 mph NW3.5 kmh NW 4.7 mph7.6 kmh 30.03 in1016.9 mb 0.00 in0.0 mm 0.00 in0.0 mm 0.00 in0.0 mm
06:25 AM 20.5°F-6.4°C 13.6°F-10.2°C 74% 1.7 mph NNW2.7 kmh NNW 4.7 mph7.6 kmh 30.03 in1016.9 mb 0.00 in0.0 mm 0.00 in0.0 mm 0.00 in0.0 mm
06:24 AM 20.5°F-6.4°C 13.6°F-10.2°C 74% 1.7 mph N2.7 kmh N 4.7 mph7.6 kmh 30.03 in1016.9 mb 0.00 in0.0 mm 0.00 in0.0 mm 0.00 in0.0 mm
06:23 AM 20.7°F-6.3°C 13.7°F-10.2°C 74% 2.2 mph NNW3.5 kmh NNW 4.7 mph7.6 kmh 30.03 in1016.9 mb 0.00 in0.0 mm 0.00 in0.0 mm 0.00 in0.0 mm
06:22 AM 20.7°F-6.3°C 13.7°F-10.2°C 74% 2.2 mph WNW3.5 kmh WNW 4.7 mph7.6 kmh 30.03 in1016.9 mb 0.00 in0.0 mm 0.00 in0.0 mm 0.00 in0.0 mm
06:21 AM 20.7°F-6.3°C 13.7°F-10.2°C 74% 1.7 mph N2.7 kmh N 5.3 mph8.5 kmh 30.03 in1016.9 mb 0.00 in0.0 mm 0.00 in0.0 mm 0.00 in0.0 mm
06:20 AM 20.7°F-6.3°C 13.7°F-10.2°C 74% 2.7 mph NW4.3 kmh NW 5.3 mph8.5 kmh 30.03 in1016.9 mb 0.00 in0.0 mm 0.00 in0.0 mm 0.00 in0.0 mm
06:19 AM 20.7°F-6.3°C 13.7°F-10.2°C 74% 3.7 mph WNW6.0 kmh WNW 5.3 mph8.5 kmh 30.03 in1016.9 mb 0.00 in0.0 mm 0.00 in0.0 mm 0.00 in0.0 mm
06:18 AM 20.8°F-6.2°C 13.8°F-10.1°C 74% 2.7 mph NW4.3 kmh NW 5.3 mph8.5 kmh 30.03 in1016.9 mb 0.00 in0.0 mm 0.00 in0.0 mm 0.00 in0.0 mm
06:17 AM 20.8°F-6.2°C 13.8°F-10.1°C 74% 2.2 mph NNW3.5 kmh NNW 5.3 mph8.5 kmh 30.03 in1016.9 mb 0.00 in0.0 mm 0.00 in0.0 mm 0.00 in0.0 mm
06:16 AM 20.8°F-6.2°C 13.8°F-10.1°C 74% 2.7 mph N4.3 kmh N 5.3 mph8.5 kmh 30.03 in1016.9 mb 0.00 in0.0 mm 0.00 in0.0 mm 0.00 in0.0 mm
06:15 AM 20.8°F-6.2°C 13.8°F-10.1°C 74% 3.2 mph N5.1 kmh N 5.3 mph8.5 kmh 30.03 in1016.9 mb 0.00 in0.0 mm 0.00 in0.0 mm 0.00 in0.0 mm
06:14 AM 20.8°F-6.2°C 13.8°F-10.1°C 74% 2.2 mph NNE3.5 kmh NNE 5.3 mph8.5 kmh 30.03 in1016.9 mb 0.00 in0.0 mm 0.00 in0.0 mm 0.00 in0.0 mm
06:13 AM 20.8°F-6.2°C 13.8°F-10.1°C 74% 3.2 mph NW5.1 kmh NW 5.3 mph8.5 kmh 30.03 in1016.9 mb 0.00 in0.0 mm 0.00 in0.0 mm 0.00 in0.0 mm
06:12 AM 20.8°F-6.2°C 13.8°F-10.1°C 74% 2.7 mph WNW4.3 kmh WNW 5.3 mph8.5 kmh 30.03 in1016.9 mb 0.00 in0.0 mm 0.00 in0.0 mm 0.00 in0.0 mm
06:11 AM 20.8°F-6.2°C 13.8°F-10.1°C 74% 5.3 mph WNW8.5 kmh WNW 5.3 mph8.5 kmh 30.03 in1016.9 mb 0.00 in0.0 mm 0.00 in0.0 mm 0.00 in0.0 mm
06:10 AM 20.8°F-6.2°C 13.8°F-10.1°C 74% 2.2 mph N3.5 kmh N 3.7 mph6.0 kmh 30.03 in1016.9 mb 0.00 in0.0 mm 0.00 in0.0 mm 0.00 in0.0 mm
06:09 AM 20.8°F-6.2°C 13.5°F-10.3°C 73% 2.7 mph NNW4.3 kmh NNW 3.7 mph6.0 kmh 30.03 in1016.9 mb 0.00 in0.0 mm 0.00 in0.0 mm 0.00 in0.0 mm
06:08 AM 20.8°F-6.2°C 13.5°F-10.3°C 73% 2.7 mph NNE4.3 kmh NNE 3.7 mph6.0 kmh 30.03 in1016.9 mb 0.00 in0.0 mm 0.00 in0.0 mm 0.00 in0.0 mm
06:07 AM 20.8°F-6.2°C 13.5°F-10.3°C 73% 3.7 mph NNE6.0 kmh NNE 3.7 mph6.0 kmh 30.03 in1016.9 mb 0.00 in0.0 mm 0.00 in0.0 mm 0.00 in0.0 mm
06:06 AM 21.0°F-6.1°C 13.7°F-10.2°C 73% 2.7 mph NNW4.3 kmh NNW 4.2 mph6.8 kmh 30.03 in1016.9 mb 0.00 in0.0 mm 0.00 in0.0 mm 0.00 in0.0 mm
06:05 AM 21.0°F-6.1°C 13.7°F-10.2°C 73% 2.7 mph NNW4.3 kmh NNW 4.2 mph6.8 kmh 30.03 in1016.9 mb 0.00 in0.0 mm 0.00 in0.0 mm 0.00 in0.0 mm
06:04 AM 21.0°F-6.1°C 13.7°F-10.2°C 73% 2.7 mph N4.3 kmh N 4.2 mph6.8 kmh 30.03 in1016.9 mb 0.00 in0.0 mm 0.00 in0.0 mm 0.00 in0.0 mm
06:03 AM 21.0°F-6.1°C 13.7°F-10.2°C 73% 2.7 mph N4.3 kmh N 4.2 mph6.8 kmh 30.03 in1016.9 mb 0.00 in0.0 mm 0.00 in0.0 mm 0.00 in0.0 mm
06:02 AM 21.0°F-6.1°C 13.7°F-10.2°C 73% 3.2 mph NNE5.1 kmh NNE 4.2 mph6.8 kmh 30.02 in1016.6 mb 0.00 in0.0 mm 0.00 in0.0 mm 0.00 in0.0 mm
06:01 AM 21.0°F-6.1°C 13.7°F-10.2°C 73% 3.2 mph NNE5.1 kmh NNE 4.7 mph7.6 kmh 30.02 in1016.6 mb 0.00 in0.0 mm 0.00 in0.0 mm 0.00 in0.0 mm
06:00 AM 21.0°F-6.1°C 13.7°F-10.2°C 73% 3.2 mph N5.1 kmh N 4.7 mph7.6 kmh 30.02 in1016.6 mb 0.00 in0.0 mm 0.00 in0.0 mm 0.00 in0.0 mm
05:59 AM 21.0°F-6.1°C 13.7°F-10.2°C 73% 3.2 mph NNE5.1 kmh NNE 4.7 mph7.6 kmh 30.02 in1016.6 mb 0.00 in0.0 mm 0.00 in0.0 mm 0.00 in0.0 mm
05:58 AM 21.0°F-6.1°C 13.7°F-10.2°C 73% 2.7 mph N4.3 kmh N 4.7 mph7.6 kmh 30.02 in1016.6 mb 0.00 in0.0 mm 0.00 in0.0 mm 0.00 in0.0 mm
05:57 AM 21.0°F-6.1°C 13.7°F-10.2°C 73% 2.7 mph NNE4.3 kmh NNE 4.7 mph7.6 kmh 30.02 in1016.6 mb 0.00 in0.0 mm 0.00 in0.0 mm 0.00 in0.0 mm
05:56 AM 21.0°F-6.1°C 13.7°F-10.2°C 73% 2.7 mph N4.3 kmh N 4.7 mph7.6 kmh 30.02 in1016.6 mb 0.00 in0.0 mm 0.00 in0.0 mm 0.00 in0.0 mm
05:55 AM 21.0°F-6.1°C 13.7°F-10.2°C 73% 2.2 mph NE3.5 kmh NE 4.7 mph7.6 kmh 30.02 in1016.6 mb 0.00 in0.0 mm 0.00 in0.0 mm 0.00 in0.0 mm
05:54 AM 21.0°F-6.1°C 13.7°F-10.2°C 73% 2.7 mph N4.3 kmh N 4.7 mph7.6 kmh 30.02 in1016.6 mb 0.00 in0.0 mm 0.00 in0.0 mm 0.00 in0.0 mm
05:53 AM 21.0°F-6.1°C 13.7°F-10.2°C 73% 2.7 mph NNE4.3 kmh NNE 4.7 mph7.6 kmh 30.02 in1016.6 mb 0.00 in0.0 mm 0.00 in0.0 mm 0.00 in0.0 mm
05:52 AM 21.2°F-6.0°C 13.9°F-10.1°C 73% 3.2 mph NNW5.1 kmh NNW 4.7 mph7.6 kmh 30.02 in1016.6 mb 0.00 in0.0 mm 0.00 in0.0 mm 0.00 in0.0 mm
05:51 AM 21.2°F-6.0°C 13.9°F-10.1°C 73% 3.7 mph NNW6.0 kmh NNW 4.2 mph6.8 kmh 30.02 in1016.6 mb 0.00 in0.0 mm 0.00 in0.0 mm 0.00 in0.0 mm
05:50 AM 21.2°F-6.0°C 13.9°F-10.1°C 73% 2.7 mph N4.3 kmh N 4.2 mph6.8 kmh 30.02 in1016.6 mb 0.00 in0.0 mm 0.00 in0.0 mm 0.00 in0.0 mm
05:49 AM 21.2°F-6.0°C 13.9°F-10.1°C 73% 3.7 mph NNE6.0 kmh NNE 4.2 mph6.8 kmh 30.02 in1016.6 mb 0.00 in0.0 mm 0.00 in0.0 mm 0.00 in0.0 mm
05:48 AM 21.2°F-6.0°C 13.9°F-10.1°C 73% 2.7 mph NNE4.3 kmh NNE 4.2 mph6.8 kmh 30.02 in1016.6 mb 0.00 in0.0 mm 0.00 in0.0 mm 0.00 in0.0 mm
05:47 AM 21.2°F-6.0°C 13.9°F-10.1°C 73% 2.2 mph NW3.5 kmh NW 4.2 mph6.8 kmh 30.02 in1016.6 mb 0.00 in0.0 mm 0.00 in0.0 mm 0.00 in0.0 mm
05:46 AM 21.2°F-6.0°C 13.9°F-10.1°C 73% 2.7 mph NNW4.3 kmh NNW 3.7 mph6.0 kmh 30.02 in1016.6 mb 0.00 in0.0 mm 0.00 in0.0 mm 0.00 in0.0 mm
05:45 AM 21.2°F-6.0°C 13.9°F-10.1°C 73% 3.7 mph NW6.0 kmh NW 3.7 mph6.0 kmh 30.02 in1016.6 mb 0.00 in0.0 mm 0.00 in0.0 mm 0.00 in0.0 mm
05:44 AM 21.2°F-6.0°C 13.9°F-10.1°C 73% 2.2 mph NNW3.5 kmh NNW 3.7 mph6.0 kmh 30.02 in1016.6 mb 0.00 in0.0 mm 0.00 in0.0 mm 0.00 in0.0 mm
05:43 AM 21.2°F-6.0°C 13.9°F-10.1°C 73% 2.7 mph N4.3 kmh N 3.7 mph6.0 kmh 30.02 in1016.6 mb 0.00 in0.0 mm 0.00 in0.0 mm 0.00 in0.0 mm
05:42 AM 21.2°F-6.0°C 13.9°F-10.1°C 73% 1.7 mph NE2.7 kmh NE 3.7 mph6.0 kmh 30.02 in1016.6 mb 0.00 in0.0 mm 0.00 in0.0 mm 0.00 in0.0 mm
05:41 AM 21.2°F-6.0°C 13.9°F-10.1°C 73% 2.7 mph NNE4.3 kmh NNE 5.8 mph9.3 kmh 30.02 in1016.6 mb 0.00 in0.0 mm 0.00 in0.0 mm 0.00 in0.0 mm
05:40 AM 21.2°F-6.0°C 13.9°F-10.1°C 73% 2.2 mph NNE3.5 kmh NNE 5.8 mph9.3 kmh 30.02 in1016.6 mb 0.00 in0.0 mm 0.00 in0.0 mm 0.00 in0.0 mm
05:39 AM 21.4°F-5.9°C 14.1°F-9.9°C 73% 2.2 mph N3.5 kmh N 5.8 mph9.3 kmh 30.02 in1016.6 mb 0.00 in0.0 mm 0.00 in0.0 mm 0.00 in0.0 mm
05:38 AM 21.4°F-5.9°C 14.1°F-9.9°C 73% 3.2 mph NE5.1 kmh NE 5.8 mph9.3 kmh 30.02 in1016.6 mb 0.00 in0.0 mm 0.00 in0.0 mm 0.00 in0.0 mm
05:37 AM 21.4°F-5.9°C 14.1°F-9.9°C 73% 2.7 mph N4.3 kmh N 5.8 mph9.3 kmh 30.02 in1016.6 mb 0.00 in0.0 mm 0.00 in0.0 mm 0.00 in0.0 mm
05:36 AM 21.4°F-5.9°C 14.1°F-9.9°C 73% 2.7 mph N4.3 kmh N 5.8 mph9.3 kmh 30.02 in1016.6 mb 0.00 in0.0 mm 0.00 in0.0 mm 0.00 in0.0 mm
05:35 AM 21.4°F-5.9°C 14.1°F-9.9°C 73% 1.7 mph NNE2.7 kmh NNE 5.8 mph9.3 kmh 30.02 in1016.6 mb 0.00 in0.0 mm 0.00 in0.0 mm 0.00 in0.0 mm
05:34 AM 21.6°F-5.8°C 14.3°F-9.8°C 73% 2.2 mph NNW3.5 kmh NNW 5.8 mph9.3 kmh 30.02 in1016.6 mb 0.00 in0.0 mm 0.00 in0.0 mm 0.00 in0.0 mm
05:33 AM 21.6°F-5.8°C 14.3°F-9.8°C 73% 2.2 mph N3.5 kmh N 5.8 mph9.3 kmh 30.02 in1016.6 mb 0.00 in0.0 mm 0.00 in0.0 mm 0.00 in0.0 mm
05:32 AM 21.6°F-5.8°C 14.3°F-9.8°C 73% 3.2 mph NE5.1 kmh NE 5.8 mph9.3 kmh 30.02 in1016.6 mb 0.00 in0.0 mm 0.00 in0.0 mm 0.00 in0.0 mm
05:31 AM 21.6°F-5.8°C 14.3°F-9.8°C 73% 2.2 mph NW3.5 kmh NW 3.7 mph6.0 kmh 30.02 in1016.6 mb 0.00 in0.0 mm 0.00 in0.0 mm 0.00 in0.0 mm
05:30 AM 21.6°F-5.8°C 14.3°F-9.8°C 73% 3.2 mph NNW5.1 kmh NNW 3.7 mph6.0 kmh 30.02 in1016.6 mb 0.00 in0.0 mm 0.00 in0.0 mm 0.00 in0.0 mm
05:29 AM 21.7°F-5.7°C 14.4°F-9.8°C 73% 2.7 mph NE4.3 kmh NE 3.7 mph6.0 kmh 30.02 in1016.6 mb 0.00 in0.0 mm 0.00 in0.0 mm 0.00 in0.0 mm
05:28 AM 21.7°F-5.7°C 14.4°F-9.8°C 73% 3.7 mph NNE6.0 kmh NNE 4.2 mph6.8 kmh 30.02 in1016.6 mb 0.00 in0.0 mm 0.00 in0.0 mm 0.00 in0.0 mm
05:27 AM 21.7°F-5.7°C 14.4°F-9.8°C 73% 2.2 mph NNE3.5 kmh NNE 4.2 mph6.8 kmh 30.02 in1016.6 mb 0.00 in0.0 mm 0.00 in0.0 mm 0.00 in0.0 mm
05:26 AM 21.7°F-5.7°C 14.4°F-9.8°C 73% 2.7 mph ENE4.3 kmh ENE 4.2 mph6.8 kmh 30.01 in1016.3 mb 0.00 in0.0 mm 0.00 in0.0 mm 0.00 in0.0 mm
05:25 AM 21.7°F-5.7°C 14.4°F-9.8°C 73% 2.7 mph NNW4.3 kmh NNW 4.2 mph6.8 kmh 30.01 in1016.3 mb 0.00 in0.0 mm 0.00 in0.0 mm 0.00 in0.0 mm
05:24 AM 21.7°F-5.7°C 14.4°F-9.8°C 73% 2.2 mph N3.5 kmh N 4.2 mph6.8 kmh 30.01 in1016.3 mb 0.00 in0.0 mm 0.00 in0.0 mm 0.00 in0.0 mm
05:23 AM 21.9°F-5.6°C 14.6°F-9.7°C 73% 2.7 mph N4.3 kmh N 4.2 mph6.8 kmh 30.01 in1016.3 mb 0.00 in0.0 mm 0.00 in0.0 mm 0.00 in0.0 mm
05:22 AM 21.9°F-5.6°C 14.6°F-9.7°C 73% 2.7 mph N4.3 kmh N 4.2 mph6.8 kmh 30.01 in1016.3 mb 0.00 in0.0 mm 0.00 in0.0 mm 0.00 in0.0 mm
05:21 AM 21.9°F-5.6°C 14.3°F-9.8°C 72% 2.7 mph NNE4.3 kmh NNE 4.2 mph6.8 kmh 30.01 in1016.3 mb 0.00 in0.0 mm 0.00 in0.0 mm 0.00 in0.0 mm
05:20 AM 22.1°F-5.5°C 14.5°F-9.7°C 72% 2.2 mph N3.5 kmh N 4.2 mph6.8 kmh 30.01 in1016.3 mb 0.00 in0.0 mm 0.00 in0.0 mm 0.00 in0.0 mm
05:19 AM 22.1°F-5.5°C 14.5°F-9.7°C 72% 2.7 mph NNE4.3 kmh NNE 4.2 mph6.8 kmh 30.01 in1016.3 mb 0.00 in0.0 mm 0.00 in0.0 mm 0.00 in0.0 mm
05:18 AM 22.1°F-5.5°C 14.5°F-9.7°C 72% 4.2 mph NNE6.8 kmh NNE 4.2 mph6.8 kmh 30.01 in1016.3 mb 0.00 in0.0 mm 0.00 in0.0 mm 0.00 in0.0 mm
05:17 AM 22.3°F-5.4°C 14.7°F-9.6°C 72% 4.2 mph N6.8 kmh N 4.2 mph6.8 kmh 30.01 in1016.3 mb 0.00 in0.0 mm 0.00 in0.0 mm 0.00 in0.0 mm
05:16 AM 22.3°F-5.4°C 14.7°F-9.6°C 72% 2.7 mph NNW4.3 kmh NNW 4.2 mph6.8 kmh 30.01 in1016.3 mb 0.00 in0.0 mm 0.00 in0.0 mm 0.00 in0.0 mm
05:15 AM 22.3°F-5.4°C 14.7°F-9.6°C 72% 2.2 mph NNE3.5 kmh NNE 4.2 mph6.8 kmh 30.00 in1015.9 mb 0.00 in0.0 mm 0.00 in0.0 mm 0.00 in0.0 mm
05:14 AM 22.3°F-5.4°C 14.7°F-9.6°C 72% 2.7 mph ENE4.3 kmh ENE 4.2 mph6.8 kmh 30.00 in1015.9 mb 0.00 in0.0 mm 0.00 in0.0 mm 0.00 in0.0 mm
05:13 AM 22.5°F-5.3°C 14.9°F-9.5°C 72% 2.7 mph NNW4.3 kmh NNW 4.2 mph6.8 kmh 30.00 in1015.9 mb 0.00 in0.0 mm 0.00 in0.0 mm 0.00 in0.0 mm
05:12 AM 22.5°F-5.3°C 14.9°F-9.5°C 72% 2.7 mph NNE4.3 kmh NNE 4.2 mph6.8 kmh 30.00 in1015.9 mb 0.00 in0.0 mm 0.00 in0.0 mm 0.00 in0.0 mm
05:11 AM 22.5°F-5.3°C 14.9°F-9.5°C 72% 3.2 mph N5.1 kmh N 4.7 mph7.6 kmh 30.00 in1015.9 mb 0.00 in0.0 mm 0.00 in0.0 mm 0.00 in0.0 mm
05:10 AM 22.5°F-5.3°C 14.9°F-9.5°C 72% 4.2 mph NNW6.8 kmh NNW 5.8 mph9.3 kmh 30.00 in1015.9 mb 0.00 in0.0 mm 0.00 in0.0 mm 0.00 in0.0 mm
05:09 AM 22.6°F-5.2°C 15.0°F-9.4°C 72% 2.7 mph NNE4.3 kmh NNE 5.8 mph9.3 kmh 30.00 in1015.9 mb 0.00 in0.0 mm 0.00 in0.0 mm 0.00 in0.0 mm
05:08 AM 22.6°F-5.2°C 15.0°F-9.4°C 72% 3.2 mph NNW5.1 kmh NNW 5.8 mph9.3 kmh 30.00 in1015.9 mb 0.00 in0.0 mm 0.00 in0.0 mm 0.00 in0.0 mm
05:07 AM 22.6°F-5.2°C 15.0°F-9.4°C 72% 3.7 mph NW6.0 kmh NW 5.8 mph9.3 kmh 30.00 in1015.9 mb 0.00 in0.0 mm 0.00 in0.0 mm 0.00 in0.0 mm
05:06 AM 22.8°F-5.1°C 15.2°F-9.3°C 72% 2.7 mph N4.3 kmh N 5.8 mph9.3 kmh 30.00 in1015.9 mb 0.00 in0.0 mm 0.00 in0.0 mm 0.00 in0.0 mm
05:05 AM 22.8°F-5.1°C 15.2°F-9.3°C 72% 3.7 mph N6.0 kmh N 5.8 mph9.3 kmh 30.00 in1015.9 mb 0.00 in0.0 mm 0.00 in0.0 mm 0.00 in0.0 mm
05:04 AM 22.8°F-5.1°C 15.5°F-9.2°C 73% 3.7 mph N6.0 kmh N 5.8 mph9.3 kmh 30.00 in1015.9 mb 0.00 in0.0 mm 0.00 in0.0 mm 0.00 in0.0 mm
05:03 AM 23.0°F-5.0°C 15.7°F-9.1°C 73% 4.2 mph NNE6.8 kmh NNE 5.8 mph9.3 kmh 30.00 in1015.9 mb 0.00 in0.0 mm 0.00 in0.0 mm 0.00 in0.0 mm
05:02 AM 23.0°F-5.0°C 15.7°F-9.1°C 73% 2.2 mph NNW3.5 kmh NNW 5.8 mph9.3 kmh 30.00 in1015.9 mb 0.00 in0.0 mm 0.00 in0.0 mm 0.00 in0.0 mm
05:01 AM 23.2°F-4.9°C 15.9°F-8.9°C 73% 4.2 mph N6.8 kmh N 5.8 mph9.3 kmh 30.00 in1015.9 mb 0.00 in0.0 mm 0.00 in0.0 mm 0.00 in0.0 mm
05:00 AM 23.2°F-4.9°C 15.9°F-8.9°C 73% 2.7 mph NNE4.3 kmh NNE 5.3 mph8.5 kmh 30.00 in1015.9 mb 0.00 in0.0 mm 0.00 in0.0 mm 0.00 in0.0 mm
04:59 AM 23.4°F-4.8°C 16.0°F-8.9°C 73% 3.2 mph NE5.1 kmh NE 5.3 mph8.5 kmh 30.00 in1015.9 mb 0.00 in0.0 mm 0.00 in0.0 mm 0.00 in0.0 mm
04:58 AM 23.4°F-4.8°C 16.0°F-8.9°C 73% 2.7 mph NW4.3 kmh NW 5.3 mph8.5 kmh 30.00 in1015.9 mb 0.00 in0.0 mm 0.00 in0.0 mm 0.00 in0.0 mm
04:57 AM 23.5°F-4.7°C 16.1°F-8.8°C 73% 3.2 mph NNW5.1 kmh NNW 5.3 mph8.5 kmh 30.00 in1015.9 mb 0.00 in0.0 mm 0.00 in0.0 mm 0.00 in0.0 mm
04:56 AM 23.5°F-4.7°C 16.5°F-8.6°C 74% 4.2 mph ENE6.8 kmh ENE 5.3 mph8.5 kmh 30.00 in1015.9 mb 0.00 in0.0 mm 0.00 in0.0 mm 0.00 in0.0 mm
04:55 AM 23.5°F-4.7°C 16.5°F-8.6°C 74% 3.7 mph NW6.0 kmh NW 4.7 mph7.6 kmh 30.00 in1015.9 mb 0.00 in0.0 mm 0.00 in0.0 mm 0.00 in0.0 mm
04:54 AM 23.7°F-4.6°C 16.6°F-8.6°C 74% 3.7 mph N6.0 kmh N 4.7 mph7.6 kmh 30.00 in1015.9 mb 0.00 in0.0 mm 0.00 in0.0 mm 0.00 in0.0 mm
04:53 AM 23.7°F-4.6°C 16.6°F-8.6°C 74% 3.7 mph N6.0 kmh N 4.7 mph7.6 kmh 30.00 in1015.9 mb 0.00 in0.0 mm 0.00 in0.0 mm 0.00 in0.0 mm
04:52 AM 23.7°F-4.6°C 16.6°F-8.6°C 74% 4.2 mph NNW6.8 kmh NNW 4.7 mph7.6 kmh 30.00 in1015.9 mb 0.00 in0.0 mm 0.00 in0.0 mm 0.00 in0.0 mm
04:51 AM 23.9°F-4.5°C 16.8°F-8.4°C 74% 3.7 mph E6.0 kmh E 4.7 mph7.6 kmh 30.00 in1015.9 mb 0.00 in0.0 mm 0.00 in0.0 mm 0.00 in0.0 mm
04:50 AM 23.9°F-4.5°C 16.8°F-8.4°C 74% 3.2 mph NNE5.1 kmh NNE 4.7 mph7.6 kmh 30.00 in1015.9 mb 0.00 in0.0 mm 0.00 in0.0 mm 0.00 in0.0 mm
04:49 AM 23.9°F-4.5°C 16.8°F-8.4°C 74% 2.7 mph NNE4.3 kmh NNE 4.7 mph7.6 kmh 30.00 in1015.9 mb 0.00 in0.0 mm 0.00 in0.0 mm 0.00 in0.0 mm
04:48 AM 24.1°F-4.4°C 17.0°F-8.3°C 74% 2.7 mph N4.3 kmh N 4.7 mph7.6 kmh 30.00 in1015.9 mb 0.00 in0.0 mm 0.00 in0.0 mm 0.00 in0.0 mm
04:47 AM 24.1°F-4.4°C 17.0°F-8.3°C 74% 2.2 mph N3.5 kmh N 4.7 mph7.6 kmh 30.00 in1015.9 mb 0.00 in0.0 mm 0.00 in0.0 mm 0.00 in0.0 mm
04:46 AM 24.1°F-4.4°C 17.0°F-8.3°C 74% 2.7 mph NNE4.3 kmh NNE 4.7 mph7.6 kmh 30.00 in1015.9 mb 0.00 in0.0 mm 0.00 in0.0 mm 0.00 in0.0 mm
04:45 AM 24.3°F-4.3°C 17.2°F-8.2°C 74% 4.2 mph NNW6.8 kmh NNW 4.7 mph7.6 kmh 30.00 in1015.9 mb 0.00 in0.0 mm 0.00 in0.0 mm 0.00 in0.0 mm
04:44 AM 24.3°F-4.3°C 17.2°F-8.2°C 74% 3.7 mph NNE6.0 kmh NNE 5.8 mph9.3 kmh 30.00 in1015.9 mb 0.00 in0.0 mm 0.00 in0.0 mm 0.00 in0.0 mm
04:43 AM 24.3°F-4.3°C 17.2°F-8.2°C 74% 4.2 mph N6.8 kmh N 5.8 mph9.3 kmh 30.00 in1015.9 mb 0.00 in0.0 mm 0.00 in0.0 mm 0.00 in0.0 mm
04:42 AM 24.3°F-4.3°C 17.2°F-8.2°C 74% 3.2 mph NE5.1 kmh NE 7.3 mph11.7 kmh 30.00 in1015.9 mb 0.00 in0.0 mm 0.00 in0.0 mm 0.00 in0.0 mm
04:41 AM 24.3°F-4.3°C 17.5°F-8.1°C 75% 4.2 mph NW6.8 kmh NW 7.3 mph11.7 kmh 30.00 in1015.9 mb 0.00 in0.0 mm 0.00 in0.0 mm 0.00 in0.0 mm
04:40 AM 24.3°F-4.3°C 17.5°F-8.1°C 75% 3.2 mph NE5.1 kmh NE 7.3 mph11.7 kmh 30.00 in1015.9 mb 0.00 in0.0 mm 0.00 in0.0 mm 0.00 in0.0 mm
04:39 AM 24.4°F-4.2°C 17.6°F-8.0°C 75% 4.7 mph NW7.6 kmh NW 7.3 mph11.7 kmh 29.99 in1015.6 mb 0.00 in0.0 mm 0.00 in0.0 mm 0.00 in0.0 mm
04:38 AM 24.4°F-4.2°C 17.6°F-8.0°C 75% 3.7 mph NW6.0 kmh NW 7.3 mph11.7 kmh 29.99 in1015.6 mb 0.00 in0.0 mm 0.00 in0.0 mm 0.00 in0.0 mm
04:37 AM 24.4°F-4.2°C 17.6°F-8.0°C 75% 3.2 mph N5.1 kmh N 7.3 mph11.7 kmh 29.99 in1015.6 mb 0.00 in0.0 mm 0.00 in0.0 mm 0.00 in0.0 mm
04:36 AM 24.4°F-4.2°C 17.6°F-8.0°C 75% 2.7 mph ESE4.3 kmh ESE 7.3 mph11.7 kmh 29.99 in1015.6 mb 0.00 in0.0 mm 0.00 in0.0 mm 0.00 in0.0 mm
04:35 AM 24.4°F-4.2°C 17.6°F-8.0°C 75% 2.2 mph NNE3.5 kmh NNE 7.3 mph11.7 kmh 29.99 in1015.6 mb 0.00 in0.0 mm 0.00 in0.0 mm 0.00 in0.0 mm
04:34 AM 24.4°F-4.2°C 17.6°F-8.0°C 75% 5.8 mph N9.3 kmh N 7.3 mph11.7 kmh 29.99 in1015.6 mb 0.00 in0.0 mm 0.00 in0.0 mm 0.00 in0.0 mm
04:33 AM 24.4°F-4.2°C 17.6°F-8.0°C 75% 5.3 mph NNW8.5 kmh NNW 7.3 mph11.7 kmh 29.99 in1015.6 mb 0.00 in0.0 mm 0.00 in0.0 mm 0.00 in0.0 mm
04:32 AM 24.4°F-4.2°C 17.6°F-8.0°C 75% 6.8 mph NNW10.9 kmh NNW 6.8 mph10.9 kmh 29.99 in1015.6 mb 0.00 in0.0 mm 0.00 in0.0 mm 0.00 in0.0 mm
04:31 AM 24.6°F-4.1°C 17.8°F-7.9°C 75% 2.2 mph NNW3.5 kmh NNW 3.7 mph6.0 kmh 29.99 in1015.6 mb 0.00 in0.0 mm 0.00 in0.0 mm 0.00 in0.0 mm
04:30 AM 24.6°F-4.1°C 17.8°F-7.9°C 75% 3.2 mph E5.1 kmh E 3.7 mph6.0 kmh 29.99 in1015.6 mb 0.00 in0.0 mm 0.00 in0.0 mm 0.00 in0.0 mm
04:29 AM 24.6°F-4.1°C 17.8°F-7.9°C 75% 1.7 mph NNE2.7 kmh NNE 6.3 mph10.1 kmh 29.99 in1015.6 mb 0.00 in0.0 mm 0.00 in0.0 mm 0.00 in0.0 mm
04:28 AM 24.6°F-4.1°C 17.8°F-7.9°C 75% 2.7 mph NNW4.3 kmh NNW 6.3 mph10.1 kmh 29.99 in1015.6 mb 0.00 in0.0 mm 0.00 in0.0 mm 0.00 in0.0 mm
04:27 AM 24.6°F-4.1°C 17.8°F-7.9°C 75% 2.7 mph NNW4.3 kmh NNW 6.3 mph10.1 kmh 29.99 in1015.6 mb 0.00 in0.0 mm 0.00 in0.0 mm 0.00 in0.0 mm
04:26 AM 24.6°F-4.1°C 17.8°F-7.9°C 75% 2.7 mph NW4.3 kmh NW 6.3 mph10.1 kmh 29.99 in1015.6 mb 0.00 in0.0 mm 0.00 in0.0 mm 0.00 in0.0 mm
04:25 AM 24.6°F-4.1°C 17.8°F-7.9°C 75% 2.2 mph NNE3.5 kmh NNE 6.3 mph10.1 kmh 29.99 in1015.6 mb 0.00 in0.0 mm 0.00 in0.0 mm 0.00 in0.0 mm
04:24 AM 24.6°F-4.1°C 17.8°F-7.9°C 75% 2.7 mph NW4.3 kmh NW 6.3 mph10.1 kmh 29.99 in1015.6 mb 0.00 in0.0 mm 0.00 in0.0 mm 0.00 in0.0 mm
04:23 AM 24.8°F-4.0°C 18.0°F-7.8°C 75% 1.7 mph NNW2.7 kmh NNW 6.3 mph10.1 kmh 29.99 in1015.6 mb 0.00 in0.0 mm 0.00 in0.0 mm 0.00 in0.0 mm
04:22 AM 24.8°F-4.0°C 18.0°F-7.8°C 75% 2.2 mph E3.5 kmh E 6.3 mph10.1 kmh 29.99 in1015.6 mb 0.00 in0.0 mm 0.00 in0.0 mm 0.00 in0.0 mm
04:21 AM 24.8°F-4.0°C 18.0°F-7.8°C 75% 2.2 mph NNE3.5 kmh NNE 6.3 mph10.1 kmh 29.99 in1015.6 mb 0.00 in0.0 mm 0.00 in0.0 mm 0.00 in0.0 mm
04:20 AM 24.8°F-4.0°C 18.0°F-7.8°C 75% 3.7 mph N6.0 kmh N 6.3 mph10.1 kmh 29.99 in1015.6 mb 0.00 in0.0 mm 0.00 in0.0 mm 0.00 in0.0 mm
04:19 AM 24.8°F-4.0°C 18.0°F-7.8°C 75% 6.3 mph N10.1 kmh N 6.3 mph10.1 kmh 29.99 in1015.6 mb 0.00 in0.0 mm 0.00 in0.0 mm 0.00 in0.0 mm
04:18 AM 24.8°F-4.0°C 18.0°F-7.8°C 75% 4.7 mph N7.6 kmh N 4.7 mph7.6 kmh 29.99 in1015.6 mb 0.00 in0.0 mm 0.00 in0.0 mm 0.00 in0.0 mm
04:17 AM 24.8°F-4.0°C 18.0°F-7.8°C 75% 4.2 mph WNW6.8 kmh WNW 4.2 mph6.8 kmh 29.99 in1015.6 mb 0.00 in0.0 mm 0.00 in0.0 mm 0.00 in0.0 mm
04:16 AM 24.8°F-4.0°C 18.0°F-7.8°C 75% 1.7 mph NNE2.7 kmh NNE 3.7 mph6.0 kmh 29.99 in1015.6 mb 0.00 in0.0 mm 0.00 in0.0 mm 0.00 in0.0 mm
04:15 AM 24.8°F-4.0°C 18.0°F-7.8°C 75% 1.7 mph NNW2.7 kmh NNW 3.7 mph6.0 kmh 29.98 in1015.2 mb 0.00 in0.0 mm 0.00 in0.0 mm 0.00 in0.0 mm
04:14 AM 24.8°F-4.0°C 18.0°F-7.8°C 75% 1.7 mph ENE2.7 kmh ENE 3.7 mph6.0 kmh 29.98 in1015.2 mb 0.00 in0.0 mm 0.00 in0.0 mm 0.00 in0.0 mm
04:13 AM 24.8°F-4.0°C 18.0°F-7.8°C 75% 2.7 mph NW4.3 kmh NW 3.7 mph6.0 kmh 29.98 in1015.2 mb 0.00 in0.0 mm 0.00 in0.0 mm 0.00 in0.0 mm
04:12 AM 24.8°F-4.0°C 18.0°F-7.8°C 75% 2.2 mph N3.5 kmh N 3.7 mph6.0 kmh 29.98 in1015.2 mb 0.00 in0.0 mm 0.00 in0.0 mm 0.00 in0.0 mm
04:11 AM 29.7°F-1.3°C 22.8°F-5.1°C 75% 2.7 mph NNW4.3 kmh NNW 3.7 mph6.0 kmh 29.98 in1015.2 mb 0.00 in0.0 mm 0.00 in0.0 mm 0.00 in0.0 mm
04:10 AM 24.8°F-4.0°C 18.0°F-7.8°C 75% 2.7 mph NNW4.3 kmh NNW 3.7 mph6.0 kmh 29.98 in1015.2 mb 0.00 in0.0 mm 0.00 in0.0 mm 0.00 in0.0 mm
04:09 AM 24.8°F-4.0°C 18.0°F-7.8°C 75% 2.2 mph NNE3.5 kmh NNE 5.8 mph9.3 kmh 29.98 in1015.2 mb 0.00 in0.0 mm 0.00 in0.0 mm 0.00 in0.0 mm
04:08 AM 24.8°F-4.0°C 18.0°F-7.8°C 75% 2.7 mph N4.3 kmh N 5.8 mph9.3 kmh 29.98 in1015.2 mb 0.00 in0.0 mm 0.00 in0.0 mm 0.00 in0.0 mm
04:07 AM 25.0°F-3.9°C 18.2°F-7.7°C 75% 3.7 mph N6.0 kmh N 5.8 mph9.3 kmh 29.98 in1015.2 mb 0.00 in0.0 mm 0.00 in0.0 mm 0.00 in0.0 mm
04:06 AM 25.0°F-3.9°C 18.2°F-7.7°C 75% 3.2 mph NNE5.1 kmh NNE 5.8 mph9.3 kmh 29.98 in1015.2 mb 0.00 in0.0 mm 0.00 in0.0 mm 0.00 in0.0 mm
04:05 AM 25.0°F-3.9°C 18.2°F-7.7°C 75% 2.7 mph N4.3 kmh N 5.8 mph9.3 kmh 29.98 in1015.2 mb 0.00 in0.0 mm 0.00 in0.0 mm 0.00 in0.0 mm
04:04 AM 25.0°F-3.9°C 17.9°F-7.8°C 74% 2.2 mph NNW3.5 kmh NNW 5.8 mph9.3 kmh 29.98 in1015.2 mb 0.00 in0.0 mm 0.00 in0.0 mm 0.00 in0.0 mm
04:03 AM 25.0°F-3.9°C 17.9°F-7.8°C 74% 2.7 mph NNW4.3 kmh NNW 5.8 mph9.3 kmh 29.97 in1014.9 mb 0.00 in0.0 mm 0.00 in0.0 mm 0.00 in0.0 mm
04:02 AM 25.0°F-3.9°C 17.9°F-7.8°C 74% 2.7 mph N4.3 kmh N 5.8 mph9.3 kmh 29.97 in1014.9 mb 0.00 in0.0 mm 0.00 in0.0 mm 0.00 in0.0 mm
04:01 AM 25.0°F-3.9°C 17.9°F-7.8°C 74% 2.7 mph NNE4.3 kmh NNE 5.8 mph9.3 kmh 29.97 in1014.9 mb 0.00 in0.0 mm 0.00 in0.0 mm 0.00 in0.0 mm
04:00 AM 25.0°F-3.9°C 18.2°F-7.7°C 75% 3.2 mph NNE5.1 kmh NNE 5.8 mph9.3 kmh 29.97 in1014.9 mb 0.00 in0.0 mm 0.00 in0.0 mm 0.00 in0.0 mm
03:59 AM 25.0°F-3.9°C 18.2°F-7.7°C 75% 5.8 mph WNW9.3 kmh WNW 5.8 mph9.3 kmh 29.97 in1014.9 mb 0.00 in0.0 mm 0.00 in0.0 mm 0.00 in0.0 mm
03:58 AM 25.0°F-3.9°C 18.2°F-7.7°C 75% 2.2 mph NNE3.5 kmh NNE 5.8 mph9.3 kmh 29.97 in1014.9 mb 0.00 in0.0 mm 0.00 in0.0 mm 0.00 in0.0 mm
03:57 AM 25.0°F-3.9°C 18.2°F-7.7°C 75% 2.2 mph NNW3.5 kmh NNW 5.8 mph9.3 kmh 29.97 in1014.9 mb 0.00 in0.0 mm 0.00 in0.0 mm 0.00 in0.0 mm
03:56 AM 25.0°F-3.9°C 18.2°F-7.7°C 75% 4.2 mph NNE6.8 kmh NNE 5.8 mph9.3 kmh 29.97 in1014.9 mb 0.00 in0.0 mm 0.00 in0.0 mm 0.00 in0.0 mm
03:55 AM 25.0°F-3.9°C 18.2°F-7.7°C 75% 3.2 mph NNE5.1 kmh NNE 5.8 mph9.3 kmh 29.97 in1014.9 mb 0.00 in0.0 mm 0.00 in0.0 mm 0.00 in0.0 mm
03:54 AM 25.0°F-3.9°C 18.2°F-7.7°C 75% 4.2 mph N6.8 kmh N 5.8 mph9.3 kmh 29.97 in1014.9 mb 0.00 in0.0 mm 0.00 in0.0 mm 0.00 in0.0 mm
03:53 AM 25.0°F-3.9°C 18.2°F-7.7°C 75% 3.2 mph NNE5.1 kmh NNE 5.8 mph9.3 kmh 29.97 in1014.9 mb 0.00 in0.0 mm 0.00 in0.0 mm 0.00 in0.0 mm
03:52 AM 25.0°F-3.9°C 18.2°F-7.7°C 75% 4.2 mph NNE6.8 kmh NNE 5.8 mph9.3 kmh 29.97 in1014.9 mb 0.00 in0.0 mm 0.00 in0.0 mm 0.00 in0.0 mm
03:51 AM 25.0°F-3.9°C 18.2°F-7.7°C 75% 2.7 mph NW4.3 kmh NW 5.8 mph9.3 kmh 29.97 in1014.9 mb 0.00 in0.0 mm 0.00 in0.0 mm 0.00 in0.0 mm
03:50 AM 25.0°F-3.9°C 18.2°F-7.7°C 75% 3.2 mph NNW5.1 kmh NNW 5.8 mph9.3 kmh 29.97 in1014.9 mb 0.00 in0.0 mm 0.00 in0.0 mm 0.00 in0.0 mm
03:49 AM 25.0°F-3.9°C 18.2°F-7.7°C 75% 3.2 mph WNW5.1 kmh WNW 5.3 mph8.5 kmh 29.97 in1014.9 mb 0.00 in0.0 mm 0.00 in0.0 mm 0.00 in0.0 mm
03:48 AM 25.0°F-3.9°C 18.2°F-7.7°C 75% 3.2 mph NNE5.1 kmh NNE 5.3 mph8.5 kmh 29.97 in1014.9 mb 0.00 in0.0 mm 0.00 in0.0 mm 0.00 in0.0 mm
03:47 AM 25.0°F-3.9°C 18.2°F-7.7°C 75% 2.2 mph WNW3.5 kmh WNW 5.8 mph9.3 kmh 29.97 in1014.9 mb 0.00 in0.0 mm 0.00 in0.0 mm 0.00 in0.0 mm
03:46 AM 25.0°F-3.9°C 18.2°F-7.7°C 75% 3.2 mph NNE5.1 kmh NNE 6.3 mph10.1 kmh 29.97 in1014.9 mb 0.00 in0.0 mm 0.00 in0.0 mm 0.00 in0.0 mm
03:45 AM 25.0°F-3.9°C 18.2°F-7.7°C 75% 3.7 mph NNW6.0 kmh NNW 6.3 mph10.1 kmh 29.97 in1014.9 mb 0.00 in0.0 mm 0.00 in0.0 mm 0.00 in0.0 mm
03:44 AM 25.0°F-3.9°C 18.2°F-7.7°C 75% 3.7 mph NW6.0 kmh NW 6.3 mph10.1 kmh 29.97 in1014.9 mb 0.00 in0.0 mm 0.00 in0.0 mm 0.00 in0.0 mm
03:43 AM 25.0°F-3.9°C 18.2°F-7.7°C 75% 3.7 mph NNE6.0 kmh NNE 6.3 mph10.1 kmh 29.97 in1014.9 mb 0.00 in0.0 mm 0.00 in0.0 mm 0.00 in0.0 mm
03:42 AM 25.0°F-3.9°C 18.2°F-7.7°C 75% 3.2 mph NNE5.1 kmh NNE 6.3 mph10.1 kmh 29.97 in1014.9 mb 0.00 in0.0 mm 0.00 in0.0 mm 0.00 in0.0 mm
03:41 AM 25.0°F-3.9°C 18.2°F-7.7°C 75% 4.2 mph NNE6.8 kmh NNE 6.3 mph10.1 kmh 29.97 in1014.9 mb 0.00 in0.0 mm 0.00 in0.0 mm 0.00 in0.0 mm
03:40 AM 25.0°F-3.9°C 18.2°F-7.7°C 75% 3.2 mph NE5.1 kmh NE 6.3 mph10.1 kmh 29.97 in1014.9 mb 0.00 in0.0 mm 0.00 in0.0 mm 0.00 in0.0 mm
03:39 AM 25.2°F-3.8°C 18.4°F-7.6°C 75% 2.2 mph NNE3.5 kmh NNE 6.3 mph10.1 kmh 29.97 in1014.9 mb 0.00 in0.0 mm 0.00 in0.0 mm 0.00 in0.0 mm
03:38 AM 25.2°F-3.8°C 18.4°F-7.6°C 75% 2.7 mph ESE4.3 kmh ESE 6.3 mph10.1 kmh 29.97 in1014.9 mb 0.00 in0.0 mm 0.00 in0.0 mm 0.00 in0.0 mm
03:37 AM 25.2°F-3.8°C 18.4°F-7.6°C 75% 5.8 mph NNW9.3 kmh NNW 6.3 mph10.1 kmh 29.97 in1014.9 mb 0.00 in0.0 mm 0.00 in0.0 mm 0.00 in0.0 mm
03:36 AM 25.2°F-3.8°C 18.4°F-7.6°C 75% 5.3 mph NNE8.5 kmh NNE 6.3 mph10.1 kmh 29.97 in1014.9 mb 0.00 in0.0 mm 0.00 in0.0 mm 0.00 in0.0 mm
03:35 AM 25.2°F-3.8°C 18.4°F-7.6°C 75% 3.7 mph N6.0 kmh N 6.3 mph10.1 kmh 29.97 in1014.9 mb 0.00 in0.0 mm 0.00 in0.0 mm 0.00 in0.0 mm
03:34 AM 25.2°F-3.8°C 18.4°F-7.6°C 75% 3.2 mph NNW5.1 kmh NNW 6.3 mph10.1 kmh 29.97 in1014.9 mb 0.00 in0.0 mm 0.00 in0.0 mm 0.00 in0.0 mm
03:33 AM 25.2°F-3.8°C 18.4°F-7.6°C 75% 2.7 mph NNE4.3 kmh NNE 6.3 mph10.1 kmh 29.97 in1014.9 mb 0.00 in0.0 mm 0.00 in0.0 mm 0.00 in0.0 mm
03:32 AM 25.2°F-3.8°C 18.4°F-7.6°C 75% 3.2 mph NNE5.1 kmh NNE 6.3 mph10.1 kmh 29.97 in1014.9 mb 0.00 in0.0 mm 0.00 in0.0 mm 0.00 in0.0 mm
03:31 AM 25.3°F-3.7°C 18.5°F-7.5°C 75% 3.2 mph NNE5.1 kmh NNE 6.3 mph10.1 kmh 29.97 in1014.9 mb 0.00 in0.0 mm 0.00 in0.0 mm 0.00 in0.0 mm
03:30 AM 25.3°F-3.7°C 18.5°F-7.5°C 75% 3.7 mph NNW6.0 kmh NNW 6.3 mph10.1 kmh 29.97 in1014.9 mb 0.00 in0.0 mm 0.00 in0.0 mm 0.00 in0.0 mm
03:29 AM 25.3°F-3.7°C 18.8°F-7.3°C 76% 3.7 mph N6.0 kmh N 6.3 mph10.1 kmh 29.97 in1014.9 mb 0.00 in0.0 mm 0.00 in0.0 mm 0.00 in0.0 mm
03:28 AM 25.3°F-3.7°C 18.8°F-7.3°C 76% 3.2 mph NW5.1 kmh NW 6.3 mph10.1 kmh 29.97 in1014.9 mb 0.00 in0.0 mm 0.00 in0.0 mm 0.00 in0.0 mm
03:27 AM 25.3°F-3.7°C 18.8°F-7.3°C 76% 3.7 mph NE6.0 kmh NE 6.3 mph10.1 kmh 29.97 in1014.9 mb 0.00 in0.0 mm 0.00 in0.0 mm 0.00 in0.0 mm
03:26 AM 25.3°F-3.7°C 18.8°F-7.3°C 76% 4.2 mph NNW6.8 kmh NNW 6.3 mph10.1 kmh 29.96 in1014.6 mb 0.00 in0.0 mm 0.00 in0.0 mm 0.00 in0.0 mm
03:25 AM 25.3°F-3.7°C 18.8°F-7.3°C 76% 5.3 mph N8.5 kmh N 6.3 mph10.1 kmh 29.96 in1014.6 mb 0.00 in0.0 mm 0.00 in0.0 mm 0.00 in0.0 mm
03:24 AM 25.3°F-3.7°C 18.8°F-7.3°C 76% 4.7 mph NNW7.6 kmh NNW 9.9 mph15.9 kmh 29.96 in1014.6 mb 0.00 in0.0 mm 0.00 in0.0 mm 0.00 in0.0 mm
03:23 AM 25.5°F-3.6°C 19.0°F-7.2°C 76% 4.7 mph N7.6 kmh N 9.9 mph15.9 kmh 29.96 in1014.6 mb 0.00 in0.0 mm 0.00 in0.0 mm 0.00 in0.0 mm
03:22 AM 25.5°F-3.6°C 19.0°F-7.2°C 76% 4.2 mph NNW6.8 kmh NNW 9.9 mph15.9 kmh 29.96 in1014.6 mb 0.00 in0.0 mm 0.00 in0.0 mm 0.00 in0.0 mm
03:21 AM 25.5°F-3.6°C 19.0°F-7.2°C 76% 3.7 mph W6.0 kmh W 9.9 mph15.9 kmh 29.96 in1014.6 mb 0.00 in0.0 mm 0.00 in0.0 mm 0.00 in0.0 mm
03:20 AM 25.5°F-3.6°C 19.0°F-7.2°C 76% 3.7 mph ESE6.0 kmh ESE 9.9 mph15.9 kmh 29.96 in1014.6 mb 0.00 in0.0 mm 0.00 in0.0 mm 0.00 in0.0 mm
03:19 AM 25.5°F-3.6°C 19.0°F-7.2°C 76% 3.7 mph N6.0 kmh N 9.9 mph15.9 kmh 29.96 in1014.6 mb 0.00 in0.0 mm 0.00 in0.0 mm 0.00 in0.0 mm
03:18 AM 25.5°F-3.6°C 19.0°F-7.2°C 76% 4.2 mph NNW6.8 kmh NNW 9.9 mph15.9 kmh 29.96 in1014.6 mb 0.00 in0.0 mm 0.00 in0.0 mm 0.00 in0.0 mm
03:17 AM 25.5°F-3.6°C 19.0°F-7.2°C 76% 3.7 mph NW6.0 kmh NW 9.9 mph15.9 kmh 29.96 in1014.6 mb 0.00 in0.0 mm 0.00 in0.0 mm 0.00 in0.0 mm
03:16 AM 25.5°F-3.6°C 19.0°F-7.2°C 76% 3.7 mph NW6.0 kmh NW 9.9 mph15.9 kmh 29.96 in1014.6 mb 0.00 in0.0 mm 0.00 in0.0 mm 0.00 in0.0 mm
03:15 AM 25.5°F-3.6°C 19.0°F-7.2°C 76% 6.3 mph NW10.1 kmh NW 9.9 mph15.9 kmh 29.96 in1014.6 mb 0.00 in0.0 mm 0.00 in0.0 mm 0.00 in0.0 mm
03:14 AM 25.5°F-3.6°C 19.0°F-7.2°C 76% 3.7 mph NW6.0 kmh NW 7.8 mph12.6 kmh 29.96 in1014.6 mb 0.00 in0.0 mm 0.00 in0.0 mm 0.00 in0.0 mm
03:13 AM 25.5°F-3.6°C 19.0°F-7.2°C 76% 3.2 mph NNE5.1 kmh NNE 7.8 mph12.6 kmh 29.96 in1014.6 mb 0.00 in0.0 mm 0.00 in0.0 mm 0.00 in0.0 mm
03:12 AM 25.5°F-3.6°C 19.0°F-7.2°C 76% 4.7 mph NNE7.6 kmh NNE 7.8 mph12.6 kmh 29.96 in1014.6 mb 0.00 in0.0 mm 0.00 in0.0 mm 0.00 in0.0 mm
03:11 AM 25.5°F-3.6°C 19.0°F-7.2°C 76% 3.7 mph NNE6.0 kmh NNE 7.8 mph12.6 kmh 29.96 in1014.6 mb 0.00 in0.0 mm 0.00 in0.0 mm 0.00 in0.0 mm
03:10 AM 25.5°F-3.6°C 19.0°F-7.2°C 76% 3.7 mph NE6.0 kmh NE 7.8 mph12.6 kmh 29.96 in1014.6 mb 0.00 in0.0 mm 0.00 in0.0 mm 0.00 in0.0 mm
03:09 AM 25.5°F-3.6°C 19.0°F-7.2°C 76% 2.2 mph NNE3.5 kmh NNE 7.8 mph12.6 kmh 29.96 in1014.6 mb 0.00 in0.0 mm 0.00 in0.0 mm 0.00 in0.0 mm
03:08 AM 25.5°F-3.6°C 19.0°F-7.2°C 76% 5.3 mph N8.5 kmh N 7.8 mph12.6 kmh 29.96 in1014.6 mb 0.00 in0.0 mm 0.00 in0.0 mm 0.00 in0.0 mm
03:07 AM 25.7°F-3.5°C 19.2°F-7.1°C 76% 4.2 mph NNE6.8 kmh NNE 7.8 mph12.6 kmh 29.96 in1014.6 mb 0.00 in0.0 mm 0.00 in0.0 mm 0.00 in0.0 mm
03:06 AM 25.7°F-3.5°C 19.2°F-7.1°C 76% 3.7 mph NNW6.0 kmh NNW 6.3 mph10.1 kmh 29.96 in1014.6 mb 0.00 in0.0 mm 0.00 in0.0 mm 0.00 in0.0 mm
03:05 AM 25.7°F-3.5°C 19.2°F-7.1°C 76% 3.2 mph N5.1 kmh N 6.3 mph10.1 kmh 29.96 in1014.6 mb 0.00 in0.0 mm 0.00 in0.0 mm 0.00 in0.0 mm
03:04 AM 25.7°F-3.5°C 19.2°F-7.1°C 76% 3.2 mph NE5.1 kmh NE 6.3 mph10.1 kmh 29.96 in1014.6 mb 0.00 in0.0 mm 0.00 in0.0 mm 0.00 in0.0 mm
03:03 AM 25.7°F-3.5°C 19.2°F-7.1°C 76% 3.2 mph NE5.1 kmh NE 6.3 mph10.1 kmh 29.95 in1014.2 mb 0.00 in0.0 mm 0.00 in0.0 mm 0.00 in0.0 mm
03:02 AM 25.7°F-3.5°C 19.2°F-7.1°C 76% 3.7 mph N6.0 kmh N 6.3 mph10.1 kmh 29.95 in1014.2 mb 0.00 in0.0 mm 0.00 in0.0 mm 0.00 in0.0 mm
03:01 AM 25.7°F-3.5°C 19.2°F-7.1°C 76% 2.7 mph NNE4.3 kmh NNE 6.3 mph10.1 kmh 29.95 in1014.2 mb 0.00 in0.0 mm 0.00 in0.0 mm 0.00 in0.0 mm
03:00 AM 25.7°F-3.5°C 19.2°F-7.1°C 76% 4.7 mph NW7.6 kmh NW 6.3 mph10.1 kmh 29.95 in1014.2 mb 0.00 in0.0 mm 0.00 in0.0 mm 0.00 in0.0 mm
02:59 AM 25.7°F-3.5°C 19.2°F-7.1°C 76% 3.7 mph ESE6.0 kmh ESE 6.8 mph10.9 kmh 29.95 in1014.2 mb 0.00 in0.0 mm 0.00 in0.0 mm 0.00 in0.0 mm
02:58 AM 25.9°F-3.4°C 19.4°F-7.0°C 76% 6.3 mph WNW10.1 kmh WNW 6.8 mph10.9 kmh 29.95 in1014.2 mb 0.00 in0.0 mm 0.00 in0.0 mm 0.00 in0.0 mm
02:57 AM 25.9°F-3.4°C 19.4°F-7.0°C 76% 3.2 mph NW5.1 kmh NW 6.8 mph10.9 kmh 29.95 in1014.2 mb 0.00 in0.0 mm 0.00 in0.0 mm 0.00 in0.0 mm
02:56 AM 25.9°F-3.4°C 19.4°F-7.0°C 76% 5.3 mph NW8.5 kmh NW 6.8 mph10.9 kmh 29.95 in1014.2 mb 0.00 in0.0 mm 0.00 in0.0 mm 0.00 in0.0 mm
02:55 AM 25.9°F-3.4°C 19.7°F-6.8°C 77% 5.3 mph WNW8.5 kmh WNW 6.8 mph10.9 kmh 29.95 in1014.2 mb 0.00 in0.0 mm 0.00 in0.0 mm 0.00 in0.0 mm
02:54 AM 25.9°F-3.4°C 19.7°F-6.8°C 77% 4.2 mph NNE6.8 kmh NNE 6.8 mph10.9 kmh 29.95 in1014.2 mb 0.00 in0.0 mm 0.00 in0.0 mm 0.00 in0.0 mm
02:53 AM 25.9°F-3.4°C 19.7°F-6.8°C 77% 4.7 mph N7.6 kmh N 6.8 mph10.9 kmh 29.95 in1014.2 mb 0.00 in0.0 mm 0.00 in0.0 mm 0.00 in0.0 mm
02:52 AM 26.1°F-3.3°C 19.9°F-6.7°C 77% 3.7 mph NNW6.0 kmh NNW 6.8 mph10.9 kmh 29.95 in1014.2 mb 0.00 in0.0 mm 0.00 in0.0 mm 0.00 in0.0 mm
02:51 AM 26.1°F-3.3°C 19.9°F-6.7°C 77% 3.2 mph N5.1 kmh N 6.8 mph10.9 kmh 29.95 in1014.2 mb 0.00 in0.0 mm 0.00 in0.0 mm 0.00 in0.0 mm
02:50 AM 26.1°F-3.3°C 19.9°F-6.7°C 77% 3.7 mph NNW6.0 kmh NNW 6.8 mph10.9 kmh 29.94 in1013.9 mb 0.00 in0.0 mm 0.00 in0.0 mm 0.00 in0.0 mm
02:49 AM 26.1°F-3.3°C 20.2°F-6.6°C 78% 3.2 mph NNE5.1 kmh NNE 6.3 mph10.1 kmh 29.94 in1013.9 mb 0.00 in0.0 mm 0.00 in0.0 mm 0.00 in0.0 mm
02:48 AM 26.1°F-3.3°C 20.2°F-6.6°C 78% 6.3 mph N10.1 kmh N 6.3 mph10.1 kmh 29.94 in1013.9 mb 0.00 in0.0 mm 0.00 in0.0 mm 0.00 in0.0 mm
02:47 AM 26.1°F-3.3°C 20.2°F-6.6°C 78% 3.2 mph NNW5.1 kmh NNW 5.8 mph9.3 kmh 29.94 in1013.9 mb 0.00 in0.0 mm 0.00 in0.0 mm 0.00 in0.0 mm
02:46 AM 26.1°F-3.3°C 20.2°F-6.6°C 78% 3.2 mph S5.1 kmh S 6.3 mph10.1 kmh 29.94 in1013.9 mb 0.00 in0.0 mm 0.00 in0.0 mm 0.00 in0.0 mm
02:45 AM 26.1°F-3.3°C 20.2°F-6.6°C 78% 4.2 mph NNW6.8 kmh NNW 7.3 mph11.7 kmh 29.94 in1013.9 mb 0.00 in0.0 mm 0.00 in0.0 mm 0.00 in0.0 mm
02:44 AM 26.1°F-3.3°C 20.2°F-6.6°C 78% 3.7 mph N6.0 kmh N 7.3 mph11.7 kmh 29.94 in1013.9 mb 0.00 in0.0 mm 0.00 in0.0 mm 0.00 in0.0 mm
02:43 AM 26.2°F-3.2°C 20.3°F-6.5°C 78% 3.2 mph NNE5.1 kmh NNE 7.3 mph11.7 kmh 29.94 in1013.9 mb 0.00 in0.0 mm 0.00 in0.0 mm 0.00 in0.0 mm
02:42 AM 26.2°F-3.2°C 20.3°F-6.5°C 78% 2.7 mph NNE4.3 kmh NNE 7.3 mph11.7 kmh 29.94 in1013.9 mb 0.00 in0.0 mm 0.00 in0.0 mm 0.00 in0.0 mm
02:41 AM 26.2°F-3.2°C 20.3°F-6.5°C 78% 2.7 mph NNE4.3 kmh NNE 7.3 mph11.7 kmh 29.94 in1013.9 mb 0.00 in0.0 mm 0.00 in0.0 mm 0.00 in0.0 mm
02:40 AM 26.2°F-3.2°C 20.3°F-6.5°C 78% 4.2 mph NNE6.8 kmh NNE 7.3 mph11.7 kmh 29.94 in1013.9 mb 0.00 in0.0 mm 0.00 in0.0 mm 0.00 in0.0 mm
02:39 AM 26.2°F-3.2°C 20.3°F-6.5°C 78% 5.3 mph NNE8.5 kmh NNE 7.3 mph11.7 kmh 29.94 in1013.9 mb 0.00 in0.0 mm 0.00 in0.0 mm 0.00 in0.0 mm
02:38 AM 26.2°F-3.2°C 20.3°F-6.5°C 78% 4.2 mph NNW6.8 kmh NNW 7.3 mph11.7 kmh 29.94 in1013.9 mb 0.00 in0.0 mm 0.00 in0.0 mm 0.00 in0.0 mm
02:37 AM 26.2°F-3.2°C 20.3°F-6.5°C 78% 2.7 mph NE4.3 kmh NE 7.3 mph11.7 kmh 29.94 in1013.9 mb 0.00 in0.0 mm 0.00 in0.0 mm 0.00 in0.0 mm
02:36 AM 26.2°F-3.2°C 20.3°F-6.5°C 78% 6.3 mph NW10.1 kmh NW 7.3 mph11.7 kmh 29.94 in1013.9 mb 0.00 in0.0 mm 0.00 in0.0 mm 0.00 in0.0 mm
02:35 AM 26.2°F-3.2°C 20.3°F-6.5°C 78% 4.2 mph NNE6.8 kmh NNE 7.3 mph11.7 kmh 29.94 in1013.9 mb 0.00 in0.0 mm 0.00 in0.0 mm 0.00 in0.0 mm
02:34 AM 26.2°F-3.2°C 20.3°F-6.5°C 78% 2.7 mph NE4.3 kmh NE 7.3 mph11.7 kmh 29.94 in1013.9 mb 0.00 in0.0 mm 0.00 in0.0 mm 0.00 in0.0 mm
02:33 AM 26.2°F-3.2°C 20.3°F-6.5°C 78% 4.7 mph NNW7.6 kmh NNW 7.3 mph11.7 kmh 29.94 in1013.9 mb 0.00 in0.0 mm 0.00 in0.0 mm 0.00 in0.0 mm
02:32 AM 26.2°F-3.2°C 20.3°F-6.5°C 78% 4.2 mph NNW6.8 kmh NNW 7.3 mph11.7 kmh 29.94 in1013.9 mb 0.00 in0.0 mm 0.00 in0.0 mm 0.00 in0.0 mm
02:31 AM 26.2°F-3.2°C 20.3°F-6.5°C 78% 3.7 mph WNW6.0 kmh WNW 7.3 mph11.7 kmh 29.94 in1013.9 mb 0.00 in0.0 mm 0.00 in0.0 mm 0.00 in0.0 mm
02:30 AM 26.4°F-3.1°C 20.5°F-6.4°C 78% 4.2 mph NNE6.8 kmh NNE 7.3 mph11.7 kmh 29.94 in1013.9 mb 0.00 in0.0 mm 0.00 in0.0 mm 0.00 in0.0 mm
02:29 AM 26.4°F-3.1°C 20.5°F-6.4°C 78% 3.7 mph N6.0 kmh N 5.8 mph9.3 kmh 29.94 in1013.9 mb 0.00 in0.0 mm 0.00 in0.0 mm 0.00 in0.0 mm
02:28 AM 26.4°F-3.1°C 20.5°F-6.4°C 78% 2.7 mph NE4.3 kmh NE 5.8 mph9.3 kmh 29.94 in1013.9 mb 0.00 in0.0 mm 0.00 in0.0 mm 0.00 in0.0 mm
02:27 AM 26.4°F-3.1°C 20.5°F-6.4°C 78% 4.2 mph NNW6.8 kmh NNW 5.8 mph9.3 kmh 29.94 in1013.9 mb 0.00 in0.0 mm 0.00 in0.0 mm 0.00 in0.0 mm
02:26 AM 26.4°F-3.1°C 20.5°F-6.4°C 78% 5.8 mph NNE9.3 kmh NNE 5.8 mph9.3 kmh 29.94 in1013.9 mb 0.00 in0.0 mm 0.00 in0.0 mm 0.00 in0.0 mm
02:25 AM 26.4°F-3.1°C 20.5°F-6.4°C 78% 3.2 mph NNE5.1 kmh NNE 5.3 mph8.5 kmh 29.94 in1013.9 mb 0.00 in0.0 mm 0.00 in0.0 mm 0.00 in0.0 mm
02:24 AM 26.4°F-3.1°C 20.2°F-6.6°C 77% 3.2 mph NNW5.1 kmh NNW 5.8 mph9.3 kmh 29.94 in1013.9 mb 0.00 in0.0 mm 0.00 in0.0 mm 0.00 in0.0 mm
02:23 AM 26.4°F-3.1°C 20.2°F-6.6°C 77% 5.3 mph NW8.5 kmh NW 5.8 mph9.3 kmh 29.94 in1013.9 mb 0.00 in0.0 mm 0.00 in0.0 mm 0.00 in0.0 mm
02:22 AM 26.4°F-3.1°C 20.2°F-6.6°C 77% 5.3 mph NNW8.5 kmh NNW 5.8 mph9.3 kmh 29.94 in1013.9 mb 0.00 in0.0 mm 0.00 in0.0 mm 0.00 in0.0 mm
02:21 AM 26.4°F-3.1°C 20.2°F-6.6°C 77% 2.2 mph ENE3.5 kmh ENE 5.8 mph9.3 kmh 29.94 in1013.9 mb 0.00 in0.0 mm 0.00 in0.0 mm 0.00 in0.0 mm
02:20 AM 26.4°F-3.1°C 20.2°F-6.6°C 77% 3.2 mph NW5.1 kmh NW 7.3 mph11.7 kmh 29.94 in1013.9 mb 0.00 in0.0 mm 0.00 in0.0 mm 0.00 in0.0 mm
02:19 AM 26.4°F-3.1°C 20.2°F-6.6°C 77% 2.7 mph NNW4.3 kmh NNW 7.3 mph11.7 kmh 29.94 in1013.9 mb 0.00 in0.0 mm 0.00 in0.0 mm 0.00 in0.0 mm
02:18 AM 26.6°F-3.0°C 20.4°F-6.4°C 77% 4.7 mph NNW7.6 kmh NNW 7.3 mph11.7 kmh 29.94 in1013.9 mb 0.00 in0.0 mm 0.00 in0.0 mm 0.00 in0.0 mm
02:17 AM 26.6°F-3.0°C 20.4°F-6.4°C 77% 3.7 mph NNW6.0 kmh NNW 8.9 mph14.3 kmh 29.94 in1013.9 mb 0.00 in0.0 mm 0.00 in0.0 mm 0.00 in0.0 mm
02:16 AM 26.6°F-3.0°C 20.4°F-6.4°C 77% 2.7 mph NNE4.3 kmh NNE 8.9 mph14.3 kmh 29.94 in1013.9 mb 0.00 in0.0 mm 0.00 in0.0 mm 0.00 in0.0 mm
02:15 AM 26.6°F-3.0°C 20.4°F-6.4°C 77% 4.7 mph NNW7.6 kmh NNW 8.9 mph14.3 kmh 29.94 in1013.9 mb 0.00 in0.0 mm 0.00 in0.0 mm 0.00 in0.0 mm
02:14 AM 26.6°F-3.0°C 20.4°F-6.4°C 77% 2.7 mph NNE4.3 kmh NNE 8.9 mph14.3 kmh 29.93 in1013.5 mb 0.00 in0.0 mm 0.00 in0.0 mm 0.00 in0.0 mm
02:13 AM 26.6°F-3.0°C 20.4°F-6.4°C 77% 3.7 mph NNE6.0 kmh NNE 8.9 mph14.3 kmh 29.93 in1013.5 mb 0.00 in0.0 mm 0.00 in0.0 mm 0.00 in0.0 mm
02:12 AM 26.6°F-3.0°C 20.4°F-6.4°C 77% 5.8 mph NNW9.3 kmh NNW 8.9 mph14.3 kmh 29.93 in1013.5 mb 0.00 in0.0 mm 0.00 in0.0 mm 0.00 in0.0 mm
02:11 AM 26.6°F-3.0°C 20.4°F-6.4°C 77% 3.7 mph NNE6.0 kmh NNE 8.9 mph14.3 kmh 29.93 in1013.5 mb 0.00 in0.0 mm 0.00 in0.0 mm 0.00 in0.0 mm
02:10 AM 26.6°F-3.0°C 20.4°F-6.4°C 77% 7.3 mph WNW11.7 kmh WNW 8.9 mph14.3 kmh 29.93 in1013.5 mb 0.00 in0.0 mm 0.00 in0.0 mm 0.00 in0.0 mm
02:09 AM 26.8°F-2.9°C 20.6°F-6.3°C 77% 3.2 mph NNE5.1 kmh NNE 8.9 mph14.3 kmh 29.93 in1013.5 mb 0.00 in0.0 mm 0.00 in0.0 mm 0.00 in0.0 mm
02:08 AM 26.8°F-2.9°C 20.6°F-6.3°C 77% 5.8 mph NNE9.3 kmh NNE 8.9 mph14.3 kmh 29.93 in1013.5 mb 0.00 in0.0 mm 0.00 in0.0 mm 0.00 in0.0 mm
02:07 AM 26.8°F-2.9°C 20.9°F-6.2°C 78% 8.9 mph E14.3 kmh E 8.9 mph14.3 kmh 29.93 in1013.5 mb 0.00 in0.0 mm 0.00 in0.0 mm 0.00 in0.0 mm
02:06 AM 26.8°F-2.9°C 20.9°F-6.2°C 78% 3.7 mph NW6.0 kmh NW 6.8 mph10.9 kmh 29.93 in1013.5 mb 0.00 in0.0 mm 0.00 in0.0 mm 0.00 in0.0 mm
02:05 AM 26.8°F-2.9°C 20.9°F-6.2°C 78% 6.3 mph NW10.1 kmh NW 6.8 mph10.9 kmh 29.93 in1013.5 mb 0.00 in0.0 mm 0.00 in0.0 mm 0.00 in0.0 mm
02:04 AM 27.0°F-2.8°C 21.1°F-6.1°C 78% 4.7 mph NNE7.6 kmh NNE 6.8 mph10.9 kmh 29.93 in1013.5 mb 0.00 in0.0 mm 0.00 in0.0 mm 0.00 in0.0 mm
02:03 AM 27.0°F-2.8°C 21.1°F-6.1°C 78% 3.7 mph SE6.0 kmh SE 6.8 mph10.9 kmh 29.93 in1013.5 mb 0.00 in0.0 mm 0.00 in0.0 mm 0.00 in0.0 mm
02:02 AM 27.0°F-2.8°C 21.1°F-6.1°C 78% 3.2 mph NNE5.1 kmh NNE 7.3 mph11.7 kmh 29.93 in1013.5 mb 0.00 in0.0 mm 0.00 in0.0 mm 0.00 in0.0 mm
02:01 AM 27.0°F-2.8°C 21.1°F-6.1°C 78% 2.7 mph NNE4.3 kmh NNE 7.3 mph11.7 kmh 29.93 in1013.5 mb 0.00 in0.0 mm 0.00 in0.0 mm 0.00 in0.0 mm
02:00 AM 27.0°F-2.8°C 21.1°F-6.1°C 78% 3.7 mph NW6.0 kmh NW 7.3 mph11.7 kmh 29.93 in1013.5 mb 0.00 in0.0 mm 0.00 in0.0 mm 0.00 in0.0 mm
01:59 AM 27.0°F-2.8°C 21.1°F-6.1°C 78% 5.3 mph NNE8.5 kmh NNE 7.3 mph11.7 kmh 29.93 in1013.5 mb 0.00 in0.0 mm 0.00 in0.0 mm 0.00 in0.0 mm
01:58 AM 27.0°F-2.8°C 21.1°F-6.1°C 78% 3.7 mph NNW6.0 kmh NNW 7.3 mph11.7 kmh 29.93 in1013.5 mb 0.00 in0.0 mm 0.00 in0.0 mm 0.00 in0.0 mm
01:57 AM 27.0°F-2.8°C 21.1°F-6.1°C 78% 3.7 mph N6.0 kmh N 7.3 mph11.7 kmh 29.93 in1013.5 mb 0.00 in0.0 mm 0.00 in0.0 mm 0.00 in0.0 mm
01:56 AM 27.1°F-2.7°C 21.2°F-6.0°C 78% 2.2 mph NNE3.5 kmh NNE 7.3 mph11.7 kmh 29.93 in1013.5 mb 0.00 in0.0 mm 0.00 in0.0 mm 0.00 in0.0 mm
01:55 AM 27.1°F-2.7°C 21.2°F-6.0°C 78% 3.2 mph W5.1 kmh W 7.3 mph11.7 kmh 29.93 in1013.5 mb 0.00 in0.0 mm 0.00 in0.0 mm 0.00 in0.0 mm
01:54 AM 27.1°F-2.7°C 21.2°F-6.0°C 78% 3.7 mph WNW6.0 kmh WNW 7.3 mph11.7 kmh 29.93 in1013.5 mb 0.00 in0.0 mm 0.00 in0.0 mm 0.00 in0.0 mm
01:53 AM 27.1°F-2.7°C 21.2°F-6.0°C 78% 3.2 mph WNW5.1 kmh WNW 7.3 mph11.7 kmh 29.93 in1013.5 mb 0.00 in0.0 mm 0.00 in0.0 mm 0.00 in0.0 mm
01:52 AM 27.1°F-2.7°C 21.2°F-6.0°C 78% 6.3 mph WNW10.1 kmh WNW 6.3 mph10.1 kmh 29.93 in1013.5 mb 0.00 in0.0 mm 0.00 in0.0 mm 0.00 in0.0 mm
01:51 AM 27.1°F-2.7°C 21.2°F-6.0°C 78% 3.2 mph NNE5.1 kmh NNE 5.3 mph8.5 kmh 29.93 in1013.5 mb 0.00 in0.0 mm 0.00 in0.0 mm 0.00 in0.0 mm
01:50 AM 27.1°F-2.7°C 21.2°F-6.0°C 78% 2.2 mph NNE3.5 kmh NNE 5.3 mph8.5 kmh 29.93 in1013.5 mb 0.00 in0.0 mm 0.00 in0.0 mm 0.00 in0.0 mm
01:49 AM 27.1°F-2.7°C 21.2°F-6.0°C 78% 3.2 mph N5.1 kmh N 5.3 mph8.5 kmh 29.93 in1013.5 mb 0.00 in0.0 mm 0.00 in0.0 mm 0.00 in0.0 mm
01:48 AM 27.3°F-2.6°C 21.4°F-5.9°C 78% 2.7 mph NNE4.3 kmh NNE 5.3 mph8.5 kmh 29.93 in1013.5 mb 0.00 in0.0 mm 0.00 in0.0 mm 0.00 in0.0 mm
01:47 AM 27.3°F-2.6°C 21.4°F-5.9°C 78% 3.2 mph NNE5.1 kmh NNE 5.3 mph8.5 kmh 29.93 in1013.5 mb 0.00 in0.0 mm 0.00 in0.0 mm 0.00 in0.0 mm
01:46 AM 27.3°F-2.6°C 21.7°F-5.7°C 79% 3.2 mph N5.1 kmh N 5.3 mph8.5 kmh 29.93 in1013.5 mb 0.00 in0.0 mm 0.00 in0.0 mm 0.00 in0.0 mm
01:45 AM 27.3°F-2.6°C 21.7°F-5.7°C 79% 3.2 mph NNW5.1 kmh NNW 5.3 mph8.5 kmh 29.93 in1013.5 mb 0.00 in0.0 mm 0.00 in0.0 mm 0.00 in0.0 mm
01:44 AM 27.3°F-2.6°C 21.7°F-5.7°C 79% 2.7 mph ENE4.3 kmh ENE 4.7 mph7.6 kmh 29.93 in1013.5 mb 0.00 in0.0 mm 0.00 in0.0 mm 0.00 in0.0 mm
01:43 AM 27.3°F-2.6°C 21.7°F-5.7°C 79% 3.7 mph N6.0 kmh N 4.7 mph7.6 kmh 29.93 in1013.5 mb 0.00 in0.0 mm 0.00 in0.0 mm 0.00 in0.0 mm
01:42 AM 27.3°F-2.6°C 21.7°F-5.7°C 79% 3.2 mph NNE5.1 kmh NNE 4.7 mph7.6 kmh 29.93 in1013.5 mb 0.00 in0.0 mm 0.00 in0.0 mm 0.00 in0.0 mm
01:41 AM 27.3°F-2.6°C 21.7°F-5.7°C 79% 3.7 mph NNW6.0 kmh NNW 4.7 mph7.6 kmh 29.93 in1013.5 mb 0.00 in0.0 mm 0.00 in0.0 mm 0.00 in0.0 mm
01:40 AM 27.3°F-2.6°C 21.7°F-5.7°C 79% 2.7 mph NE4.3 kmh NE 4.7 mph7.6 kmh 29.93 in1013.5 mb 0.00 in0.0 mm 0.00 in0.0 mm 0.00 in0.0 mm
01:39 AM 27.5°F-2.5°C 21.9°F-5.6°C 79% 2.7 mph NE4.3 kmh NE 4.7 mph7.6 kmh 29.92 in1013.2 mb 0.00 in0.0 mm 0.00 in0.0 mm 0.00 in0.0 mm
01:38 AM 27.5°F-2.5°C 21.9°F-5.6°C 79% 2.7 mph N4.3 kmh N 4.7 mph7.6 kmh 29.92 in1013.2 mb 0.00 in0.0 mm 0.00 in0.0 mm 0.00 in0.0 mm
01:37 AM 27.5°F-2.5°C 21.9°F-5.6°C 79% 3.7 mph NNE6.0 kmh NNE 4.7 mph7.6 kmh 29.92 in1013.2 mb 0.00 in0.0 mm 0.00 in0.0 mm 0.00 in0.0 mm
01:36 AM 27.5°F-2.5°C 21.9°F-5.6°C 79% 2.7 mph NW4.3 kmh NW 4.7 mph7.6 kmh 29.92 in1013.2 mb 0.00 in0.0 mm 0.00 in0.0 mm 0.00 in0.0 mm
01:35 AM 27.5°F-2.5°C 21.9°F-5.6°C 79% 2.7 mph NNW4.3 kmh NNW 6.8 mph10.9 kmh 29.92 in1013.2 mb 0.00 in0.0 mm 0.00 in0.0 mm 0.00 in0.0 mm
01:34 AM 27.5°F-2.5°C 21.9°F-5.6°C 79% 4.7 mph NW7.6 kmh NW 6.8 mph10.9 kmh 29.92 in1013.2 mb 0.00 in0.0 mm 0.00 in0.0 mm 0.00 in0.0 mm
01:33 AM 27.7°F-2.4°C 21.8°F-5.7°C 78% 4.7 mph N7.6 kmh N 6.8 mph10.9 kmh 29.92 in1013.2 mb 0.00 in0.0 mm 0.00 in0.0 mm 0.00 in0.0 mm
01:32 AM 27.7°F-2.4°C 21.8°F-5.7°C 78% 4.7 mph NNE7.6 kmh NNE 6.8 mph10.9 kmh 29.92 in1013.2 mb 0.00 in0.0 mm 0.00 in0.0 mm 0.00 in0.0 mm
01:31 AM 27.7°F-2.4°C 21.8°F-5.7°C 78% 3.2 mph NE5.1 kmh NE 6.8 mph10.9 kmh 29.92 in1013.2 mb 0.00 in0.0 mm 0.00 in0.0 mm 0.00 in0.0 mm
01:30 AM 27.7°F-2.4°C 21.8°F-5.7°C 78% 3.2 mph NNW5.1 kmh NNW 6.8 mph10.9 kmh 29.92 in1013.2 mb 0.00 in0.0 mm 0.00 in0.0 mm 0.00 in0.0 mm
01:29 AM 27.7°F-2.4°C 21.8°F-5.7°C 78% 2.7 mph N4.3 kmh N 6.8 mph10.9 kmh 29.92 in1013.2 mb 0.00 in0.0 mm 0.00 in0.0 mm 0.00 in0.0 mm
01:28 AM 27.7°F-2.4°C 21.8°F-5.7°C 78% 1.7 mph NE2.7 kmh NE 6.8 mph10.9 kmh 29.92 in1013.2 mb 0.00 in0.0 mm 0.00 in0.0 mm 0.00 in0.0 mm
01:27 AM 27.7°F-2.4°C 21.8°F-5.7°C 78% 4.2 mph NNW6.8 kmh NNW 6.8 mph10.9 kmh 29.92 in1013.2 mb 0.00 in0.0 mm 0.00 in0.0 mm 0.00 in0.0 mm
01:26 AM 27.7°F-2.4°C 21.8°F-5.7°C 78% 4.2 mph NNW6.8 kmh NNW 6.8 mph10.9 kmh 29.93 in1013.5 mb 0.00 in0.0 mm 0.00 in0.0 mm 0.00 in0.0 mm
01:25 AM 27.7°F-2.4°C 21.8°F-5.7°C 78% 6.8 mph N10.9 kmh N 6.8 mph10.9 kmh 29.93 in1013.5 mb 0.00 in0.0 mm 0.00 in0.0 mm 0.00 in0.0 mm
01:24 AM 27.7°F-2.4°C 21.8°F-5.7°C 78% 3.7 mph NE6.0 kmh NE 5.8 mph9.3 kmh 29.93 in1013.5 mb 0.00 in0.0 mm 0.00 in0.0 mm 0.00 in0.0 mm
01:23 AM 27.7°F-2.4°C 21.8°F-5.7°C 78% 3.7 mph N6.0 kmh N 5.8 mph9.3 kmh 29.93 in1013.5 mb 0.00 in0.0 mm 0.00 in0.0 mm 0.00 in0.0 mm
01:22 AM 27.7°F-2.4°C 21.8°F-5.7°C 78% 2.7 mph NNW4.3 kmh NNW 5.8 mph9.3 kmh 29.93 in1013.5 mb 0.00 in0.0 mm 0.00 in0.0 mm 0.00 in0.0 mm
01:21 AM 27.9°F-2.3°C 21.9°F-5.6°C 78% 2.7 mph NNE4.3 kmh NNE 5.8 mph9.3 kmh 29.93 in1013.5 mb 0.00 in0.0 mm 0.00 in0.0 mm 0.00 in0.0 mm
01:20 AM 27.9°F-2.3°C 21.9°F-5.6°C 78% 3.2 mph NNE5.1 kmh NNE 5.8 mph9.3 kmh 29.93 in1013.5 mb 0.00 in0.0 mm 0.00 in0.0 mm 0.00 in0.0 mm
01:19 AM 27.9°F-2.3°C 21.9°F-5.6°C 78% 3.2 mph NNW5.1 kmh NNW 5.8 mph9.3 kmh 29.93 in1013.5 mb 0.00 in0.0 mm 0.00 in0.0 mm 0.00 in0.0 mm
01:18 AM 27.9°F-2.3°C 21.9°F-5.6°C 78% 4.7 mph ESE7.6 kmh ESE 5.8 mph9.3 kmh 29.93 in1013.5 mb 0.00 in0.0 mm 0.00 in0.0 mm 0.00 in0.0 mm
01:17 AM 27.9°F-2.3°C 21.9°F-5.6°C 78% 5.8 mph NNW9.3 kmh NNW 5.8 mph9.3 kmh 29.93 in1013.5 mb 0.00 in0.0 mm 0.00 in0.0 mm 0.00 in0.0 mm
01:16 AM 27.9°F-2.3°C 21.9°F-5.6°C 78% 3.7 mph NNE6.0 kmh NNE 5.8 mph9.3 kmh 29.93 in1013.5 mb 0.00 in0.0 mm 0.00 in0.0 mm 0.00 in0.0 mm
01:15 AM 27.9°F-2.3°C 21.9°F-5.6°C 78% 4.2 mph ESE6.8 kmh ESE 5.8 mph9.3 kmh 29.93 in1013.5 mb 0.00 in0.0 mm 0.00 in0.0 mm 0.00 in0.0 mm
01:14 AM 28.0°F-2.2°C 22.0°F-5.6°C 78% 4.7 mph NW7.6 kmh NW 5.8 mph9.3 kmh 29.93 in1013.5 mb 0.00 in0.0 mm 0.00 in0.0 mm 0.00 in0.0 mm
01:13 AM 28.0°F-2.2°C 22.0°F-5.6°C 78% 4.2 mph NW6.8 kmh NW 5.8 mph9.3 kmh 29.93 in1013.5 mb 0.00 in0.0 mm 0.00 in0.0 mm 0.00 in0.0 mm
01:12 AM 28.0°F-2.2°C 22.0°F-5.6°C 78% 4.2 mph NE6.8 kmh NE 5.8 mph9.3 kmh 29.93 in1013.5 mb 0.00 in0.0 mm 0.00 in0.0 mm 0.00 in0.0 mm
01:11 AM 28.0°F-2.2°C 22.0°F-5.6°C 78% 3.7 mph NNE6.0 kmh NNE 5.8 mph9.3 kmh 29.93 in1013.5 mb 0.00 in0.0 mm 0.00 in0.0 mm 0.00 in0.0 mm
01:10 AM 28.0°F-2.2°C 22.0°F-5.6°C 78% 3.2 mph NNW5.1 kmh NNW 6.8 mph10.9 kmh 29.93 in1013.5 mb 0.00 in0.0 mm 0.00 in0.0 mm 0.00 in0.0 mm
01:09 AM 28.0°F-2.2°C 22.0°F-5.6°C 78% 3.2 mph NNW5.1 kmh NNW 6.8 mph10.9 kmh 29.93 in1013.5 mb 0.00 in0.0 mm 0.00 in0.0 mm 0.00 in0.0 mm
01:08 AM 28.0°F-2.2°C 22.0°F-5.6°C 78% 4.2 mph SW6.8 kmh SW 6.8 mph10.9 kmh 29.93 in1013.5 mb 0.00 in0.0 mm 0.00 in0.0 mm 0.00 in0.0 mm
01:07 AM 28.0°F-2.2°C 22.0°F-5.6°C 78% 4.7 mph NNW7.6 kmh NNW 6.8 mph10.9 kmh 29.93 in1013.5 mb 0.00 in0.0 mm 0.00 in0.0 mm 0.00 in0.0 mm
01:06 AM 28.2°F-2.1°C 21.9°F-5.6°C 77% 5.3 mph NNW8.5 kmh NNW 6.8 mph10.9 kmh 29.93 in1013.5 mb 0.00 in0.0 mm 0.00 in0.0 mm 0.00 in0.0 mm
01:05 AM 28.2°F-2.1°C 21.9°F-5.6°C 77% 2.7 mph NNE4.3 kmh NNE 6.8 mph10.9 kmh 29.93 in1013.5 mb 0.00 in0.0 mm 0.00 in0.0 mm 0.00 in0.0 mm
01:04 AM 28.2°F-2.1°C 21.9°F-5.6°C 77% 3.7 mph N6.0 kmh N 6.8 mph10.9 kmh 29.93 in1013.5 mb 0.00 in0.0 mm 0.00 in0.0 mm 0.00 in0.0 mm
01:03 AM 28.2°F-2.1°C 21.9°F-5.6°C 77% 5.8 mph N9.3 kmh N 6.8 mph10.9 kmh 29.93 in1013.5 mb 0.00 in0.0 mm 0.00 in0.0 mm 0.00 in0.0 mm
01:02 AM 28.2°F-2.1°C 21.9°F-5.6°C 77% 2.7 mph NNE4.3 kmh NNE 6.8 mph10.9 kmh 29.92 in1013.2 mb 0.00 in0.0 mm 0.00 in0.0 mm 0.00 in0.0 mm
01:01 AM 28.2°F-2.1°C 21.6°F-5.8°C 76% 2.7 mph N4.3 kmh N 6.8 mph10.9 kmh 29.92 in1013.2 mb 0.00 in0.0 mm 0.00 in0.0 mm 0.00 in0.0 mm
01:00 AM 28.2°F-2.1°C 21.6°F-5.8°C 76% 5.3 mph NNE8.5 kmh NNE 6.3 mph10.1 kmh 29.92 in1013.2 mb 0.00 in0.0 mm 0.00 in0.0 mm 0.00 in0.0 mm
12:59 AM 28.2°F-2.1°C 21.6°F-5.8°C 76% 6.3 mph ENE10.1 kmh ENE 6.3 mph10.1 kmh 29.92 in1013.2 mb 0.00 in0.0 mm 0.00 in0.0 mm 0.00 in0.0 mm
12:58 AM 28.2°F-2.1°C 21.6°F-5.8°C 76% 3.2 mph NNW5.1 kmh NNW 5.8 mph9.3 kmh 29.92 in1013.2 mb 0.00 in0.0 mm 0.00 in0.0 mm 0.00 in0.0 mm
12:57 AM 28.2°F-2.1°C 21.6°F-5.8°C 76% 4.7 mph NNE7.6 kmh NNE 5.8 mph9.3 kmh 29.92 in1013.2 mb 0.00 in0.0 mm 0.00 in0.0 mm 0.00 in0.0 mm
12:56 AM 28.2°F-2.1°C 21.9°F-5.6°C 77% 3.7 mph NNE6.0 kmh NNE 5.8 mph9.3 kmh 29.92 in1013.2 mb 0.00 in0.0 mm 0.00 in0.0 mm 0.00 in0.0 mm
12:55 AM 28.2°F-2.1°C 21.9°F-5.6°C 77% 4.7 mph N7.6 kmh N 5.8 mph9.3 kmh 29.92 in1013.2 mb 0.00 in0.0 mm 0.00 in0.0 mm 0.00 in0.0 mm
12:54 AM 28.2°F-2.1°C 21.9°F-5.6°C 77% 4.7 mph N7.6 kmh N 5.8 mph9.3 kmh 29.92 in1013.2 mb 0.00 in0.0 mm 0.00 in0.0 mm 0.00 in0.0 mm
12:53 AM 28.2°F-2.1°C 22.2°F-5.4°C 78% 5.8 mph NNE9.3 kmh NNE 5.8 mph9.3 kmh 29.92 in1013.2 mb 0.00 in0.0 mm 0.00 in0.0 mm 0.00 in0.0 mm
12:52 AM 28.2°F-2.1°C 22.2°F-5.4°C 78% 2.7 mph NNE4.3 kmh NNE 5.8 mph9.3 kmh 29.92 in1013.2 mb 0.00 in0.0 mm 0.00 in0.0 mm 0.00 in0.0 mm
12:51 AM 28.2°F-2.1°C 22.2°F-5.4°C 78% 2.7 mph NNW4.3 kmh NNW 5.8 mph9.3 kmh 29.92 in1013.2 mb 0.00 in0.0 mm 0.00 in0.0 mm 0.00 in0.0 mm
12:50 AM 28.2°F-2.1°C 22.2°F-5.4°C 78% 3.7 mph WNW6.0 kmh WNW 5.8 mph9.3 kmh 29.92 in1013.2 mb 0.00 in0.0 mm 0.00 in0.0 mm 0.00 in0.0 mm
12:49 AM 28.4°F-2.0°C 22.4°F-5.3°C 78% 3.2 mph NNE5.1 kmh NNE 5.8 mph9.3 kmh 29.92 in1013.2 mb 0.00 in0.0 mm 0.00 in0.0 mm 0.00 in0.0 mm
12:48 AM 28.4°F-2.0°C 22.7°F-5.2°C 79% 3.2 mph N5.1 kmh N 5.8 mph9.3 kmh 29.92 in1013.2 mb 0.00 in0.0 mm 0.00 in0.0 mm 0.00 in0.0 mm
12:47 AM 28.4°F-2.0°C 22.7°F-5.2°C 79% 4.7 mph NNE7.6 kmh NNE 5.8 mph9.3 kmh 29.92 in1013.2 mb 0.00 in0.0 mm 0.00 in0.0 mm 0.00 in0.0 mm
12:46 AM 28.4°F-2.0°C 22.7°F-5.2°C 79% 3.7 mph N6.0 kmh N 5.8 mph9.3 kmh 29.92 in1013.2 mb 0.00 in0.0 mm 0.00 in0.0 mm 0.00 in0.0 mm
12:45 AM 28.4°F-2.0°C 23.0°F-5.0°C 80% 4.2 mph NNE6.8 kmh NNE 5.8 mph9.3 kmh 29.92 in1013.2 mb 0.00 in0.0 mm 0.00 in0.0 mm 0.00 in0.0 mm
12:44 AM 28.4°F-2.0°C 23.0°F-5.0°C 80% 2.2 mph NNE3.5 kmh NNE 8.3 mph13.4 kmh 29.92 in1013.2 mb 0.00 in0.0 mm 0.00 in0.0 mm 0.00 in0.0 mm
12:43 AM 28.4°F-2.0°C 23.0°F-5.0°C 80% 2.7 mph NNE4.3 kmh NNE 8.3 mph13.4 kmh 29.92 in1013.2 mb 0.00 in0.0 mm 0.00 in0.0 mm 0.00 in0.0 mm
12:42 AM 28.4°F-2.0°C 23.0°F-5.0°C 80% 2.7 mph N4.3 kmh N 8.3 mph13.4 kmh 29.92 in1013.2 mb 0.00 in0.0 mm 0.00 in0.0 mm 0.00 in0.0 mm
12:41 AM 28.4°F-2.0°C 23.0°F-5.0°C 80% 3.7 mph NNE6.0 kmh NNE 8.3 mph13.4 kmh 29.92 in1013.2 mb 0.00 in0.0 mm 0.00 in0.0 mm 0.00 in0.0 mm
12:40 AM 28.4°F-2.0°C 23.0°F-5.0°C 80% 2.2 mph NNW3.5 kmh NNW 8.3 mph13.4 kmh 29.92 in1013.2 mb 0.00 in0.0 mm 0.00 in0.0 mm 0.00 in0.0 mm
12:39 AM 28.4°F-2.0°C 23.0°F-5.0°C 80% 2.7 mph NW4.3 kmh NW 8.3 mph13.4 kmh 29.92 in1013.2 mb 0.00 in0.0 mm 0.00 in0.0 mm 0.00 in0.0 mm
12:38 AM 28.6°F-1.9°C 23.5°F-4.7°C 81% 5.3 mph N8.5 kmh N 8.3 mph13.4 kmh 29.92 in1013.2 mb 0.00 in0.0 mm 0.00 in0.0 mm 0.00 in0.0 mm
12:37 AM 28.6°F-1.9°C 23.5°F-4.7°C 81% 3.2 mph NNE5.1 kmh NNE 8.3 mph13.4 kmh 29.92 in1013.2 mb 0.00 in0.0 mm 0.00 in0.0 mm 0.00 in0.0 mm
12:36 AM 28.6°F-1.9°C 23.5°F-4.7°C 81% 5.3 mph N8.5 kmh N 8.3 mph13.4 kmh 29.92 in1013.2 mb 0.00 in0.0 mm 0.00 in0.0 mm 0.00 in0.0 mm
12:35 AM 28.6°F-1.9°C 23.5°F-4.7°C 81% 4.2 mph NNE6.8 kmh NNE 8.3 mph13.4 kmh 29.92 in1013.2 mb 0.00 in0.0 mm 0.00 in0.0 mm 0.00 in0.0 mm
12:34 AM 28.6°F-1.9°C 23.5°F-4.7°C 81% 3.2 mph E5.1 kmh E 6.3 mph10.1 kmh 29.92 in1013.2 mb 0.00 in0.0 mm 0.00 in0.0 mm 0.00 in0.0 mm
12:33 AM 28.8°F-1.8°C 23.7°F-4.6°C 81% 3.7 mph N6.0 kmh N 6.3 mph10.1 kmh 29.92 in1013.2 mb 0.00 in0.0 mm 0.00 in0.0 mm 0.00 in0.0 mm
12:32 AM 28.8°F-1.8°C 23.7°F-4.6°C 81% 6.3 mph NW10.1 kmh NW 6.3 mph10.1 kmh 29.92 in1013.2 mb 0.00 in0.0 mm 0.00 in0.0 mm 0.00 in0.0 mm
12:31 AM 28.8°F-1.8°C 23.7°F-4.6°C 81% 4.2 mph NNW6.8 kmh NNW 5.8 mph9.3 kmh 29.92 in1013.2 mb 0.00 in0.0 mm 0.00 in0.0 mm 0.00 in0.0 mm
12:30 AM 28.8°F-1.8°C 23.7°F-4.6°C 81% 4.7 mph N7.6 kmh N 5.8 mph9.3 kmh 29.92 in1013.2 mb 0.00 in0.0 mm 0.00 in0.0 mm 0.00 in0.0 mm
12:29 AM 28.8°F-1.8°C 23.7°F-4.6°C 81% 3.2 mph N5.1 kmh N 4.7 mph7.6 kmh 29.92 in1013.2 mb 0.00 in0.0 mm 0.00 in0.0 mm 0.00 in0.0 mm
12:28 AM 28.8°F-1.8°C 23.7°F-4.6°C 81% 3.2 mph N5.1 kmh N 4.7 mph7.6 kmh 29.92 in1013.2 mb 0.00 in0.0 mm 0.00 in0.0 mm 0.00 in0.0 mm
12:27 AM 28.8°F-1.8°C 23.7°F-4.6°C 81% 2.7 mph NNE4.3 kmh NNE 6.3 mph10.1 kmh 29.92 in1013.2 mb 0.00 in0.0 mm 0.00 in0.0 mm 0.00 in0.0 mm
12:26 AM 28.8°F-1.8°C 23.7°F-4.6°C 81% 2.7 mph NNE4.3 kmh NNE 6.3 mph10.1 kmh 29.92 in1013.2 mb 0.00 in0.0 mm 0.00 in0.0 mm 0.00 in0.0 mm
12:25 AM 28.8°F-1.8°C 23.7°F-4.6°C 81% 3.7 mph NNE6.0 kmh NNE 6.3 mph10.1 kmh 29.92 in1013.2 mb 0.00 in0.0 mm 0.00 in0.0 mm 0.00 in0.0 mm
12:24 AM 28.8°F-1.8°C 23.7°F-4.6°C 81% 3.7 mph NW6.0 kmh NW 6.3 mph10.1 kmh 29.92 in1013.2 mb 0.00 in0.0 mm 0.00 in0.0 mm 0.00 in0.0 mm
12:23 AM 28.8°F-1.8°C 23.7°F-4.6°C 81% 2.2 mph SSW3.5 kmh SSW 6.3 mph10.1 kmh 29.92 in1013.2 mb 0.00 in0.0 mm 0.00 in0.0 mm 0.00 in0.0 mm
12:22 AM 28.8°F-1.8°C 23.7°F-4.6°C 81% 2.2 mph NNE3.5 kmh NNE 6.3 mph10.1 kmh 29.92 in1013.2 mb 0.00 in0.0 mm 0.00 in0.0 mm 0.00 in0.0 mm
12:21 AM 28.9°F-1.7°C 23.8°F-4.6°C 81% 2.7 mph NNE4.3 kmh NNE 6.3 mph10.1 kmh 29.92 in1013.2 mb 0.00 in0.0 mm 0.00 in0.0 mm 0.00 in0.0 mm
12:20 AM 28.9°F-1.7°C 23.8°F-4.6°C 81% 3.7 mph N6.0 kmh N 6.3 mph10.1 kmh 29.92 in1013.2 mb 0.00 in0.0 mm 0.00 in0.0 mm 0.00 in0.0 mm
12:19 AM 28.9°F-1.7°C 23.8°F-4.6°C 81% 2.7 mph N4.3 kmh N 6.3 mph10.1 kmh 29.92 in1013.2 mb 0.00 in0.0 mm 0.00 in0.0 mm 0.00 in0.0 mm
12:18 AM 28.9°F-1.7°C 23.8°F-4.6°C 81% 4.7 mph N7.6 kmh N 6.3 mph10.1 kmh 29.92 in1013.2 mb 0.00 in0.0 mm 0.00 in0.0 mm 0.00 in0.0 mm
12:17 AM 28.9°F-1.7°C 24.1°F-4.4°C 82% 4.2 mph N6.8 kmh N 5.3 mph8.5 kmh 29.92 in1013.2 mb 0.00 in0.0 mm 0.00 in0.0 mm 0.00 in0.0 mm
12:16 AM 28.9°F-1.7°C 24.1°F-4.4°C 82% 3.7 mph NNW6.0 kmh NNW 5.3 mph8.5 kmh 29.92 in1013.2 mb 0.00 in0.0 mm 0.00 in0.0 mm 0.00 in0.0 mm
12:15 AM 28.9°F-1.7°C 24.1°F-4.4°C 82% 5.3 mph NW8.5 kmh NW 5.3 mph8.5 kmh 29.92 in1013.2 mb 0.00 in0.0 mm 0.00 in0.0 mm 0.00 in0.0 mm
12:14 AM 28.9°F-1.7°C 24.1°F-4.4°C 82% 3.2 mph N5.1 kmh N 4.2 mph6.8 kmh 29.92 in1013.2 mb 0.00 in0.0 mm 0.00 in0.0 mm 0.00 in0.0 mm
12:13 AM 28.9°F-1.7°C 24.1°F-4.4°C 82% 3.7 mph NNW6.0 kmh NNW 5.3 mph8.5 kmh 29.92 in1013.2 mb 0.00 in0.0 mm 0.00 in0.0 mm 0.00 in0.0 mm
12:12 AM 28.9°F-1.7°C 24.1°F-4.4°C 82% 2.2 mph NNE3.5 kmh NNE 5.3 mph8.5 kmh 29.92 in1013.2 mb 0.00 in0.0 mm 0.00 in0.0 mm 0.00 in0.0 mm
12:11 AM 28.9°F-1.7°C 24.1°F-4.4°C 82% 2.2 mph NE3.5 kmh NE 5.3 mph8.5 kmh 29.92 in1013.2 mb 0.00 in0.0 mm 0.00 in0.0 mm 0.00 in0.0 mm
12:10 AM 29.1°F-1.6°C 24.3°F-4.3°C 82% 3.7 mph NNE6.0 kmh NNE 5.3 mph8.5 kmh 29.92 in1013.2 mb 0.00 in0.0 mm 0.00 in0.0 mm 0.00 in0.0 mm
12:09 AM 29.1°F-1.6°C 24.3°F-4.3°C 82% 3.2 mph NNW5.1 kmh NNW 5.3 mph8.5 kmh 29.92 in1013.2 mb 0.00 in0.0 mm 0.00 in0.0 mm 0.00 in0.0 mm
12:08 AM 29.1°F-1.6°C 24.3°F-4.3°C 82% 4.2 mph NNE6.8 kmh NNE 5.3 mph8.5 kmh 29.92 in1013.2 mb 0.00 in0.0 mm 0.00 in0.0 mm 0.00 in0.0 mm
12:07 AM 29.1°F-1.6°C 24.3°F-4.3°C 82% 2.7 mph NNW4.3 kmh NNW 5.8 mph9.3 kmh 29.92 in1013.2 mb 0.00 in0.0 mm 0.00 in0.0 mm 0.00 in0.0 mm
12:06 AM 29.1°F-1.6°C 24.3°F-4.3°C 82% 2.7 mph NNE4.3 kmh NNE 5.8 mph9.3 kmh 29.92 in1013.2 mb 0.00 in0.0 mm 0.00 in0.0 mm 0.00 in0.0 mm
12:05 AM 29.1°F-1.6°C 24.3°F-4.3°C 82% 3.7 mph NW6.0 kmh NW 5.8 mph9.3 kmh 29.92 in1013.2 mb 0.00 in0.0 mm 0.00 in0.0 mm 0.00 in0.0 mm
12:04 AM 29.1°F-1.6°C 24.3°F-4.3°C 82% 2.2 mph NE3.5 kmh NE 5.8 mph9.3 kmh 29.92 in1013.2 mb 0.00 in0.0 mm 0.00 in0.0 mm 0.00 in0.0 mm
12:03 AM 29.3°F-1.5°C 24.5°F-4.2°C 82% 3.7 mph NE6.0 kmh NE 5.8 mph9.3 kmh 29.92 in1013.2 mb 0.00 in0.0 mm 0.00 in0.0 mm 0.00 in0.0 mm
12:02 AM 29.3°F-1.5°C 24.5°F-4.2°C 82% 3.7 mph NE6.0 kmh NE 5.8 mph9.3 kmh 29.92 in1013.2 mb 0.00 in0.0 mm 0.00 in0.0 mm 0.00 in0.0 mm
12:01 AM 29.3°F-1.5°C 24.2°F-4.3°C 81% 2.7 mph NNE4.3 kmh NNE 5.8 mph9.3 kmh 29.92 in1013.2 mb 0.00 in0.0 mm 0.00 in0.0 mm 0.00 in0.0 mm
12:00 AM 29.3°F-1.5°C 24.2°F-4.3°C 81% 3.7 mph NNE6.0 kmh NNE 5.8 mph9.3 kmh 29.92 in1013.2 mb 0.00 in0.0 mm 0.00 in0.0 mm 0.00 in0.0 mm